<?xml version="1.0" encoding="UTF-8" standalone="no" ?>
<gpx xmlns="http://www.topografix.com/GPX/1/1" xmlns:xsi="http://www.w3.org/2001/XMLSchema-instance" xsi:schemaLocation="http://www.topografix.com/GPX/1/1 http://www.topografix.com/GPX/1/1/gpx.xsd" version="1.1" creator="VisuGPX - https://www.visugpx.com">
  <metadata>
    <name>2015-05-30-AYDAT</name>
  </metadata>
  <trk>
    <name><![CDATA[2015-05-30-AYDAT]]></name>
    <trkseg>
      <trkpt lat="45.69411" lon="2.99587">
        <ele>854.27</ele>
        <time>2015-05-30T06:48:54Z</time>
      </trkpt>
      <trkpt lat="45.69412" lon="2.99588">
        <ele>847.54</ele>
        <time>2015-05-30T06:49:08Z</time>
      </trkpt>
      <trkpt lat="45.69412" lon="2.99588">
        <ele>861.48</ele>
        <time>2015-05-30T06:49:09Z</time>
      </trkpt>
      <trkpt lat="45.69412" lon="2.99588">
        <ele>855.71</ele>
        <time>2015-05-30T06:49:10Z</time>
      </trkpt>
      <trkpt lat="45.69412" lon="2.99587">
        <ele>855.23</ele>
        <time>2015-05-30T06:49:20Z</time>
      </trkpt>
      <trkpt lat="45.69408" lon="2.99583">
        <ele>855.71</ele>
        <time>2015-05-30T06:49:24Z</time>
      </trkpt>
      <trkpt lat="45.69405" lon="2.99557">
        <ele>856.19</ele>
        <time>2015-05-30T06:49:32Z</time>
      </trkpt>
      <trkpt lat="45.69414" lon="2.99503">
        <ele>856.19</ele>
        <time>2015-05-30T06:49:44Z</time>
      </trkpt>
      <trkpt lat="45.69413" lon="2.99488">
        <ele>857.15</ele>
        <time>2015-05-30T06:49:47Z</time>
      </trkpt>
      <trkpt lat="45.69421" lon="2.99454">
        <ele>858.59</ele>
        <time>2015-05-30T06:49:56Z</time>
      </trkpt>
      <trkpt lat="45.69424" lon="2.99445">
        <ele>859.08</ele>
        <time>2015-05-30T06:49:58Z</time>
      </trkpt>
      <trkpt lat="45.69427" lon="2.99439">
        <ele>859.56</ele>
        <time>2015-05-30T06:50:00Z</time>
      </trkpt>
      <trkpt lat="45.69446" lon="2.99421">
        <ele>860.04</ele>
        <time>2015-05-30T06:50:10Z</time>
      </trkpt>
      <trkpt lat="45.69471" lon="2.99388">
        <ele>862.44</ele>
        <time>2015-05-30T06:50:21Z</time>
      </trkpt>
      <trkpt lat="45.69482" lon="2.99373">
        <ele>863.4</ele>
        <time>2015-05-30T06:50:26Z</time>
      </trkpt>
      <trkpt lat="45.69488" lon="2.99358">
        <ele>864.84</ele>
        <time>2015-05-30T06:50:31Z</time>
      </trkpt>
      <trkpt lat="45.69503" lon="2.99321">
        <ele>865.8</ele>
        <time>2015-05-30T06:50:42Z</time>
      </trkpt>
      <trkpt lat="45.69506" lon="2.99287">
        <ele>868.21</ele>
        <time>2015-05-30T06:50:52Z</time>
      </trkpt>
      <trkpt lat="45.69505" lon="2.99269">
        <ele>869.65</ele>
        <time>2015-05-30T06:50:59Z</time>
      </trkpt>
      <trkpt lat="45.69511" lon="2.99249">
        <ele>870.13</ele>
        <time>2015-05-30T06:51:05Z</time>
      </trkpt>
      <trkpt lat="45.69513" lon="2.99238">
        <ele>870.61</ele>
        <time>2015-05-30T06:51:08Z</time>
      </trkpt>
      <trkpt lat="45.69519" lon="2.99224">
        <ele>870.61</ele>
        <time>2015-05-30T06:51:12Z</time>
      </trkpt>
      <trkpt lat="45.6954" lon="2.9918">
        <ele>872.05</ele>
        <time>2015-05-30T06:51:24Z</time>
      </trkpt>
      <trkpt lat="45.69559" lon="2.99147">
        <ele>873.5</ele>
        <time>2015-05-30T06:51:35Z</time>
      </trkpt>
      <trkpt lat="45.69561" lon="2.99144">
        <ele>873.5</ele>
        <time>2015-05-30T06:51:36Z</time>
      </trkpt>
      <trkpt lat="45.6956" lon="2.99136">
        <ele>874.46</ele>
        <time>2015-05-30T06:51:39Z</time>
      </trkpt>
      <trkpt lat="45.69555" lon="2.99117">
        <ele>875.9</ele>
        <time>2015-05-30T06:51:44Z</time>
      </trkpt>
      <trkpt lat="45.69538" lon="2.99086">
        <ele>877.34</ele>
        <time>2015-05-30T06:51:54Z</time>
      </trkpt>
      <trkpt lat="45.69535" lon="2.99077">
        <ele>877.34</ele>
        <time>2015-05-30T06:51:56Z</time>
      </trkpt>
      <trkpt lat="45.69534" lon="2.99067">
        <ele>877.34</ele>
        <time>2015-05-30T06:52:00Z</time>
      </trkpt>
      <trkpt lat="45.6953" lon="2.99042">
        <ele>877.34</ele>
        <time>2015-05-30T06:52:05Z</time>
      </trkpt>
      <trkpt lat="45.69524" lon="2.99033">
        <ele>877.34</ele>
        <time>2015-05-30T06:52:07Z</time>
      </trkpt>
      <trkpt lat="45.69518" lon="2.98993">
        <ele>874.94</ele>
        <time>2015-05-30T06:52:15Z</time>
      </trkpt>
      <trkpt lat="45.69518" lon="2.98983">
        <ele>874.94</ele>
        <time>2015-05-30T06:52:16Z</time>
      </trkpt>
      <trkpt lat="45.69519" lon="2.98974">
        <ele>874.94</ele>
        <time>2015-05-30T06:52:17Z</time>
      </trkpt>
      <trkpt lat="45.6952" lon="2.98967">
        <ele>874.94</ele>
        <time>2015-05-30T06:52:18Z</time>
      </trkpt>
      <trkpt lat="45.69521" lon="2.98961">
        <ele>874.94</ele>
        <time>2015-05-30T06:52:19Z</time>
      </trkpt>
      <trkpt lat="45.69523" lon="2.98955">
        <ele>874.94</ele>
        <time>2015-05-30T06:52:20Z</time>
      </trkpt>
      <trkpt lat="45.69526" lon="2.98949">
        <ele>875.42</ele>
        <time>2015-05-30T06:52:21Z</time>
      </trkpt>
      <trkpt lat="45.69528" lon="2.98943">
        <ele>875.42</ele>
        <time>2015-05-30T06:52:22Z</time>
      </trkpt>
      <trkpt lat="45.69552" lon="2.98888">
        <ele>876.38</ele>
        <time>2015-05-30T06:52:33Z</time>
      </trkpt>
      <trkpt lat="45.69559" lon="2.98865">
        <ele>877.34</ele>
        <time>2015-05-30T06:52:38Z</time>
      </trkpt>
      <trkpt lat="45.69561" lon="2.98861">
        <ele>877.82</ele>
        <time>2015-05-30T06:52:39Z</time>
      </trkpt>
      <trkpt lat="45.69563" lon="2.98857">
        <ele>877.82</ele>
        <time>2015-05-30T06:52:40Z</time>
      </trkpt>
      <trkpt lat="45.69564" lon="2.98854">
        <ele>877.82</ele>
        <time>2015-05-30T06:52:41Z</time>
      </trkpt>
      <trkpt lat="45.69565" lon="2.9885">
        <ele>878.3</ele>
        <time>2015-05-30T06:52:42Z</time>
      </trkpt>
      <trkpt lat="45.69566" lon="2.98845">
        <ele>878.3</ele>
        <time>2015-05-30T06:52:43Z</time>
      </trkpt>
      <trkpt lat="45.69567" lon="2.98841">
        <ele>878.78</ele>
        <time>2015-05-30T06:52:44Z</time>
      </trkpt>
      <trkpt lat="45.69568" lon="2.98837">
        <ele>878.78</ele>
        <time>2015-05-30T06:52:45Z</time>
      </trkpt>
      <trkpt lat="45.69569" lon="2.98833">
        <ele>879.26</ele>
        <time>2015-05-30T06:52:46Z</time>
      </trkpt>
      <trkpt lat="45.6957" lon="2.98829">
        <ele>879.26</ele>
        <time>2015-05-30T06:52:47Z</time>
      </trkpt>
      <trkpt lat="45.69577" lon="2.9878">
        <ele>881.19</ele>
        <time>2015-05-30T06:52:59Z</time>
      </trkpt>
      <trkpt lat="45.69589" lon="2.98745">
        <ele>882.63</ele>
        <time>2015-05-30T06:53:09Z</time>
      </trkpt>
      <trkpt lat="45.69608" lon="2.9871">
        <ele>880.71</ele>
        <time>2015-05-30T06:53:18Z</time>
      </trkpt>
      <trkpt lat="45.69611" lon="2.98703">
        <ele>880.22</ele>
        <time>2015-05-30T06:53:19Z</time>
      </trkpt>
      <trkpt lat="45.69618" lon="2.9868">
        <ele>879.74</ele>
        <time>2015-05-30T06:53:22Z</time>
      </trkpt>
      <trkpt lat="45.69617" lon="2.98671">
        <ele>879.74</ele>
        <time>2015-05-30T06:53:23Z</time>
      </trkpt>
      <trkpt lat="45.69617" lon="2.98664">
        <ele>880.22</ele>
        <time>2015-05-30T06:53:24Z</time>
      </trkpt>
      <trkpt lat="45.69624" lon="2.98596">
        <ele>882.63</ele>
        <time>2015-05-30T06:53:36Z</time>
      </trkpt>
      <trkpt lat="45.69638" lon="2.98536">
        <ele>885.03</ele>
        <time>2015-05-30T06:53:51Z</time>
      </trkpt>
      <trkpt lat="45.6964" lon="2.98528">
        <ele>885.03</ele>
        <time>2015-05-30T06:53:53Z</time>
      </trkpt>
      <trkpt lat="45.69639" lon="2.98491">
        <ele>887.43</ele>
        <time>2015-05-30T06:54:04Z</time>
      </trkpt>
      <trkpt lat="45.69643" lon="2.9846">
        <ele>889.84</ele>
        <time>2015-05-30T06:54:14Z</time>
      </trkpt>
      <trkpt lat="45.69647" lon="2.98446">
        <ele>890.8</ele>
        <time>2015-05-30T06:54:19Z</time>
      </trkpt>
      <trkpt lat="45.69648" lon="2.98444">
        <ele>891.28</ele>
        <time>2015-05-30T06:54:20Z</time>
      </trkpt>
      <trkpt lat="45.69649" lon="2.98442">
        <ele>891.28</ele>
        <time>2015-05-30T06:54:21Z</time>
      </trkpt>
      <trkpt lat="45.69649" lon="2.98439">
        <ele>891.28</ele>
        <time>2015-05-30T06:54:22Z</time>
      </trkpt>
      <trkpt lat="45.6965" lon="2.98436">
        <ele>891.76</ele>
        <time>2015-05-30T06:54:23Z</time>
      </trkpt>
      <trkpt lat="45.6965" lon="2.98432">
        <ele>891.76</ele>
        <time>2015-05-30T06:54:24Z</time>
      </trkpt>
      <trkpt lat="45.6965" lon="2.98429">
        <ele>891.76</ele>
        <time>2015-05-30T06:54:25Z</time>
      </trkpt>
      <trkpt lat="45.6965" lon="2.98425">
        <ele>892.24</ele>
        <time>2015-05-30T06:54:26Z</time>
      </trkpt>
      <trkpt lat="45.6965" lon="2.98423">
        <ele>892.24</ele>
        <time>2015-05-30T06:54:27Z</time>
      </trkpt>
      <trkpt lat="45.69649" lon="2.9842">
        <ele>892.24</ele>
        <time>2015-05-30T06:54:28Z</time>
      </trkpt>
      <trkpt lat="45.6965" lon="2.98417">
        <ele>892.24</ele>
        <time>2015-05-30T06:54:29Z</time>
      </trkpt>
      <trkpt lat="45.6965" lon="2.98414">
        <ele>892.72</ele>
        <time>2015-05-30T06:54:30Z</time>
      </trkpt>
      <trkpt lat="45.6965" lon="2.9841">
        <ele>892.72</ele>
        <time>2015-05-30T06:54:31Z</time>
      </trkpt>
      <trkpt lat="45.69651" lon="2.98407">
        <ele>893.2</ele>
        <time>2015-05-30T06:54:32Z</time>
      </trkpt>
      <trkpt lat="45.69651" lon="2.98397">
        <ele>893.68</ele>
        <time>2015-05-30T06:54:36Z</time>
      </trkpt>
      <trkpt lat="45.69652" lon="2.98394">
        <ele>893.68</ele>
        <time>2015-05-30T06:54:37Z</time>
      </trkpt>
      <trkpt lat="45.69652" lon="2.98392">
        <ele>893.68</ele>
        <time>2015-05-30T06:54:38Z</time>
      </trkpt>
      <trkpt lat="45.69653" lon="2.9839">
        <ele>894.16</ele>
        <time>2015-05-30T06:54:39Z</time>
      </trkpt>
      <trkpt lat="45.69654" lon="2.98387">
        <ele>894.16</ele>
        <time>2015-05-30T06:54:40Z</time>
      </trkpt>
      <trkpt lat="45.69654" lon="2.98385">
        <ele>894.16</ele>
        <time>2015-05-30T06:54:41Z</time>
      </trkpt>
      <trkpt lat="45.69655" lon="2.98384">
        <ele>894.16</ele>
        <time>2015-05-30T06:54:42Z</time>
      </trkpt>
      <trkpt lat="45.69657" lon="2.98358">
        <ele>895.12</ele>
        <time>2015-05-30T06:54:50Z</time>
      </trkpt>
      <trkpt lat="45.69657" lon="2.98355">
        <ele>895.12</ele>
        <time>2015-05-30T06:54:51Z</time>
      </trkpt>
      <trkpt lat="45.69657" lon="2.98352">
        <ele>895.12</ele>
        <time>2015-05-30T06:54:52Z</time>
      </trkpt>
      <trkpt lat="45.69658" lon="2.98348">
        <ele>895.12</ele>
        <time>2015-05-30T06:54:53Z</time>
      </trkpt>
      <trkpt lat="45.69666" lon="2.98303">
        <ele>895.61</ele>
        <time>2015-05-30T06:55:04Z</time>
      </trkpt>
      <trkpt lat="45.69666" lon="2.98299">
        <ele>895.61</ele>
        <time>2015-05-30T06:55:05Z</time>
      </trkpt>
      <trkpt lat="45.69666" lon="2.98295">
        <ele>895.61</ele>
        <time>2015-05-30T06:55:06Z</time>
      </trkpt>
      <trkpt lat="45.69668" lon="2.9829">
        <ele>895.61</ele>
        <time>2015-05-30T06:55:07Z</time>
      </trkpt>
      <trkpt lat="45.69669" lon="2.98286">
        <ele>895.61</ele>
        <time>2015-05-30T06:55:08Z</time>
      </trkpt>
      <trkpt lat="45.6967" lon="2.98283">
        <ele>896.09</ele>
        <time>2015-05-30T06:55:09Z</time>
      </trkpt>
      <trkpt lat="45.69672" lon="2.9828">
        <ele>896.09</ele>
        <time>2015-05-30T06:55:10Z</time>
      </trkpt>
      <trkpt lat="45.69671" lon="2.98277">
        <ele>896.09</ele>
        <time>2015-05-30T06:55:11Z</time>
      </trkpt>
      <trkpt lat="45.69671" lon="2.98273">
        <ele>896.09</ele>
        <time>2015-05-30T06:55:12Z</time>
      </trkpt>
      <trkpt lat="45.69675" lon="2.98244">
        <ele>896.09</ele>
        <time>2015-05-30T06:55:20Z</time>
      </trkpt>
      <trkpt lat="45.69676" lon="2.9824">
        <ele>896.09</ele>
        <time>2015-05-30T06:55:21Z</time>
      </trkpt>
      <trkpt lat="45.69677" lon="2.98236">
        <ele>896.09</ele>
        <time>2015-05-30T06:55:22Z</time>
      </trkpt>
      <trkpt lat="45.69678" lon="2.98233">
        <ele>896.09</ele>
        <time>2015-05-30T06:55:23Z</time>
      </trkpt>
      <trkpt lat="45.69679" lon="2.98229">
        <ele>896.09</ele>
        <time>2015-05-30T06:55:24Z</time>
      </trkpt>
      <trkpt lat="45.69679" lon="2.98225">
        <ele>896.09</ele>
        <time>2015-05-30T06:55:25Z</time>
      </trkpt>
      <trkpt lat="45.69679" lon="2.98221">
        <ele>896.09</ele>
        <time>2015-05-30T06:55:26Z</time>
      </trkpt>
      <trkpt lat="45.69679" lon="2.98217">
        <ele>896.09</ele>
        <time>2015-05-30T06:55:27Z</time>
      </trkpt>
      <trkpt lat="45.6968" lon="2.98213">
        <ele>896.57</ele>
        <time>2015-05-30T06:55:28Z</time>
      </trkpt>
      <trkpt lat="45.69681" lon="2.98209">
        <ele>896.57</ele>
        <time>2015-05-30T06:55:29Z</time>
      </trkpt>
      <trkpt lat="45.69682" lon="2.98205">
        <ele>896.57</ele>
        <time>2015-05-30T06:55:30Z</time>
      </trkpt>
      <trkpt lat="45.69683" lon="2.98201">
        <ele>896.57</ele>
        <time>2015-05-30T06:55:31Z</time>
      </trkpt>
      <trkpt lat="45.69683" lon="2.98197">
        <ele>896.57</ele>
        <time>2015-05-30T06:55:32Z</time>
      </trkpt>
      <trkpt lat="45.69683" lon="2.98193">
        <ele>896.57</ele>
        <time>2015-05-30T06:55:33Z</time>
      </trkpt>
      <trkpt lat="45.69684" lon="2.9819">
        <ele>896.57</ele>
        <time>2015-05-30T06:55:34Z</time>
      </trkpt>
      <trkpt lat="45.69696" lon="2.98151">
        <ele>896.09</ele>
        <time>2015-05-30T06:55:43Z</time>
      </trkpt>
      <trkpt lat="45.69696" lon="2.98141">
        <ele>896.09</ele>
        <time>2015-05-30T06:55:46Z</time>
      </trkpt>
      <trkpt lat="45.69695" lon="2.98138">
        <ele>896.09</ele>
        <time>2015-05-30T06:55:47Z</time>
      </trkpt>
      <trkpt lat="45.69696" lon="2.98134">
        <ele>896.09</ele>
        <time>2015-05-30T06:55:48Z</time>
      </trkpt>
      <trkpt lat="45.69697" lon="2.9813">
        <ele>896.09</ele>
        <time>2015-05-30T06:55:49Z</time>
      </trkpt>
      <trkpt lat="45.697" lon="2.98125">
        <ele>896.09</ele>
        <time>2015-05-30T06:55:50Z</time>
      </trkpt>
      <trkpt lat="45.69704" lon="2.98114">
        <ele>896.09</ele>
        <time>2015-05-30T06:55:53Z</time>
      </trkpt>
      <trkpt lat="45.69705" lon="2.98111">
        <ele>896.09</ele>
        <time>2015-05-30T06:55:54Z</time>
      </trkpt>
      <trkpt lat="45.69705" lon="2.98108">
        <ele>896.09</ele>
        <time>2015-05-30T06:55:55Z</time>
      </trkpt>
      <trkpt lat="45.69706" lon="2.98106">
        <ele>896.57</ele>
        <time>2015-05-30T06:55:56Z</time>
      </trkpt>
      <trkpt lat="45.69706" lon="2.98103">
        <ele>896.57</ele>
        <time>2015-05-30T06:55:58Z</time>
      </trkpt>
      <trkpt lat="45.69707" lon="2.98102">
        <ele>896.57</ele>
        <time>2015-05-30T06:55:59Z</time>
      </trkpt>
      <trkpt lat="45.69707" lon="2.98098">
        <ele>896.57</ele>
        <time>2015-05-30T06:56:00Z</time>
      </trkpt>
      <trkpt lat="45.69708" lon="2.98095">
        <ele>896.57</ele>
        <time>2015-05-30T06:56:01Z</time>
      </trkpt>
      <trkpt lat="45.69709" lon="2.98093">
        <ele>896.57</ele>
        <time>2015-05-30T06:56:02Z</time>
      </trkpt>
      <trkpt lat="45.69711" lon="2.98091">
        <ele>896.57</ele>
        <time>2015-05-30T06:56:03Z</time>
      </trkpt>
      <trkpt lat="45.69721" lon="2.98085">
        <ele>896.57</ele>
        <time>2015-05-30T06:56:07Z</time>
      </trkpt>
      <trkpt lat="45.69725" lon="2.98079">
        <ele>896.57</ele>
        <time>2015-05-30T06:56:09Z</time>
      </trkpt>
      <trkpt lat="45.69725" lon="2.98061">
        <ele>897.05</ele>
        <time>2015-05-30T06:56:14Z</time>
      </trkpt>
      <trkpt lat="45.69727" lon="2.98037">
        <ele>897.53</ele>
        <time>2015-05-30T06:56:19Z</time>
      </trkpt>
      <trkpt lat="45.69727" lon="2.97965">
        <ele>898.97</ele>
        <time>2015-05-30T06:56:32Z</time>
      </trkpt>
      <trkpt lat="45.6973" lon="2.97951">
        <ele>899.45</ele>
        <time>2015-05-30T06:56:36Z</time>
      </trkpt>
      <trkpt lat="45.69734" lon="2.97935">
        <ele>899.45</ele>
        <time>2015-05-30T06:56:40Z</time>
      </trkpt>
      <trkpt lat="45.69737" lon="2.97929">
        <ele>899.93</ele>
        <time>2015-05-30T06:56:42Z</time>
      </trkpt>
      <trkpt lat="45.69739" lon="2.97924">
        <ele>900.41</ele>
        <time>2015-05-30T06:56:51Z</time>
      </trkpt>
      <trkpt lat="45.69751" lon="2.97902">
        <ele>900.89</ele>
        <time>2015-05-30T06:57:00Z</time>
      </trkpt>
      <trkpt lat="45.69761" lon="2.97868">
        <ele>902.33</ele>
        <time>2015-05-30T06:57:11Z</time>
      </trkpt>
      <trkpt lat="45.69773" lon="2.97829">
        <ele>903.78</ele>
        <time>2015-05-30T06:57:22Z</time>
      </trkpt>
      <trkpt lat="45.69789" lon="2.97804">
        <ele>904.26</ele>
        <time>2015-05-30T06:57:29Z</time>
      </trkpt>
      <trkpt lat="45.69796" lon="2.9778">
        <ele>905.7</ele>
        <time>2015-05-30T06:57:37Z</time>
      </trkpt>
      <trkpt lat="45.6981" lon="2.97743">
        <ele>906.66</ele>
        <time>2015-05-30T06:57:48Z</time>
      </trkpt>
      <trkpt lat="45.69812" lon="2.97725">
        <ele>908.1</ele>
        <time>2015-05-30T06:57:54Z</time>
      </trkpt>
      <trkpt lat="45.69811" lon="2.97723">
        <ele>908.1</ele>
        <time>2015-05-30T06:57:55Z</time>
      </trkpt>
      <trkpt lat="45.69816" lon="2.97698">
        <ele>909.06</ele>
        <time>2015-05-30T06:58:02Z</time>
      </trkpt>
      <trkpt lat="45.69818" lon="2.97694">
        <ele>909.06</ele>
        <time>2015-05-30T06:58:04Z</time>
      </trkpt>
      <trkpt lat="45.69819" lon="2.97674">
        <ele>909.54</ele>
        <time>2015-05-30T06:58:08Z</time>
      </trkpt>
      <trkpt lat="45.69823" lon="2.97651">
        <ele>910.51</ele>
        <time>2015-05-30T06:58:14Z</time>
      </trkpt>
      <trkpt lat="45.69824" lon="2.97644">
        <ele>910.51</ele>
        <time>2015-05-30T06:58:16Z</time>
      </trkpt>
      <trkpt lat="45.69828" lon="2.97633">
        <ele>911.47</ele>
        <time>2015-05-30T06:58:19Z</time>
      </trkpt>
      <trkpt lat="45.69831" lon="2.97617">
        <ele>911.95</ele>
        <time>2015-05-30T06:58:24Z</time>
      </trkpt>
      <trkpt lat="45.69831" lon="2.9761">
        <ele>912.43</ele>
        <time>2015-05-30T06:58:28Z</time>
      </trkpt>
      <trkpt lat="45.69839" lon="2.97579">
        <ele>913.87</ele>
        <time>2015-05-30T06:58:38Z</time>
      </trkpt>
      <trkpt lat="45.69845" lon="2.97557">
        <ele>914.83</ele>
        <time>2015-05-30T06:58:45Z</time>
      </trkpt>
      <trkpt lat="45.69854" lon="2.97531">
        <ele>916.27</ele>
        <time>2015-05-30T06:58:55Z</time>
      </trkpt>
      <trkpt lat="45.69857" lon="2.97522">
        <ele>916.75</ele>
        <time>2015-05-30T06:58:58Z</time>
      </trkpt>
      <trkpt lat="45.69861" lon="2.97515">
        <ele>917.24</ele>
        <time>2015-05-30T06:59:00Z</time>
      </trkpt>
      <trkpt lat="45.69862" lon="2.97512">
        <ele>917.24</ele>
        <time>2015-05-30T06:59:01Z</time>
      </trkpt>
      <trkpt lat="45.69869" lon="2.97497">
        <ele>918.2</ele>
        <time>2015-05-30T06:59:07Z</time>
      </trkpt>
      <trkpt lat="45.69874" lon="2.97471">
        <ele>919.64</ele>
        <time>2015-05-30T06:59:17Z</time>
      </trkpt>
      <trkpt lat="45.69874" lon="2.97469">
        <ele>919.64</ele>
        <time>2015-05-30T06:59:18Z</time>
      </trkpt>
      <trkpt lat="45.69875" lon="2.97462">
        <ele>920.12</ele>
        <time>2015-05-30T06:59:23Z</time>
      </trkpt>
      <trkpt lat="45.69887" lon="2.97439">
        <ele>922.04</ele>
        <time>2015-05-30T06:59:33Z</time>
      </trkpt>
      <trkpt lat="45.69889" lon="2.97437">
        <ele>922.52</ele>
        <time>2015-05-30T06:59:34Z</time>
      </trkpt>
      <trkpt lat="45.69894" lon="2.97424">
        <ele>923.48</ele>
        <time>2015-05-30T06:59:40Z</time>
      </trkpt>
      <trkpt lat="45.69909" lon="2.97404">
        <ele>924.93</ele>
        <time>2015-05-30T06:59:49Z</time>
      </trkpt>
      <trkpt lat="45.69923" lon="2.97385">
        <ele>926.37</ele>
        <time>2015-05-30T06:59:57Z</time>
      </trkpt>
      <trkpt lat="45.6993" lon="2.97361">
        <ele>928.77</ele>
        <time>2015-05-30T07:00:07Z</time>
      </trkpt>
      <trkpt lat="45.69936" lon="2.97339">
        <ele>930.69</ele>
        <time>2015-05-30T07:00:17Z</time>
      </trkpt>
      <trkpt lat="45.6994" lon="2.97316">
        <ele>932.14</ele>
        <time>2015-05-30T07:00:28Z</time>
      </trkpt>
      <trkpt lat="45.69942" lon="2.97308">
        <ele>933.1</ele>
        <time>2015-05-30T07:00:32Z</time>
      </trkpt>
      <trkpt lat="45.69948" lon="2.97298">
        <ele>933.58</ele>
        <time>2015-05-30T07:00:38Z</time>
      </trkpt>
      <trkpt lat="45.69952" lon="2.97284">
        <ele>934.54</ele>
        <time>2015-05-30T07:00:44Z</time>
      </trkpt>
      <trkpt lat="45.69953" lon="2.97279">
        <ele>934.54</ele>
        <time>2015-05-30T07:00:46Z</time>
      </trkpt>
      <trkpt lat="45.69957" lon="2.97264">
        <ele>935.02</ele>
        <time>2015-05-30T07:00:52Z</time>
      </trkpt>
      <trkpt lat="45.6996" lon="2.97258">
        <ele>935.98</ele>
        <time>2015-05-30T07:00:55Z</time>
      </trkpt>
      <trkpt lat="45.69961" lon="2.9724">
        <ele>936.94</ele>
        <time>2015-05-30T07:01:04Z</time>
      </trkpt>
      <trkpt lat="45.69962" lon="2.97223">
        <ele>937.42</ele>
        <time>2015-05-30T07:01:10Z</time>
      </trkpt>
      <trkpt lat="45.69964" lon="2.97212">
        <ele>937.42</ele>
        <time>2015-05-30T07:01:13Z</time>
      </trkpt>
      <trkpt lat="45.69966" lon="2.97194">
        <ele>937.9</ele>
        <time>2015-05-30T07:01:20Z</time>
      </trkpt>
      <trkpt lat="45.69976" lon="2.97172">
        <ele>938.38</ele>
        <time>2015-05-30T07:01:28Z</time>
      </trkpt>
      <trkpt lat="45.69982" lon="2.97159">
        <ele>938.86</ele>
        <time>2015-05-30T07:01:32Z</time>
      </trkpt>
      <trkpt lat="45.69997" lon="2.97117">
        <ele>938.38</ele>
        <time>2015-05-30T07:01:43Z</time>
      </trkpt>
      <trkpt lat="45.70004" lon="2.97093">
        <ele>937.9</ele>
        <time>2015-05-30T07:01:48Z</time>
      </trkpt>
      <trkpt lat="45.70012" lon="2.97068">
        <ele>937.42</ele>
        <time>2015-05-30T07:01:53Z</time>
      </trkpt>
      <trkpt lat="45.70044" lon="2.97011">
        <ele>936.94</ele>
        <time>2015-05-30T07:02:05Z</time>
      </trkpt>
      <trkpt lat="45.70052" lon="2.96995">
        <ele>936.94</ele>
        <time>2015-05-30T07:02:08Z</time>
      </trkpt>
      <trkpt lat="45.70054" lon="2.96989">
        <ele>936.94</ele>
        <time>2015-05-30T07:02:09Z</time>
      </trkpt>
      <trkpt lat="45.70057" lon="2.96984">
        <ele>936.94</ele>
        <time>2015-05-30T07:02:10Z</time>
      </trkpt>
      <trkpt lat="45.70059" lon="2.96979">
        <ele>936.94</ele>
        <time>2015-05-30T07:02:11Z</time>
      </trkpt>
      <trkpt lat="45.70061" lon="2.96975">
        <ele>937.42</ele>
        <time>2015-05-30T07:02:12Z</time>
      </trkpt>
      <trkpt lat="45.70064" lon="2.96971">
        <ele>937.42</ele>
        <time>2015-05-30T07:02:13Z</time>
      </trkpt>
      <trkpt lat="45.70065" lon="2.96966">
        <ele>936.94</ele>
        <time>2015-05-30T07:02:14Z</time>
      </trkpt>
      <trkpt lat="45.70073" lon="2.96947">
        <ele>936.94</ele>
        <time>2015-05-30T07:02:18Z</time>
      </trkpt>
      <trkpt lat="45.70086" lon="2.96905">
        <ele>936.46</ele>
        <time>2015-05-30T07:02:26Z</time>
      </trkpt>
      <trkpt lat="45.7009" lon="2.96885">
        <ele>936.46</ele>
        <time>2015-05-30T07:02:29Z</time>
      </trkpt>
      <trkpt lat="45.70092" lon="2.9688">
        <ele>936.46</ele>
        <time>2015-05-30T07:02:30Z</time>
      </trkpt>
      <trkpt lat="45.70094" lon="2.96874">
        <ele>936.46</ele>
        <time>2015-05-30T07:02:31Z</time>
      </trkpt>
      <trkpt lat="45.70097" lon="2.96869">
        <ele>936.46</ele>
        <time>2015-05-30T07:02:32Z</time>
      </trkpt>
      <trkpt lat="45.70099" lon="2.96864">
        <ele>936.46</ele>
        <time>2015-05-30T07:02:33Z</time>
      </trkpt>
      <trkpt lat="45.70101" lon="2.9686">
        <ele>936.46</ele>
        <time>2015-05-30T07:02:34Z</time>
      </trkpt>
      <trkpt lat="45.70104" lon="2.96855">
        <ele>936.46</ele>
        <time>2015-05-30T07:02:35Z</time>
      </trkpt>
      <trkpt lat="45.70106" lon="2.9685">
        <ele>936.46</ele>
        <time>2015-05-30T07:02:36Z</time>
      </trkpt>
      <trkpt lat="45.70108" lon="2.96846">
        <ele>935.98</ele>
        <time>2015-05-30T07:02:37Z</time>
      </trkpt>
      <trkpt lat="45.70127" lon="2.96787">
        <ele>937.42</ele>
        <time>2015-05-30T07:02:50Z</time>
      </trkpt>
      <trkpt lat="45.70132" lon="2.96733">
        <ele>938.38</ele>
        <time>2015-05-30T07:03:02Z</time>
      </trkpt>
      <trkpt lat="45.70129" lon="2.96676">
        <ele>939.83</ele>
        <time>2015-05-30T07:03:15Z</time>
      </trkpt>
      <trkpt lat="45.70124" lon="2.96634">
        <ele>941.27</ele>
        <time>2015-05-30T07:03:26Z</time>
      </trkpt>
      <trkpt lat="45.70121" lon="2.96613">
        <ele>941.75</ele>
        <time>2015-05-30T07:03:32Z</time>
      </trkpt>
      <trkpt lat="45.70119" lon="2.9661">
        <ele>942.23</ele>
        <time>2015-05-30T07:03:33Z</time>
      </trkpt>
      <trkpt lat="45.70117" lon="2.96606">
        <ele>942.23</ele>
        <time>2015-05-30T07:03:34Z</time>
      </trkpt>
      <trkpt lat="45.70116" lon="2.96603">
        <ele>942.23</ele>
        <time>2015-05-30T07:03:35Z</time>
      </trkpt>
      <trkpt lat="45.70115" lon="2.966">
        <ele>942.23</ele>
        <time>2015-05-30T07:03:36Z</time>
      </trkpt>
      <trkpt lat="45.70113" lon="2.96597">
        <ele>942.71</ele>
        <time>2015-05-30T07:03:37Z</time>
      </trkpt>
      <trkpt lat="45.70111" lon="2.96593">
        <ele>942.71</ele>
        <time>2015-05-30T07:03:38Z</time>
      </trkpt>
      <trkpt lat="45.70096" lon="2.9657">
        <ele>944.15</ele>
        <time>2015-05-30T07:03:48Z</time>
      </trkpt>
      <trkpt lat="45.70091" lon="2.96562">
        <ele>945.11</ele>
        <time>2015-05-30T07:03:53Z</time>
      </trkpt>
      <trkpt lat="45.70089" lon="2.96559">
        <ele>945.59</ele>
        <time>2015-05-30T07:03:54Z</time>
      </trkpt>
      <trkpt lat="45.70087" lon="2.96557">
        <ele>945.59</ele>
        <time>2015-05-30T07:03:55Z</time>
      </trkpt>
      <trkpt lat="45.70086" lon="2.96554">
        <ele>945.59</ele>
        <time>2015-05-30T07:03:56Z</time>
      </trkpt>
      <trkpt lat="45.70084" lon="2.96551">
        <ele>946.07</ele>
        <time>2015-05-30T07:03:57Z</time>
      </trkpt>
      <trkpt lat="45.70083" lon="2.96549">
        <ele>946.07</ele>
        <time>2015-05-30T07:03:58Z</time>
      </trkpt>
      <trkpt lat="45.70081" lon="2.96545">
        <ele>946.56</ele>
        <time>2015-05-30T07:04:00Z</time>
      </trkpt>
      <trkpt lat="45.7008" lon="2.96541">
        <ele>946.56</ele>
        <time>2015-05-30T07:04:01Z</time>
      </trkpt>
      <trkpt lat="45.70072" lon="2.96515">
        <ele>948.48</ele>
        <time>2015-05-30T07:04:10Z</time>
      </trkpt>
      <trkpt lat="45.70062" lon="2.96481">
        <ele>950.88</ele>
        <time>2015-05-30T07:04:21Z</time>
      </trkpt>
      <trkpt lat="45.70062" lon="2.96473">
        <ele>951.36</ele>
        <time>2015-05-30T07:04:24Z</time>
      </trkpt>
      <trkpt lat="45.70062" lon="2.9647">
        <ele>951.84</ele>
        <time>2015-05-30T07:04:25Z</time>
      </trkpt>
      <trkpt lat="45.70062" lon="2.96467">
        <ele>951.84</ele>
        <time>2015-05-30T07:04:26Z</time>
      </trkpt>
      <trkpt lat="45.70062" lon="2.96465">
        <ele>951.84</ele>
        <time>2015-05-30T07:04:27Z</time>
      </trkpt>
      <trkpt lat="45.70062" lon="2.96463">
        <ele>951.84</ele>
        <time>2015-05-30T07:04:28Z</time>
      </trkpt>
      <trkpt lat="45.70061" lon="2.9646">
        <ele>952.32</ele>
        <time>2015-05-30T07:04:29Z</time>
      </trkpt>
      <trkpt lat="45.70061" lon="2.96458">
        <ele>952.32</ele>
        <time>2015-05-30T07:04:30Z</time>
      </trkpt>
      <trkpt lat="45.70061" lon="2.96453">
        <ele>952.8</ele>
        <time>2015-05-30T07:04:32Z</time>
      </trkpt>
      <trkpt lat="45.70062" lon="2.9645">
        <ele>952.8</ele>
        <time>2015-05-30T07:04:33Z</time>
      </trkpt>
      <trkpt lat="45.70063" lon="2.96448">
        <ele>952.8</ele>
        <time>2015-05-30T07:04:34Z</time>
      </trkpt>
      <trkpt lat="45.70063" lon="2.96445">
        <ele>953.28</ele>
        <time>2015-05-30T07:04:35Z</time>
      </trkpt>
      <trkpt lat="45.70064" lon="2.96442">
        <ele>953.28</ele>
        <time>2015-05-30T07:04:36Z</time>
      </trkpt>
      <trkpt lat="45.70065" lon="2.96439">
        <ele>953.28</ele>
        <time>2015-05-30T07:04:37Z</time>
      </trkpt>
      <trkpt lat="45.70065" lon="2.96437">
        <ele>953.28</ele>
        <time>2015-05-30T07:04:38Z</time>
      </trkpt>
      <trkpt lat="45.70065" lon="2.96433">
        <ele>953.77</ele>
        <time>2015-05-30T07:04:39Z</time>
      </trkpt>
      <trkpt lat="45.70066" lon="2.96403">
        <ele>955.21</ele>
        <time>2015-05-30T07:04:48Z</time>
      </trkpt>
      <trkpt lat="45.70067" lon="2.96401">
        <ele>955.21</ele>
        <time>2015-05-30T07:04:49Z</time>
      </trkpt>
      <trkpt lat="45.70067" lon="2.96399">
        <ele>955.69</ele>
        <time>2015-05-30T07:04:50Z</time>
      </trkpt>
      <trkpt lat="45.70068" lon="2.96398">
        <ele>955.69</ele>
        <time>2015-05-30T07:04:51Z</time>
      </trkpt>
      <trkpt lat="45.70068" lon="2.96395">
        <ele>955.69</ele>
        <time>2015-05-30T07:04:52Z</time>
      </trkpt>
      <trkpt lat="45.70069" lon="2.96392">
        <ele>956.17</ele>
        <time>2015-05-30T07:04:53Z</time>
      </trkpt>
      <trkpt lat="45.70069" lon="2.96389">
        <ele>956.17</ele>
        <time>2015-05-30T07:04:54Z</time>
      </trkpt>
      <trkpt lat="45.70069" lon="2.96386">
        <ele>956.17</ele>
        <time>2015-05-30T07:04:55Z</time>
      </trkpt>
      <trkpt lat="45.70068" lon="2.96383">
        <ele>956.65</ele>
        <time>2015-05-30T07:04:56Z</time>
      </trkpt>
      <trkpt lat="45.70068" lon="2.96379">
        <ele>956.17</ele>
        <time>2015-05-30T07:04:57Z</time>
      </trkpt>
      <trkpt lat="45.70068" lon="2.96376">
        <ele>957.61</ele>
        <time>2015-05-30T07:04:58Z</time>
      </trkpt>
      <trkpt lat="45.70068" lon="2.96373">
        <ele>956.65</ele>
        <time>2015-05-30T07:04:59Z</time>
      </trkpt>
      <trkpt lat="45.70068" lon="2.96342">
        <ele>958.57</ele>
        <time>2015-05-30T07:05:09Z</time>
      </trkpt>
      <trkpt lat="45.70069" lon="2.96333">
        <ele>959.05</ele>
        <time>2015-05-30T07:05:12Z</time>
      </trkpt>
      <trkpt lat="45.7007" lon="2.96331">
        <ele>959.53</ele>
        <time>2015-05-30T07:05:13Z</time>
      </trkpt>
      <trkpt lat="45.70071" lon="2.96329">
        <ele>959.53</ele>
        <time>2015-05-30T07:05:14Z</time>
      </trkpt>
      <trkpt lat="45.70071" lon="2.96326">
        <ele>959.53</ele>
        <time>2015-05-30T07:05:15Z</time>
      </trkpt>
      <trkpt lat="45.70072" lon="2.96323">
        <ele>959.53</ele>
        <time>2015-05-30T07:05:16Z</time>
      </trkpt>
      <trkpt lat="45.70072" lon="2.96318">
        <ele>959.05</ele>
        <time>2015-05-30T07:05:17Z</time>
      </trkpt>
      <trkpt lat="45.70077" lon="2.96296">
        <ele>958.09</ele>
        <time>2015-05-30T07:05:21Z</time>
      </trkpt>
      <trkpt lat="45.70078" lon="2.96281">
        <ele>957.13</ele>
        <time>2015-05-30T07:05:23Z</time>
      </trkpt>
      <trkpt lat="45.7008" lon="2.96274">
        <ele>957.13</ele>
        <time>2015-05-30T07:05:24Z</time>
      </trkpt>
      <trkpt lat="45.70085" lon="2.96259">
        <ele>956.65</ele>
        <time>2015-05-30T07:05:26Z</time>
      </trkpt>
      <trkpt lat="45.70102" lon="2.96225">
        <ele>954.73</ele>
        <time>2015-05-30T07:05:31Z</time>
      </trkpt>
      <trkpt lat="45.70106" lon="2.96218">
        <ele>954.25</ele>
        <time>2015-05-30T07:05:32Z</time>
      </trkpt>
      <trkpt lat="45.70109" lon="2.96211">
        <ele>954.25</ele>
        <time>2015-05-30T07:05:33Z</time>
      </trkpt>
      <trkpt lat="45.70113" lon="2.96203">
        <ele>954.25</ele>
        <time>2015-05-30T07:05:34Z</time>
      </trkpt>
      <trkpt lat="45.70116" lon="2.96195">
        <ele>953.77</ele>
        <time>2015-05-30T07:05:35Z</time>
      </trkpt>
      <trkpt lat="45.70119" lon="2.96187">
        <ele>953.28</ele>
        <time>2015-05-30T07:05:36Z</time>
      </trkpt>
      <trkpt lat="45.7013" lon="2.96162">
        <ele>952.32</ele>
        <time>2015-05-30T07:05:39Z</time>
      </trkpt>
      <trkpt lat="45.70156" lon="2.96119">
        <ele>951.84</ele>
        <time>2015-05-30T07:05:45Z</time>
      </trkpt>
      <trkpt lat="45.70161" lon="2.96112">
        <ele>951.84</ele>
        <time>2015-05-30T07:05:46Z</time>
      </trkpt>
      <trkpt lat="45.70165" lon="2.96105">
        <ele>951.84</ele>
        <time>2015-05-30T07:05:47Z</time>
      </trkpt>
      <trkpt lat="45.70173" lon="2.96093">
        <ele>951.84</ele>
        <time>2015-05-30T07:05:49Z</time>
      </trkpt>
      <trkpt lat="45.70175" lon="2.96087">
        <ele>951.84</ele>
        <time>2015-05-30T07:05:50Z</time>
      </trkpt>
      <trkpt lat="45.70185" lon="2.96066">
        <ele>952.32</ele>
        <time>2015-05-30T07:05:54Z</time>
      </trkpt>
      <trkpt lat="45.70188" lon="2.96061">
        <ele>952.32</ele>
        <time>2015-05-30T07:05:55Z</time>
      </trkpt>
      <trkpt lat="45.7019" lon="2.96057">
        <ele>952.8</ele>
        <time>2015-05-30T07:05:56Z</time>
      </trkpt>
      <trkpt lat="45.70192" lon="2.96053">
        <ele>953.28</ele>
        <time>2015-05-30T07:05:57Z</time>
      </trkpt>
      <trkpt lat="45.70194" lon="2.96049">
        <ele>953.28</ele>
        <time>2015-05-30T07:05:58Z</time>
      </trkpt>
      <trkpt lat="45.70196" lon="2.96045">
        <ele>953.77</ele>
        <time>2015-05-30T07:05:59Z</time>
      </trkpt>
      <trkpt lat="45.70214" lon="2.96012">
        <ele>954.25</ele>
        <time>2015-05-30T07:06:08Z</time>
      </trkpt>
      <trkpt lat="45.70216" lon="2.96008">
        <ele>954.25</ele>
        <time>2015-05-30T07:06:09Z</time>
      </trkpt>
      <trkpt lat="45.7024" lon="2.95966">
        <ele>955.21</ele>
        <time>2015-05-30T07:06:19Z</time>
      </trkpt>
      <trkpt lat="45.70247" lon="2.95962">
        <ele>954.73</ele>
        <time>2015-05-30T07:06:21Z</time>
      </trkpt>
      <trkpt lat="45.70251" lon="2.95957">
        <ele>954.73</ele>
        <time>2015-05-30T07:06:22Z</time>
      </trkpt>
      <trkpt lat="45.70255" lon="2.95951">
        <ele>954.25</ele>
        <time>2015-05-30T07:06:23Z</time>
      </trkpt>
      <trkpt lat="45.70258" lon="2.95945">
        <ele>954.25</ele>
        <time>2015-05-30T07:06:24Z</time>
      </trkpt>
      <trkpt lat="45.70261" lon="2.95938">
        <ele>954.25</ele>
        <time>2015-05-30T07:06:25Z</time>
      </trkpt>
      <trkpt lat="45.70262" lon="2.95931">
        <ele>954.25</ele>
        <time>2015-05-30T07:06:26Z</time>
      </trkpt>
      <trkpt lat="45.70263" lon="2.95925">
        <ele>954.25</ele>
        <time>2015-05-30T07:06:27Z</time>
      </trkpt>
      <trkpt lat="45.70265" lon="2.9592">
        <ele>954.73</ele>
        <time>2015-05-30T07:06:28Z</time>
      </trkpt>
      <trkpt lat="45.70267" lon="2.95916">
        <ele>954.73</ele>
        <time>2015-05-30T07:06:29Z</time>
      </trkpt>
      <trkpt lat="45.7027" lon="2.95912">
        <ele>954.73</ele>
        <time>2015-05-30T07:06:30Z</time>
      </trkpt>
      <trkpt lat="45.70273" lon="2.95908">
        <ele>954.25</ele>
        <time>2015-05-30T07:06:31Z</time>
      </trkpt>
      <trkpt lat="45.70276" lon="2.95902">
        <ele>954.25</ele>
        <time>2015-05-30T07:06:32Z</time>
      </trkpt>
      <trkpt lat="45.70278" lon="2.95897">
        <ele>954.25</ele>
        <time>2015-05-30T07:06:33Z</time>
      </trkpt>
      <trkpt lat="45.7028" lon="2.95893">
        <ele>954.25</ele>
        <time>2015-05-30T07:06:34Z</time>
      </trkpt>
      <trkpt lat="45.70283" lon="2.95888">
        <ele>954.25</ele>
        <time>2015-05-30T07:06:35Z</time>
      </trkpt>
      <trkpt lat="45.70285" lon="2.95884">
        <ele>954.25</ele>
        <time>2015-05-30T07:06:36Z</time>
      </trkpt>
      <trkpt lat="45.70288" lon="2.95881">
        <ele>954.25</ele>
        <time>2015-05-30T07:06:37Z</time>
      </trkpt>
      <trkpt lat="45.7029" lon="2.95877">
        <ele>954.73</ele>
        <time>2015-05-30T07:06:38Z</time>
      </trkpt>
      <trkpt lat="45.70292" lon="2.95873">
        <ele>954.73</ele>
        <time>2015-05-30T07:06:39Z</time>
      </trkpt>
      <trkpt lat="45.70319" lon="2.95831">
        <ele>955.69</ele>
        <time>2015-05-30T07:06:50Z</time>
      </trkpt>
      <trkpt lat="45.70336" lon="2.95801">
        <ele>956.17</ele>
        <time>2015-05-30T07:06:57Z</time>
      </trkpt>
      <trkpt lat="45.70338" lon="2.95796">
        <ele>957.13</ele>
        <time>2015-05-30T07:06:58Z</time>
      </trkpt>
      <trkpt lat="45.70366" lon="2.95733">
        <ele>957.61</ele>
        <time>2015-05-30T07:07:13Z</time>
      </trkpt>
      <trkpt lat="45.70379" lon="2.95675">
        <ele>959.05</ele>
        <time>2015-05-30T07:07:26Z</time>
      </trkpt>
      <trkpt lat="45.70407" lon="2.95637">
        <ele>960.49</ele>
        <time>2015-05-30T07:07:39Z</time>
      </trkpt>
      <trkpt lat="45.70432" lon="2.95615">
        <ele>961.46</ele>
        <time>2015-05-30T07:07:51Z</time>
      </trkpt>
      <trkpt lat="45.70444" lon="2.95596">
        <ele>962.42</ele>
        <time>2015-05-30T07:07:58Z</time>
      </trkpt>
      <trkpt lat="45.70445" lon="2.95594">
        <ele>962.9</ele>
        <time>2015-05-30T07:07:59Z</time>
      </trkpt>
      <trkpt lat="45.70459" lon="2.95557">
        <ele>964.34</ele>
        <time>2015-05-30T07:08:10Z</time>
      </trkpt>
      <trkpt lat="45.70468" lon="2.95524">
        <ele>965.78</ele>
        <time>2015-05-30T07:08:20Z</time>
      </trkpt>
      <trkpt lat="45.70469" lon="2.9552">
        <ele>965.78</ele>
        <time>2015-05-30T07:08:21Z</time>
      </trkpt>
      <trkpt lat="45.70469" lon="2.95494">
        <ele>966.74</ele>
        <time>2015-05-30T07:08:28Z</time>
      </trkpt>
      <trkpt lat="45.70468" lon="2.9549">
        <ele>966.74</ele>
        <time>2015-05-30T07:08:29Z</time>
      </trkpt>
      <trkpt lat="45.70471" lon="2.95457">
        <ele>968.67</ele>
        <time>2015-05-30T07:08:39Z</time>
      </trkpt>
      <trkpt lat="45.70471" lon="2.95455">
        <ele>968.67</ele>
        <time>2015-05-30T07:08:40Z</time>
      </trkpt>
      <trkpt lat="45.70471" lon="2.95453">
        <ele>968.67</ele>
        <time>2015-05-30T07:08:41Z</time>
      </trkpt>
      <trkpt lat="45.70474" lon="2.95447">
        <ele>969.15</ele>
        <time>2015-05-30T07:08:44Z</time>
      </trkpt>
      <trkpt lat="45.70485" lon="2.95422">
        <ele>971.07</ele>
        <time>2015-05-30T07:08:55Z</time>
      </trkpt>
      <trkpt lat="45.7049" lon="2.95421">
        <ele>971.07</ele>
        <time>2015-05-30T07:08:57Z</time>
      </trkpt>
      <trkpt lat="45.70491" lon="2.95419">
        <ele>972.51</ele>
        <time>2015-05-30T07:08:58Z</time>
      </trkpt>
      <trkpt lat="45.70492" lon="2.95417">
        <ele>971.55</ele>
        <time>2015-05-30T07:08:59Z</time>
      </trkpt>
      <trkpt lat="45.70493" lon="2.95415">
        <ele>971.55</ele>
        <time>2015-05-30T07:09:00Z</time>
      </trkpt>
      <trkpt lat="45.70494" lon="2.95413">
        <ele>972.03</ele>
        <time>2015-05-30T07:09:01Z</time>
      </trkpt>
      <trkpt lat="45.70495" lon="2.95412">
        <ele>972.03</ele>
        <time>2015-05-30T07:09:02Z</time>
      </trkpt>
      <trkpt lat="45.70495" lon="2.9541">
        <ele>972.51</ele>
        <time>2015-05-30T07:09:03Z</time>
      </trkpt>
      <trkpt lat="45.70497" lon="2.95409">
        <ele>972.51</ele>
        <time>2015-05-30T07:09:04Z</time>
      </trkpt>
      <trkpt lat="45.70501" lon="2.95403">
        <ele>973.47</ele>
        <time>2015-05-30T07:09:08Z</time>
      </trkpt>
      <trkpt lat="45.70505" lon="2.95397">
        <ele>973.95</ele>
        <time>2015-05-30T07:09:13Z</time>
      </trkpt>
      <trkpt lat="45.70506" lon="2.95395">
        <ele>974.43</ele>
        <time>2015-05-30T07:09:14Z</time>
      </trkpt>
      <trkpt lat="45.7051" lon="2.95386">
        <ele>975.39</ele>
        <time>2015-05-30T07:09:19Z</time>
      </trkpt>
      <trkpt lat="45.70512" lon="2.95377">
        <ele>975.88</ele>
        <time>2015-05-30T07:09:24Z</time>
      </trkpt>
      <trkpt lat="45.70521" lon="2.95355">
        <ele>978.28</ele>
        <time>2015-05-30T07:09:37Z</time>
      </trkpt>
      <trkpt lat="45.70522" lon="2.95351">
        <ele>978.76</ele>
        <time>2015-05-30T07:09:39Z</time>
      </trkpt>
      <trkpt lat="45.70526" lon="2.9534">
        <ele>979.72</ele>
        <time>2015-05-30T07:09:45Z</time>
      </trkpt>
      <trkpt lat="45.70527" lon="2.95338">
        <ele>979.72</ele>
        <time>2015-05-30T07:09:46Z</time>
      </trkpt>
      <trkpt lat="45.70527" lon="2.95336">
        <ele>980.2</ele>
        <time>2015-05-30T07:09:47Z</time>
      </trkpt>
      <trkpt lat="45.70528" lon="2.95333">
        <ele>980.68</ele>
        <time>2015-05-30T07:09:48Z</time>
      </trkpt>
      <trkpt lat="45.70538" lon="2.95321">
        <ele>982.6</ele>
        <time>2015-05-30T07:09:59Z</time>
      </trkpt>
      <trkpt lat="45.70544" lon="2.95312">
        <ele>984.53</ele>
        <time>2015-05-30T07:10:10Z</time>
      </trkpt>
      <trkpt lat="45.70556" lon="2.95305">
        <ele>985.49</ele>
        <time>2015-05-30T07:10:19Z</time>
      </trkpt>
      <trkpt lat="45.70574" lon="2.95301">
        <ele>987.41</ele>
        <time>2015-05-30T07:10:30Z</time>
      </trkpt>
      <trkpt lat="45.7059" lon="2.95293">
        <ele>990.3</ele>
        <time>2015-05-30T07:10:41Z</time>
      </trkpt>
      <trkpt lat="45.7059" lon="2.95291">
        <ele>990.3</ele>
        <time>2015-05-30T07:10:42Z</time>
      </trkpt>
      <trkpt lat="45.70591" lon="2.95289">
        <ele>990.78</ele>
        <time>2015-05-30T07:10:43Z</time>
      </trkpt>
      <trkpt lat="45.70591" lon="2.95287">
        <ele>990.78</ele>
        <time>2015-05-30T07:10:44Z</time>
      </trkpt>
      <trkpt lat="45.70601" lon="2.95277">
        <ele>993.18</ele>
        <time>2015-05-30T07:10:55Z</time>
      </trkpt>
      <trkpt lat="45.70612" lon="2.95269">
        <ele>996.54</ele>
        <time>2015-05-30T07:11:06Z</time>
      </trkpt>
      <trkpt lat="45.70617" lon="2.95261">
        <ele>997.51</ele>
        <time>2015-05-30T07:11:12Z</time>
      </trkpt>
      <trkpt lat="45.70617" lon="2.95259">
        <ele>997.99</ele>
        <time>2015-05-30T07:11:13Z</time>
      </trkpt>
      <trkpt lat="45.70617" lon="2.95257">
        <ele>998.47</ele>
        <time>2015-05-30T07:11:14Z</time>
      </trkpt>
      <trkpt lat="45.70618" lon="2.95256">
        <ele>998.95</ele>
        <time>2015-05-30T07:11:15Z</time>
      </trkpt>
      <trkpt lat="45.7062" lon="2.95252">
        <ele>999.43</ele>
        <time>2015-05-30T07:11:18Z</time>
      </trkpt>
      <trkpt lat="45.70622" lon="2.95251">
        <ele>999.43</ele>
        <time>2015-05-30T07:11:19Z</time>
      </trkpt>
      <trkpt lat="45.70625" lon="2.95242">
        <ele>999.91</ele>
        <time>2015-05-30T07:11:24Z</time>
      </trkpt>
      <trkpt lat="45.70627" lon="2.95241">
        <ele>999.91</ele>
        <time>2015-05-30T07:11:25Z</time>
      </trkpt>
      <trkpt lat="45.70628" lon="2.95239">
        <ele>1000.39</ele>
        <time>2015-05-30T07:11:26Z</time>
      </trkpt>
      <trkpt lat="45.70629" lon="2.95238">
        <ele>1000.39</ele>
        <time>2015-05-30T07:11:27Z</time>
      </trkpt>
      <trkpt lat="45.7063" lon="2.95237">
        <ele>1000.87</ele>
        <time>2015-05-30T07:11:28Z</time>
      </trkpt>
      <trkpt lat="45.70631" lon="2.95236">
        <ele>1000.87</ele>
        <time>2015-05-30T07:11:29Z</time>
      </trkpt>
      <trkpt lat="45.70632" lon="2.95234">
        <ele>1001.35</ele>
        <time>2015-05-30T07:11:30Z</time>
      </trkpt>
      <trkpt lat="45.70632" lon="2.95233">
        <ele>1001.35</ele>
        <time>2015-05-30T07:11:31Z</time>
      </trkpt>
      <trkpt lat="45.70641" lon="2.95219">
        <ele>1003.27</ele>
        <time>2015-05-30T07:11:42Z</time>
      </trkpt>
      <trkpt lat="45.70652" lon="2.95204">
        <ele>1004.23</ele>
        <time>2015-05-30T07:11:51Z</time>
      </trkpt>
      <trkpt lat="45.70652" lon="2.95202">
        <ele>1004.72</ele>
        <time>2015-05-30T07:11:52Z</time>
      </trkpt>
      <trkpt lat="45.70653" lon="2.952">
        <ele>1004.72</ele>
        <time>2015-05-30T07:11:53Z</time>
      </trkpt>
      <trkpt lat="45.70661" lon="2.95179">
        <ele>1005.68</ele>
        <time>2015-05-30T07:12:03Z</time>
      </trkpt>
      <trkpt lat="45.70662" lon="2.95177">
        <ele>1005.68</ele>
        <time>2015-05-30T07:12:04Z</time>
      </trkpt>
      <trkpt lat="45.70663" lon="2.95175">
        <ele>1005.68</ele>
        <time>2015-05-30T07:12:05Z</time>
      </trkpt>
      <trkpt lat="45.70665" lon="2.95173">
        <ele>1005.68</ele>
        <time>2015-05-30T07:12:06Z</time>
      </trkpt>
      <trkpt lat="45.70666" lon="2.95171">
        <ele>1005.68</ele>
        <time>2015-05-30T07:12:07Z</time>
      </trkpt>
      <trkpt lat="45.70667" lon="2.95168">
        <ele>1005.68</ele>
        <time>2015-05-30T07:12:08Z</time>
      </trkpt>
      <trkpt lat="45.70667" lon="2.95164">
        <ele>1005.68</ele>
        <time>2015-05-30T07:12:09Z</time>
      </trkpt>
      <trkpt lat="45.70668" lon="2.9516">
        <ele>1005.2</ele>
        <time>2015-05-30T07:12:10Z</time>
      </trkpt>
      <trkpt lat="45.70668" lon="2.95157">
        <ele>1005.68</ele>
        <time>2015-05-30T07:12:11Z</time>
      </trkpt>
      <trkpt lat="45.70668" lon="2.95153">
        <ele>1005.2</ele>
        <time>2015-05-30T07:12:12Z</time>
      </trkpt>
      <trkpt lat="45.70669" lon="2.95149">
        <ele>1005.2</ele>
        <time>2015-05-30T07:12:13Z</time>
      </trkpt>
      <trkpt lat="45.7067" lon="2.95146">
        <ele>1005.2</ele>
        <time>2015-05-30T07:12:14Z</time>
      </trkpt>
      <trkpt lat="45.70671" lon="2.95135">
        <ele>1005.68</ele>
        <time>2015-05-30T07:12:17Z</time>
      </trkpt>
      <trkpt lat="45.7067" lon="2.9513">
        <ele>1005.68</ele>
        <time>2015-05-30T07:12:18Z</time>
      </trkpt>
      <trkpt lat="45.70672" lon="2.95092">
        <ele>1005.68</ele>
        <time>2015-05-30T07:12:28Z</time>
      </trkpt>
      <trkpt lat="45.70675" lon="2.95048">
        <ele>1006.64</ele>
        <time>2015-05-30T07:12:39Z</time>
      </trkpt>
      <trkpt lat="45.70678" lon="2.95021">
        <ele>1006.64</ele>
        <time>2015-05-30T07:12:44Z</time>
      </trkpt>
      <trkpt lat="45.70679" lon="2.95017">
        <ele>1006.64</ele>
        <time>2015-05-30T07:12:45Z</time>
      </trkpt>
      <trkpt lat="45.70692" lon="2.94981">
        <ele>1009.04</ele>
        <time>2015-05-30T07:12:55Z</time>
      </trkpt>
      <trkpt lat="45.70704" lon="2.9495">
        <ele>1010.48</ele>
        <time>2015-05-30T07:13:05Z</time>
      </trkpt>
      <trkpt lat="45.70714" lon="2.94926">
        <ele>1011.44</ele>
        <time>2015-05-30T07:13:13Z</time>
      </trkpt>
      <trkpt lat="45.70714" lon="2.94922">
        <ele>1011.44</ele>
        <time>2015-05-30T07:13:14Z</time>
      </trkpt>
      <trkpt lat="45.70724" lon="2.94879">
        <ele>1012.41</ele>
        <time>2015-05-30T07:13:26Z</time>
      </trkpt>
      <trkpt lat="45.70726" lon="2.94876">
        <ele>1012.41</ele>
        <time>2015-05-30T07:13:27Z</time>
      </trkpt>
      <trkpt lat="45.70727" lon="2.94872">
        <ele>1012.41</ele>
        <time>2015-05-30T07:13:28Z</time>
      </trkpt>
      <trkpt lat="45.70728" lon="2.94868">
        <ele>1012.41</ele>
        <time>2015-05-30T07:13:29Z</time>
      </trkpt>
      <trkpt lat="45.70729" lon="2.94865">
        <ele>1012.41</ele>
        <time>2015-05-30T07:13:30Z</time>
      </trkpt>
      <trkpt lat="45.70729" lon="2.94862">
        <ele>1012.89</ele>
        <time>2015-05-30T07:13:31Z</time>
      </trkpt>
      <trkpt lat="45.7073" lon="2.94859">
        <ele>1012.89</ele>
        <time>2015-05-30T07:13:32Z</time>
      </trkpt>
      <trkpt lat="45.70732" lon="2.94858">
        <ele>1012.89</ele>
        <time>2015-05-30T07:13:33Z</time>
      </trkpt>
      <trkpt lat="45.70735" lon="2.94854">
        <ele>1012.89</ele>
        <time>2015-05-30T07:13:34Z</time>
      </trkpt>
      <trkpt lat="45.70759" lon="2.94822">
        <ele>1013.85</ele>
        <time>2015-05-30T07:13:45Z</time>
      </trkpt>
      <trkpt lat="45.70773" lon="2.94805">
        <ele>1013.85</ele>
        <time>2015-05-30T07:13:51Z</time>
      </trkpt>
      <trkpt lat="45.70776" lon="2.94803">
        <ele>1013.85</ele>
        <time>2015-05-30T07:13:52Z</time>
      </trkpt>
      <trkpt lat="45.70778" lon="2.948">
        <ele>1014.33</ele>
        <time>2015-05-30T07:13:53Z</time>
      </trkpt>
      <trkpt lat="45.70799" lon="2.94773">
        <ele>1014.81</ele>
        <time>2015-05-30T07:14:03Z</time>
      </trkpt>
      <trkpt lat="45.708" lon="2.94769">
        <ele>1014.81</ele>
        <time>2015-05-30T07:14:04Z</time>
      </trkpt>
      <trkpt lat="45.70808" lon="2.94754">
        <ele>1015.29</ele>
        <time>2015-05-30T07:14:09Z</time>
      </trkpt>
      <trkpt lat="45.7081" lon="2.94752">
        <ele>1015.29</ele>
        <time>2015-05-30T07:14:10Z</time>
      </trkpt>
      <trkpt lat="45.70812" lon="2.9475">
        <ele>1015.29</ele>
        <time>2015-05-30T07:14:11Z</time>
      </trkpt>
      <trkpt lat="45.70814" lon="2.94747">
        <ele>1015.77</ele>
        <time>2015-05-30T07:14:12Z</time>
      </trkpt>
      <trkpt lat="45.70815" lon="2.94744">
        <ele>1015.77</ele>
        <time>2015-05-30T07:14:13Z</time>
      </trkpt>
      <trkpt lat="45.70839" lon="2.94707">
        <ele>1016.73</ele>
        <time>2015-05-30T07:14:25Z</time>
      </trkpt>
      <trkpt lat="45.7086" lon="2.94679">
        <ele>1017.21</ele>
        <time>2015-05-30T07:14:36Z</time>
      </trkpt>
      <trkpt lat="45.70878" lon="2.94654">
        <ele>1018.17</ele>
        <time>2015-05-30T07:14:46Z</time>
      </trkpt>
      <trkpt lat="45.70897" lon="2.94621">
        <ele>1019.13</ele>
        <time>2015-05-30T07:14:56Z</time>
      </trkpt>
      <trkpt lat="45.70898" lon="2.94619">
        <ele>1019.13</ele>
        <time>2015-05-30T07:14:57Z</time>
      </trkpt>
      <trkpt lat="45.709" lon="2.94617">
        <ele>1019.13</ele>
        <time>2015-05-30T07:14:58Z</time>
      </trkpt>
      <trkpt lat="45.70902" lon="2.94614">
        <ele>1020.1</ele>
        <time>2015-05-30T07:14:59Z</time>
      </trkpt>
      <trkpt lat="45.70904" lon="2.94611">
        <ele>1019.62</ele>
        <time>2015-05-30T07:15:00Z</time>
      </trkpt>
      <trkpt lat="45.70905" lon="2.94608">
        <ele>1019.62</ele>
        <time>2015-05-30T07:15:01Z</time>
      </trkpt>
      <trkpt lat="45.70907" lon="2.94605">
        <ele>1019.62</ele>
        <time>2015-05-30T07:15:02Z</time>
      </trkpt>
      <trkpt lat="45.70909" lon="2.94603">
        <ele>1019.62</ele>
        <time>2015-05-30T07:15:03Z</time>
      </trkpt>
      <trkpt lat="45.70928" lon="2.94571">
        <ele>1020.1</ele>
        <time>2015-05-30T07:15:13Z</time>
      </trkpt>
      <trkpt lat="45.70952" lon="2.94534">
        <ele>1020.1</ele>
        <time>2015-05-30T07:15:24Z</time>
      </trkpt>
      <trkpt lat="45.70969" lon="2.94495">
        <ele>1019.62</ele>
        <time>2015-05-30T07:15:33Z</time>
      </trkpt>
      <trkpt lat="45.70987" lon="2.94458">
        <ele>1020.1</ele>
        <time>2015-05-30T07:15:42Z</time>
      </trkpt>
      <trkpt lat="45.71004" lon="2.94396">
        <ele>1019.13</ele>
        <time>2015-05-30T07:15:54Z</time>
      </trkpt>
      <trkpt lat="45.71005" lon="2.94391">
        <ele>1019.13</ele>
        <time>2015-05-30T07:15:55Z</time>
      </trkpt>
      <trkpt lat="45.71005" lon="2.94386">
        <ele>1018.65</ele>
        <time>2015-05-30T07:15:56Z</time>
      </trkpt>
      <trkpt lat="45.71005" lon="2.94381">
        <ele>1018.17</ele>
        <time>2015-05-30T07:15:57Z</time>
      </trkpt>
      <trkpt lat="45.71006" lon="2.94377">
        <ele>1018.17</ele>
        <time>2015-05-30T07:15:58Z</time>
      </trkpt>
      <trkpt lat="45.71007" lon="2.94373">
        <ele>1017.69</ele>
        <time>2015-05-30T07:15:59Z</time>
      </trkpt>
      <trkpt lat="45.71008" lon="2.94369">
        <ele>1017.69</ele>
        <time>2015-05-30T07:16:00Z</time>
      </trkpt>
      <trkpt lat="45.7101" lon="2.94365">
        <ele>1017.69</ele>
        <time>2015-05-30T07:16:01Z</time>
      </trkpt>
      <trkpt lat="45.71035" lon="2.94336">
        <ele>1016.73</ele>
        <time>2015-05-30T07:16:10Z</time>
      </trkpt>
      <trkpt lat="45.71045" lon="2.94299">
        <ele>1017.21</ele>
        <time>2015-05-30T07:16:20Z</time>
      </trkpt>
      <trkpt lat="45.71033" lon="2.94266">
        <ele>1017.21</ele>
        <time>2015-05-30T07:16:30Z</time>
      </trkpt>
      <trkpt lat="45.71032" lon="2.94266">
        <ele>1017.69</ele>
        <time>2015-05-30T07:16:31Z</time>
      </trkpt>
      <trkpt lat="45.71031" lon="2.94267">
        <ele>1017.69</ele>
        <time>2015-05-30T07:16:32Z</time>
      </trkpt>
      <trkpt lat="45.71031" lon="2.94268">
        <ele>1017.69</ele>
        <time>2015-05-30T07:16:33Z</time>
      </trkpt>
      <trkpt lat="45.71032" lon="2.9427">
        <ele>1017.69</ele>
        <time>2015-05-30T07:16:34Z</time>
      </trkpt>
      <trkpt lat="45.71033" lon="2.94273">
        <ele>1017.69</ele>
        <time>2015-05-30T07:16:35Z</time>
      </trkpt>
      <trkpt lat="45.71035" lon="2.94275">
        <ele>1017.69</ele>
        <time>2015-05-30T07:16:36Z</time>
      </trkpt>
      <trkpt lat="45.71036" lon="2.94278">
        <ele>1017.69</ele>
        <time>2015-05-30T07:16:37Z</time>
      </trkpt>
      <trkpt lat="45.71037" lon="2.94282">
        <ele>1017.69</ele>
        <time>2015-05-30T07:16:38Z</time>
      </trkpt>
      <trkpt lat="45.71042" lon="2.94292">
        <ele>1017.69</ele>
        <time>2015-05-30T07:16:41Z</time>
      </trkpt>
      <trkpt lat="45.71045" lon="2.94293">
        <ele>1017.69</ele>
        <time>2015-05-30T07:16:42Z</time>
      </trkpt>
      <trkpt lat="45.71048" lon="2.94292">
        <ele>1017.69</ele>
        <time>2015-05-30T07:16:43Z</time>
      </trkpt>
      <trkpt lat="45.7105" lon="2.94291">
        <ele>1017.69</ele>
        <time>2015-05-30T07:16:44Z</time>
      </trkpt>
      <trkpt lat="45.71052" lon="2.94289">
        <ele>1017.69</ele>
        <time>2015-05-30T07:16:45Z</time>
      </trkpt>
      <trkpt lat="45.71054" lon="2.94287">
        <ele>1018.17</ele>
        <time>2015-05-30T07:16:46Z</time>
      </trkpt>
      <trkpt lat="45.71076" lon="2.94254">
        <ele>1018.65</ele>
        <time>2015-05-30T07:17:00Z</time>
      </trkpt>
      <trkpt lat="45.71102" lon="2.94215">
        <ele>1017.69</ele>
        <time>2015-05-30T07:17:12Z</time>
      </trkpt>
      <trkpt lat="45.71129" lon="2.94166">
        <ele>1016.73</ele>
        <time>2015-05-30T07:17:24Z</time>
      </trkpt>
      <trkpt lat="45.71157" lon="2.94113">
        <ele>1016.73</ele>
        <time>2015-05-30T07:17:38Z</time>
      </trkpt>
      <trkpt lat="45.71175" lon="2.94069">
        <ele>1018.17</ele>
        <time>2015-05-30T07:17:51Z</time>
      </trkpt>
      <trkpt lat="45.71197" lon="2.94025">
        <ele>1019.62</ele>
        <time>2015-05-30T07:18:06Z</time>
      </trkpt>
      <trkpt lat="45.71211" lon="2.94001">
        <ele>1020.1</ele>
        <time>2015-05-30T07:18:15Z</time>
      </trkpt>
      <trkpt lat="45.71212" lon="2.9399">
        <ele>1020.1</ele>
        <time>2015-05-30T07:18:18Z</time>
      </trkpt>
      <trkpt lat="45.71212" lon="2.93986">
        <ele>1019.62</ele>
        <time>2015-05-30T07:18:19Z</time>
      </trkpt>
      <trkpt lat="45.71213" lon="2.93983">
        <ele>1020.1</ele>
        <time>2015-05-30T07:18:20Z</time>
      </trkpt>
      <trkpt lat="45.71212" lon="2.93979">
        <ele>1019.62</ele>
        <time>2015-05-30T07:18:21Z</time>
      </trkpt>
      <trkpt lat="45.71212" lon="2.93975">
        <ele>1020.1</ele>
        <time>2015-05-30T07:18:22Z</time>
      </trkpt>
      <trkpt lat="45.71209" lon="2.93928">
        <ele>1020.1</ele>
        <time>2015-05-30T07:18:35Z</time>
      </trkpt>
      <trkpt lat="45.71204" lon="2.93871">
        <ele>1021.06</ele>
        <time>2015-05-30T07:18:51Z</time>
      </trkpt>
      <trkpt lat="45.71201" lon="2.93849">
        <ele>1021.54</ele>
        <time>2015-05-30T07:18:58Z</time>
      </trkpt>
      <trkpt lat="45.71201" lon="2.93846">
        <ele>1022.5</ele>
        <time>2015-05-30T07:18:59Z</time>
      </trkpt>
      <trkpt lat="45.71193" lon="2.93812">
        <ele>1023.46</ele>
        <time>2015-05-30T07:19:12Z</time>
      </trkpt>
      <trkpt lat="45.71193" lon="2.93809">
        <ele>1023.94</ele>
        <time>2015-05-30T07:19:13Z</time>
      </trkpt>
      <trkpt lat="45.71193" lon="2.93806">
        <ele>1023.94</ele>
        <time>2015-05-30T07:19:14Z</time>
      </trkpt>
      <trkpt lat="45.71194" lon="2.93804">
        <ele>1024.42</ele>
        <time>2015-05-30T07:19:15Z</time>
      </trkpt>
      <trkpt lat="45.71194" lon="2.93801">
        <ele>1024.42</ele>
        <time>2015-05-30T07:19:16Z</time>
      </trkpt>
      <trkpt lat="45.71194" lon="2.93799">
        <ele>1024.42</ele>
        <time>2015-05-30T07:19:18Z</time>
      </trkpt>
      <trkpt lat="45.71201" lon="2.93788">
        <ele>1024.9</ele>
        <time>2015-05-30T07:19:24Z</time>
      </trkpt>
      <trkpt lat="45.71202" lon="2.93785">
        <ele>1025.38</ele>
        <time>2015-05-30T07:19:25Z</time>
      </trkpt>
      <trkpt lat="45.71204" lon="2.93783">
        <ele>1024.9</ele>
        <time>2015-05-30T07:19:26Z</time>
      </trkpt>
      <trkpt lat="45.71223" lon="2.93758">
        <ele>1024.9</ele>
        <time>2015-05-30T07:19:37Z</time>
      </trkpt>
      <trkpt lat="45.7124" lon="2.93734">
        <ele>1024.9</ele>
        <time>2015-05-30T07:19:46Z</time>
      </trkpt>
      <trkpt lat="45.71253" lon="2.93709">
        <ele>1024.9</ele>
        <time>2015-05-30T07:19:54Z</time>
      </trkpt>
      <trkpt lat="45.71254" lon="2.93706">
        <ele>1024.9</ele>
        <time>2015-05-30T07:19:55Z</time>
      </trkpt>
      <trkpt lat="45.71255" lon="2.93703">
        <ele>1024.9</ele>
        <time>2015-05-30T07:19:56Z</time>
      </trkpt>
      <trkpt lat="45.71257" lon="2.937">
        <ele>1024.42</ele>
        <time>2015-05-30T07:19:57Z</time>
      </trkpt>
      <trkpt lat="45.7126" lon="2.93696">
        <ele>1024.42</ele>
        <time>2015-05-30T07:19:58Z</time>
      </trkpt>
      <trkpt lat="45.71263" lon="2.93692">
        <ele>1024.42</ele>
        <time>2015-05-30T07:19:59Z</time>
      </trkpt>
      <trkpt lat="45.71266" lon="2.93687">
        <ele>1023.94</ele>
        <time>2015-05-30T07:20:00Z</time>
      </trkpt>
      <trkpt lat="45.71271" lon="2.93676">
        <ele>1023.46</ele>
        <time>2015-05-30T07:20:02Z</time>
      </trkpt>
      <trkpt lat="45.7128" lon="2.93656">
        <ele>1022.5</ele>
        <time>2015-05-30T07:20:05Z</time>
      </trkpt>
      <trkpt lat="45.7129" lon="2.93639">
        <ele>1020.58</ele>
        <time>2015-05-30T07:20:08Z</time>
      </trkpt>
      <trkpt lat="45.7131" lon="2.93589">
        <ele>1017.69</ele>
        <time>2015-05-30T07:20:18Z</time>
      </trkpt>
      <trkpt lat="45.71326" lon="2.93545">
        <ele>1015.29</ele>
        <time>2015-05-30T07:20:24Z</time>
      </trkpt>
      <trkpt lat="45.71328" lon="2.9354">
        <ele>1014.33</ele>
        <time>2015-05-30T07:20:25Z</time>
      </trkpt>
      <trkpt lat="45.7133" lon="2.93536">
        <ele>1014.33</ele>
        <time>2015-05-30T07:20:26Z</time>
      </trkpt>
      <trkpt lat="45.71332" lon="2.9353">
        <ele>1013.85</ele>
        <time>2015-05-30T07:20:27Z</time>
      </trkpt>
      <trkpt lat="45.71334" lon="2.93525">
        <ele>1013.37</ele>
        <time>2015-05-30T07:20:28Z</time>
      </trkpt>
      <trkpt lat="45.71342" lon="2.93504">
        <ele>1011.44</ele>
        <time>2015-05-30T07:20:32Z</time>
      </trkpt>
      <trkpt lat="45.71344" lon="2.935">
        <ele>1010.48</ele>
        <time>2015-05-30T07:20:33Z</time>
      </trkpt>
      <trkpt lat="45.71345" lon="2.93494">
        <ele>1010</ele>
        <time>2015-05-30T07:20:34Z</time>
      </trkpt>
      <trkpt lat="45.71347" lon="2.93488">
        <ele>1009.52</ele>
        <time>2015-05-30T07:20:35Z</time>
      </trkpt>
      <trkpt lat="45.71348" lon="2.93484">
        <ele>1009.52</ele>
        <time>2015-05-30T07:20:36Z</time>
      </trkpt>
      <trkpt lat="45.7135" lon="2.9348">
        <ele>1009.04</ele>
        <time>2015-05-30T07:20:37Z</time>
      </trkpt>
      <trkpt lat="45.71352" lon="2.93462">
        <ele>1008.08</ele>
        <time>2015-05-30T07:20:40Z</time>
      </trkpt>
      <trkpt lat="45.71353" lon="2.93455">
        <ele>1007.6</ele>
        <time>2015-05-30T07:20:41Z</time>
      </trkpt>
      <trkpt lat="45.71354" lon="2.93449">
        <ele>1007.12</ele>
        <time>2015-05-30T07:20:42Z</time>
      </trkpt>
      <trkpt lat="45.71364" lon="2.93416">
        <ele>1004.23</ele>
        <time>2015-05-30T07:20:48Z</time>
      </trkpt>
      <trkpt lat="45.71367" lon="2.93385">
        <ele>1002.79</ele>
        <time>2015-05-30T07:20:52Z</time>
      </trkpt>
      <trkpt lat="45.71367" lon="2.93365">
        <ele>1001.83</ele>
        <time>2015-05-30T07:20:55Z</time>
      </trkpt>
      <trkpt lat="45.71367" lon="2.93358">
        <ele>1000.87</ele>
        <time>2015-05-30T07:20:56Z</time>
      </trkpt>
      <trkpt lat="45.7137" lon="2.93328">
        <ele>998.47</ele>
        <time>2015-05-30T07:21:02Z</time>
      </trkpt>
      <trkpt lat="45.7137" lon="2.93324">
        <ele>998.47</ele>
        <time>2015-05-30T07:21:03Z</time>
      </trkpt>
      <trkpt lat="45.71371" lon="2.93317">
        <ele>997.99</ele>
        <time>2015-05-30T07:21:04Z</time>
      </trkpt>
      <trkpt lat="45.71373" lon="2.93311">
        <ele>997.51</ele>
        <time>2015-05-30T07:21:05Z</time>
      </trkpt>
      <trkpt lat="45.71374" lon="2.93306">
        <ele>997.02</ele>
        <time>2015-05-30T07:21:06Z</time>
      </trkpt>
      <trkpt lat="45.71377" lon="2.93302">
        <ele>996.06</ele>
        <time>2015-05-30T07:21:07Z</time>
      </trkpt>
      <trkpt lat="45.7138" lon="2.93298">
        <ele>995.58</ele>
        <time>2015-05-30T07:21:08Z</time>
      </trkpt>
      <trkpt lat="45.71386" lon="2.93284">
        <ele>994.14</ele>
        <time>2015-05-30T07:21:11Z</time>
      </trkpt>
      <trkpt lat="45.71386" lon="2.93279">
        <ele>993.66</ele>
        <time>2015-05-30T07:21:12Z</time>
      </trkpt>
      <trkpt lat="45.71386" lon="2.93271">
        <ele>993.66</ele>
        <time>2015-05-30T07:21:13Z</time>
      </trkpt>
      <trkpt lat="45.71386" lon="2.93266">
        <ele>993.18</ele>
        <time>2015-05-30T07:21:14Z</time>
      </trkpt>
      <trkpt lat="45.7138" lon="2.93242">
        <ele>991.74</ele>
        <time>2015-05-30T07:21:17Z</time>
      </trkpt>
      <trkpt lat="45.7138" lon="2.93234">
        <ele>991.74</ele>
        <time>2015-05-30T07:21:18Z</time>
      </trkpt>
      <trkpt lat="45.71378" lon="2.93226">
        <ele>990.78</ele>
        <time>2015-05-30T07:21:19Z</time>
      </trkpt>
      <trkpt lat="45.71378" lon="2.9322">
        <ele>990.3</ele>
        <time>2015-05-30T07:21:20Z</time>
      </trkpt>
      <trkpt lat="45.71378" lon="2.93212">
        <ele>990.3</ele>
        <time>2015-05-30T07:21:21Z</time>
      </trkpt>
      <trkpt lat="45.71378" lon="2.93166">
        <ele>986.93</ele>
        <time>2015-05-30T07:21:29Z</time>
      </trkpt>
      <trkpt lat="45.71376" lon="2.93146">
        <ele>986.45</ele>
        <time>2015-05-30T07:21:32Z</time>
      </trkpt>
      <trkpt lat="45.71374" lon="2.93131">
        <ele>985.97</ele>
        <time>2015-05-30T07:21:34Z</time>
      </trkpt>
      <trkpt lat="45.71374" lon="2.93123">
        <ele>985.97</ele>
        <time>2015-05-30T07:21:35Z</time>
      </trkpt>
      <trkpt lat="45.71375" lon="2.93096">
        <ele>985.49</ele>
        <time>2015-05-30T07:21:39Z</time>
      </trkpt>
      <trkpt lat="45.7137" lon="2.93062">
        <ele>984.53</ele>
        <time>2015-05-30T07:21:45Z</time>
      </trkpt>
      <trkpt lat="45.71369" lon="2.93056">
        <ele>984.53</ele>
        <time>2015-05-30T07:21:46Z</time>
      </trkpt>
      <trkpt lat="45.71358" lon="2.93015">
        <ele>983.57</ele>
        <time>2015-05-30T07:21:52Z</time>
      </trkpt>
      <trkpt lat="45.71357" lon="2.93007">
        <ele>983.57</ele>
        <time>2015-05-30T07:21:53Z</time>
      </trkpt>
      <trkpt lat="45.71351" lon="2.92983">
        <ele>983.09</ele>
        <time>2015-05-30T07:21:56Z</time>
      </trkpt>
      <trkpt lat="45.71348" lon="2.92975">
        <ele>983.09</ele>
        <time>2015-05-30T07:21:57Z</time>
      </trkpt>
      <trkpt lat="45.71345" lon="2.92968">
        <ele>983.09</ele>
        <time>2015-05-30T07:21:58Z</time>
      </trkpt>
      <trkpt lat="45.71336" lon="2.92947">
        <ele>982.12</ele>
        <time>2015-05-30T07:22:01Z</time>
      </trkpt>
      <trkpt lat="45.71333" lon="2.92939">
        <ele>982.12</ele>
        <time>2015-05-30T07:22:02Z</time>
      </trkpt>
      <trkpt lat="45.71328" lon="2.92926">
        <ele>981.64</ele>
        <time>2015-05-30T07:22:04Z</time>
      </trkpt>
      <trkpt lat="45.71318" lon="2.92906">
        <ele>981.16</ele>
        <time>2015-05-30T07:22:07Z</time>
      </trkpt>
      <trkpt lat="45.71315" lon="2.929">
        <ele>981.16</ele>
        <time>2015-05-30T07:22:08Z</time>
      </trkpt>
      <trkpt lat="45.71311" lon="2.92894">
        <ele>980.68</ele>
        <time>2015-05-30T07:22:09Z</time>
      </trkpt>
      <trkpt lat="45.71308" lon="2.92887">
        <ele>980.2</ele>
        <time>2015-05-30T07:22:10Z</time>
      </trkpt>
      <trkpt lat="45.71305" lon="2.92881">
        <ele>980.2</ele>
        <time>2015-05-30T07:22:11Z</time>
      </trkpt>
      <trkpt lat="45.71302" lon="2.92874">
        <ele>979.72</ele>
        <time>2015-05-30T07:22:12Z</time>
      </trkpt>
      <trkpt lat="45.71299" lon="2.92869">
        <ele>979.24</ele>
        <time>2015-05-30T07:22:13Z</time>
      </trkpt>
      <trkpt lat="45.71296" lon="2.92863">
        <ele>978.76</ele>
        <time>2015-05-30T07:22:14Z</time>
      </trkpt>
      <trkpt lat="45.71286" lon="2.92843">
        <ele>977.8</ele>
        <time>2015-05-30T07:22:17Z</time>
      </trkpt>
      <trkpt lat="45.71276" lon="2.92825">
        <ele>976.84</ele>
        <time>2015-05-30T07:22:20Z</time>
      </trkpt>
      <trkpt lat="45.71271" lon="2.92819">
        <ele>976.36</ele>
        <time>2015-05-30T07:22:21Z</time>
      </trkpt>
      <trkpt lat="45.71267" lon="2.92813">
        <ele>975.88</ele>
        <time>2015-05-30T07:22:22Z</time>
      </trkpt>
      <trkpt lat="45.71264" lon="2.92807">
        <ele>975.39</ele>
        <time>2015-05-30T07:22:23Z</time>
      </trkpt>
      <trkpt lat="45.7126" lon="2.92801">
        <ele>974.91</ele>
        <time>2015-05-30T07:22:24Z</time>
      </trkpt>
      <trkpt lat="45.71256" lon="2.92796">
        <ele>974.43</ele>
        <time>2015-05-30T07:22:25Z</time>
      </trkpt>
      <trkpt lat="45.71252" lon="2.9279">
        <ele>973.95</ele>
        <time>2015-05-30T07:22:26Z</time>
      </trkpt>
      <trkpt lat="45.71236" lon="2.92768">
        <ele>972.99</ele>
        <time>2015-05-30T07:22:30Z</time>
      </trkpt>
      <trkpt lat="45.71233" lon="2.92762">
        <ele>973.47</ele>
        <time>2015-05-30T07:22:31Z</time>
      </trkpt>
      <trkpt lat="45.71231" lon="2.92757">
        <ele>973.47</ele>
        <time>2015-05-30T07:22:32Z</time>
      </trkpt>
      <trkpt lat="45.71229" lon="2.92754">
        <ele>973.47</ele>
        <time>2015-05-30T07:22:33Z</time>
      </trkpt>
      <trkpt lat="45.71227" lon="2.92751">
        <ele>973.95</ele>
        <time>2015-05-30T07:22:34Z</time>
      </trkpt>
      <trkpt lat="45.71224" lon="2.92749">
        <ele>973.95</ele>
        <time>2015-05-30T07:22:36Z</time>
      </trkpt>
      <trkpt lat="45.71218" lon="2.92745">
        <ele>973.95</ele>
        <time>2015-05-30T07:22:41Z</time>
      </trkpt>
      <trkpt lat="45.71216" lon="2.92743">
        <ele>973.95</ele>
        <time>2015-05-30T07:22:42Z</time>
      </trkpt>
      <trkpt lat="45.71214" lon="2.92742">
        <ele>973.95</ele>
        <time>2015-05-30T07:22:43Z</time>
      </trkpt>
      <trkpt lat="45.71185" lon="2.92722">
        <ele>974.43</ele>
        <time>2015-05-30T07:22:54Z</time>
      </trkpt>
      <trkpt lat="45.71161" lon="2.9271">
        <ele>975.39</ele>
        <time>2015-05-30T07:23:04Z</time>
      </trkpt>
      <trkpt lat="45.71156" lon="2.92709">
        <ele>976.36</ele>
        <time>2015-05-30T07:23:07Z</time>
      </trkpt>
      <trkpt lat="45.71154" lon="2.92708">
        <ele>976.36</ele>
        <time>2015-05-30T07:23:08Z</time>
      </trkpt>
      <trkpt lat="45.71152" lon="2.92707">
        <ele>976.84</ele>
        <time>2015-05-30T07:23:09Z</time>
      </trkpt>
      <trkpt lat="45.71136" lon="2.92699">
        <ele>978.28</ele>
        <time>2015-05-30T07:23:18Z</time>
      </trkpt>
      <trkpt lat="45.71117" lon="2.9269">
        <ele>980.68</ele>
        <time>2015-05-30T07:23:30Z</time>
      </trkpt>
      <trkpt lat="45.71115" lon="2.92688">
        <ele>980.68</ele>
        <time>2015-05-30T07:23:45Z</time>
      </trkpt>
      <trkpt lat="45.71115" lon="2.92687">
        <ele>980.68</ele>
        <time>2015-05-30T07:23:51Z</time>
      </trkpt>
      <trkpt lat="45.71115" lon="2.92685">
        <ele>980.68</ele>
        <time>2015-05-30T07:23:52Z</time>
      </trkpt>
      <trkpt lat="45.71116" lon="2.92683">
        <ele>980.68</ele>
        <time>2015-05-30T07:23:53Z</time>
      </trkpt>
      <trkpt lat="45.71116" lon="2.9268">
        <ele>980.68</ele>
        <time>2015-05-30T07:23:54Z</time>
      </trkpt>
      <trkpt lat="45.71116" lon="2.92677">
        <ele>980.68</ele>
        <time>2015-05-30T07:23:55Z</time>
      </trkpt>
      <trkpt lat="45.71116" lon="2.92674">
        <ele>980.2</ele>
        <time>2015-05-30T07:23:56Z</time>
      </trkpt>
      <trkpt lat="45.71117" lon="2.92671">
        <ele>980.68</ele>
        <time>2015-05-30T07:23:57Z</time>
      </trkpt>
      <trkpt lat="45.71117" lon="2.92668">
        <ele>980.68</ele>
        <time>2015-05-30T07:23:58Z</time>
      </trkpt>
      <trkpt lat="45.71118" lon="2.92665">
        <ele>980.68</ele>
        <time>2015-05-30T07:23:59Z</time>
      </trkpt>
      <trkpt lat="45.71118" lon="2.92662">
        <ele>980.68</ele>
        <time>2015-05-30T07:24:00Z</time>
      </trkpt>
      <trkpt lat="45.71119" lon="2.92659">
        <ele>980.68</ele>
        <time>2015-05-30T07:24:01Z</time>
      </trkpt>
      <trkpt lat="45.7112" lon="2.92655">
        <ele>980.68</ele>
        <time>2015-05-30T07:24:02Z</time>
      </trkpt>
      <trkpt lat="45.7112" lon="2.92652">
        <ele>980.68</ele>
        <time>2015-05-30T07:24:03Z</time>
      </trkpt>
      <trkpt lat="45.7113" lon="2.92606">
        <ele>981.16</ele>
        <time>2015-05-30T07:24:15Z</time>
      </trkpt>
      <trkpt lat="45.71137" lon="2.92567">
        <ele>977.8</ele>
        <time>2015-05-30T07:24:20Z</time>
      </trkpt>
      <trkpt lat="45.71141" lon="2.9251">
        <ele>977.32</ele>
        <time>2015-05-30T07:24:27Z</time>
      </trkpt>
      <trkpt lat="45.7114" lon="2.92503">
        <ele>977.32</ele>
        <time>2015-05-30T07:24:28Z</time>
      </trkpt>
      <trkpt lat="45.71138" lon="2.92497">
        <ele>977.32</ele>
        <time>2015-05-30T07:24:29Z</time>
      </trkpt>
      <trkpt lat="45.71109" lon="2.92415">
        <ele>975.39</ele>
        <time>2015-05-30T07:24:41Z</time>
      </trkpt>
      <trkpt lat="45.71107" lon="2.92408">
        <ele>975.39</ele>
        <time>2015-05-30T07:24:42Z</time>
      </trkpt>
      <trkpt lat="45.71103" lon="2.92395">
        <ele>975.88</ele>
        <time>2015-05-30T07:24:44Z</time>
      </trkpt>
      <trkpt lat="45.71087" lon="2.92333">
        <ele>977.32</ele>
        <time>2015-05-30T07:24:55Z</time>
      </trkpt>
      <trkpt lat="45.71089" lon="2.92315">
        <ele>977.32</ele>
        <time>2015-05-30T07:24:58Z</time>
      </trkpt>
      <trkpt lat="45.7109" lon="2.92309">
        <ele>976.84</ele>
        <time>2015-05-30T07:24:59Z</time>
      </trkpt>
      <trkpt lat="45.71091" lon="2.92303">
        <ele>977.32</ele>
        <time>2015-05-30T07:25:00Z</time>
      </trkpt>
      <trkpt lat="45.71092" lon="2.92296">
        <ele>975.88</ele>
        <time>2015-05-30T07:25:01Z</time>
      </trkpt>
      <trkpt lat="45.71093" lon="2.92289">
        <ele>975.88</ele>
        <time>2015-05-30T07:25:02Z</time>
      </trkpt>
      <trkpt lat="45.71097" lon="2.92238">
        <ele>973.47</ele>
        <time>2015-05-30T07:25:08Z</time>
      </trkpt>
      <trkpt lat="45.71097" lon="2.9223">
        <ele>972.99</ele>
        <time>2015-05-30T07:25:09Z</time>
      </trkpt>
      <trkpt lat="45.71096" lon="2.92221">
        <ele>972.99</ele>
        <time>2015-05-30T07:25:10Z</time>
      </trkpt>
      <trkpt lat="45.71094" lon="2.92213">
        <ele>973.47</ele>
        <time>2015-05-30T07:25:11Z</time>
      </trkpt>
      <trkpt lat="45.71093" lon="2.92206">
        <ele>973.95</ele>
        <time>2015-05-30T07:25:12Z</time>
      </trkpt>
      <trkpt lat="45.71091" lon="2.92199">
        <ele>974.43</ele>
        <time>2015-05-30T07:25:13Z</time>
      </trkpt>
      <trkpt lat="45.7109" lon="2.92192">
        <ele>974.91</ele>
        <time>2015-05-30T07:25:14Z</time>
      </trkpt>
      <trkpt lat="45.71081" lon="2.9215">
        <ele>975.88</ele>
        <time>2015-05-30T07:25:22Z</time>
      </trkpt>
      <trkpt lat="45.7108" lon="2.92144">
        <ele>975.88</ele>
        <time>2015-05-30T07:25:23Z</time>
      </trkpt>
      <trkpt lat="45.71079" lon="2.92138">
        <ele>975.88</ele>
        <time>2015-05-30T07:25:24Z</time>
      </trkpt>
      <trkpt lat="45.71078" lon="2.92132">
        <ele>975.88</ele>
        <time>2015-05-30T07:25:25Z</time>
      </trkpt>
      <trkpt lat="45.71077" lon="2.92126">
        <ele>975.88</ele>
        <time>2015-05-30T07:25:26Z</time>
      </trkpt>
      <trkpt lat="45.71074" lon="2.92109">
        <ele>976.36</ele>
        <time>2015-05-30T07:25:29Z</time>
      </trkpt>
      <trkpt lat="45.71066" lon="2.92075">
        <ele>978.76</ele>
        <time>2015-05-30T07:25:36Z</time>
      </trkpt>
      <trkpt lat="45.71045" lon="2.92038">
        <ele>981.64</ele>
        <time>2015-05-30T07:25:48Z</time>
      </trkpt>
      <trkpt lat="45.71024" lon="2.91987">
        <ele>981.16</ele>
        <time>2015-05-30T07:26:02Z</time>
      </trkpt>
      <trkpt lat="45.71016" lon="2.9195">
        <ele>980.2</ele>
        <time>2015-05-30T07:26:08Z</time>
      </trkpt>
      <trkpt lat="45.71014" lon="2.91944">
        <ele>980.2</ele>
        <time>2015-05-30T07:26:09Z</time>
      </trkpt>
      <trkpt lat="45.71011" lon="2.91937">
        <ele>979.72</ele>
        <time>2015-05-30T07:26:10Z</time>
      </trkpt>
      <trkpt lat="45.71008" lon="2.91931">
        <ele>979.24</ele>
        <time>2015-05-30T07:26:11Z</time>
      </trkpt>
      <trkpt lat="45.71004" lon="2.91925">
        <ele>979.24</ele>
        <time>2015-05-30T07:26:12Z</time>
      </trkpt>
      <trkpt lat="45.70968" lon="2.91846">
        <ele>978.76</ele>
        <time>2015-05-30T07:26:25Z</time>
      </trkpt>
      <trkpt lat="45.70966" lon="2.9184">
        <ele>978.76</ele>
        <time>2015-05-30T07:26:26Z</time>
      </trkpt>
      <trkpt lat="45.70964" lon="2.9182">
        <ele>978.28</ele>
        <time>2015-05-30T07:26:29Z</time>
      </trkpt>
      <trkpt lat="45.70962" lon="2.91798">
        <ele>977.32</ele>
        <time>2015-05-30T07:26:32Z</time>
      </trkpt>
      <trkpt lat="45.70962" lon="2.91791">
        <ele>977.32</ele>
        <time>2015-05-30T07:26:33Z</time>
      </trkpt>
      <trkpt lat="45.70954" lon="2.91698">
        <ele>973.95</ele>
        <time>2015-05-30T07:26:44Z</time>
      </trkpt>
      <trkpt lat="45.70944" lon="2.91631">
        <ele>970.59</ele>
        <time>2015-05-30T07:26:51Z</time>
      </trkpt>
      <trkpt lat="45.70938" lon="2.91595">
        <ele>967.22</ele>
        <time>2015-05-30T07:26:54Z</time>
      </trkpt>
      <trkpt lat="45.70932" lon="2.91552">
        <ele>963.38</ele>
        <time>2015-05-30T07:26:58Z</time>
      </trkpt>
      <trkpt lat="45.70931" lon="2.91517">
        <ele>961.46</ele>
        <time>2015-05-30T07:27:05Z</time>
      </trkpt>
      <trkpt lat="45.70931" lon="2.91515">
        <ele>961.46</ele>
        <time>2015-05-30T07:27:06Z</time>
      </trkpt>
      <trkpt lat="45.7093" lon="2.91513">
        <ele>961.46</ele>
        <time>2015-05-30T07:27:07Z</time>
      </trkpt>
      <trkpt lat="45.70931" lon="2.9151">
        <ele>961.46</ele>
        <time>2015-05-30T07:27:08Z</time>
      </trkpt>
      <trkpt lat="45.70932" lon="2.91508">
        <ele>961.46</ele>
        <time>2015-05-30T07:27:09Z</time>
      </trkpt>
      <trkpt lat="45.70934" lon="2.91507">
        <ele>960.98</ele>
        <time>2015-05-30T07:27:10Z</time>
      </trkpt>
      <trkpt lat="45.70937" lon="2.91506">
        <ele>960.98</ele>
        <time>2015-05-30T07:27:11Z</time>
      </trkpt>
      <trkpt lat="45.7094" lon="2.91505">
        <ele>960.49</ele>
        <time>2015-05-30T07:27:12Z</time>
      </trkpt>
      <trkpt lat="45.70943" lon="2.91504">
        <ele>960.49</ele>
        <time>2015-05-30T07:27:13Z</time>
      </trkpt>
      <trkpt lat="45.70946" lon="2.915">
        <ele>960.01</ele>
        <time>2015-05-30T07:27:14Z</time>
      </trkpt>
      <trkpt lat="45.70949" lon="2.91496">
        <ele>959.05</ele>
        <time>2015-05-30T07:27:15Z</time>
      </trkpt>
      <trkpt lat="45.7095" lon="2.91491">
        <ele>959.05</ele>
        <time>2015-05-30T07:27:16Z</time>
      </trkpt>
      <trkpt lat="45.7095" lon="2.91486">
        <ele>958.09</ele>
        <time>2015-05-30T07:27:17Z</time>
      </trkpt>
      <trkpt lat="45.70949" lon="2.91481">
        <ele>957.13</ele>
        <time>2015-05-30T07:27:18Z</time>
      </trkpt>
      <trkpt lat="45.70946" lon="2.91476">
        <ele>956.65</ele>
        <time>2015-05-30T07:27:19Z</time>
      </trkpt>
      <trkpt lat="45.70942" lon="2.91472">
        <ele>956.17</ele>
        <time>2015-05-30T07:27:20Z</time>
      </trkpt>
      <trkpt lat="45.70937" lon="2.9147">
        <ele>955.69</ele>
        <time>2015-05-30T07:27:21Z</time>
      </trkpt>
      <trkpt lat="45.70932" lon="2.91469">
        <ele>955.21</ele>
        <time>2015-05-30T07:27:22Z</time>
      </trkpt>
      <trkpt lat="45.70926" lon="2.91468">
        <ele>954.73</ele>
        <time>2015-05-30T07:27:23Z</time>
      </trkpt>
      <trkpt lat="45.70884" lon="2.91466">
        <ele>951.36</ele>
        <time>2015-05-30T07:27:29Z</time>
      </trkpt>
      <trkpt lat="45.70872" lon="2.91465">
        <ele>950.88</ele>
        <time>2015-05-30T07:27:31Z</time>
      </trkpt>
      <trkpt lat="45.70866" lon="2.91464">
        <ele>950.4</ele>
        <time>2015-05-30T07:27:32Z</time>
      </trkpt>
      <trkpt lat="45.7086" lon="2.91462">
        <ele>949.92</ele>
        <time>2015-05-30T07:27:33Z</time>
      </trkpt>
      <trkpt lat="45.70853" lon="2.91458">
        <ele>948.96</ele>
        <time>2015-05-30T07:27:34Z</time>
      </trkpt>
      <trkpt lat="45.70846" lon="2.91453">
        <ele>948.48</ele>
        <time>2015-05-30T07:27:35Z</time>
      </trkpt>
      <trkpt lat="45.70838" lon="2.91448">
        <ele>947.04</ele>
        <time>2015-05-30T07:27:36Z</time>
      </trkpt>
      <trkpt lat="45.70829" lon="2.91441">
        <ele>946.07</ele>
        <time>2015-05-30T07:27:37Z</time>
      </trkpt>
      <trkpt lat="45.70822" lon="2.91433">
        <ele>945.59</ele>
        <time>2015-05-30T07:27:38Z</time>
      </trkpt>
      <trkpt lat="45.7081" lon="2.91422">
        <ele>943.19</ele>
        <time>2015-05-30T07:27:40Z</time>
      </trkpt>
      <trkpt lat="45.70783" lon="2.91406">
        <ele>939.83</ele>
        <time>2015-05-30T07:27:44Z</time>
      </trkpt>
      <trkpt lat="45.70755" lon="2.914">
        <ele>936.94</ele>
        <time>2015-05-30T07:27:48Z</time>
      </trkpt>
      <trkpt lat="45.70726" lon="2.91392">
        <ele>933.58</ele>
        <time>2015-05-30T07:27:52Z</time>
      </trkpt>
      <trkpt lat="45.707" lon="2.91376">
        <ele>930.69</ele>
        <time>2015-05-30T07:27:56Z</time>
      </trkpt>
      <trkpt lat="45.70688" lon="2.91367">
        <ele>929.73</ele>
        <time>2015-05-30T07:27:58Z</time>
      </trkpt>
      <trkpt lat="45.70677" lon="2.91362">
        <ele>928.77</ele>
        <time>2015-05-30T07:28:00Z</time>
      </trkpt>
      <trkpt lat="45.70671" lon="2.91361">
        <ele>928.29</ele>
        <time>2015-05-30T07:28:01Z</time>
      </trkpt>
      <trkpt lat="45.70664" lon="2.91361">
        <ele>927.81</ele>
        <time>2015-05-30T07:28:02Z</time>
      </trkpt>
      <trkpt lat="45.70657" lon="2.91361">
        <ele>927.33</ele>
        <time>2015-05-30T07:28:03Z</time>
      </trkpt>
      <trkpt lat="45.70651" lon="2.9136">
        <ele>927.33</ele>
        <time>2015-05-30T07:28:04Z</time>
      </trkpt>
      <trkpt lat="45.70646" lon="2.91359">
        <ele>926.85</ele>
        <time>2015-05-30T07:28:05Z</time>
      </trkpt>
      <trkpt lat="45.70631" lon="2.91356">
        <ele>926.37</ele>
        <time>2015-05-30T07:28:08Z</time>
      </trkpt>
      <trkpt lat="45.70609" lon="2.91347">
        <ele>925.41</ele>
        <time>2015-05-30T07:28:14Z</time>
      </trkpt>
      <trkpt lat="45.70604" lon="2.91346">
        <ele>924.93</ele>
        <time>2015-05-30T07:28:15Z</time>
      </trkpt>
      <trkpt lat="45.70598" lon="2.91347">
        <ele>924.45</ele>
        <time>2015-05-30T07:28:16Z</time>
      </trkpt>
      <trkpt lat="45.70592" lon="2.91349">
        <ele>923.96</ele>
        <time>2015-05-30T07:28:17Z</time>
      </trkpt>
      <trkpt lat="45.70587" lon="2.91351">
        <ele>923.96</ele>
        <time>2015-05-30T07:28:18Z</time>
      </trkpt>
      <trkpt lat="45.70581" lon="2.91354">
        <ele>923.96</ele>
        <time>2015-05-30T07:28:19Z</time>
      </trkpt>
      <trkpt lat="45.70576" lon="2.91357">
        <ele>923.96</ele>
        <time>2015-05-30T07:28:20Z</time>
      </trkpt>
      <trkpt lat="45.70573" lon="2.91361">
        <ele>923.96</ele>
        <time>2015-05-30T07:28:21Z</time>
      </trkpt>
      <trkpt lat="45.70569" lon="2.91365">
        <ele>923.96</ele>
        <time>2015-05-30T07:28:22Z</time>
      </trkpt>
      <trkpt lat="45.70537" lon="2.91399">
        <ele>925.89</ele>
        <time>2015-05-30T07:28:33Z</time>
      </trkpt>
      <trkpt lat="45.70508" lon="2.91435">
        <ele>926.85</ele>
        <time>2015-05-30T07:28:44Z</time>
      </trkpt>
      <trkpt lat="45.70487" lon="2.91471">
        <ele>929.25</ele>
        <time>2015-05-30T07:28:55Z</time>
      </trkpt>
      <trkpt lat="45.70462" lon="2.91508">
        <ele>931.17</ele>
        <time>2015-05-30T07:29:08Z</time>
      </trkpt>
      <trkpt lat="45.70433" lon="2.91538">
        <ele>933.1</ele>
        <time>2015-05-30T07:29:21Z</time>
      </trkpt>
      <trkpt lat="45.70401" lon="2.91566">
        <ele>935.5</ele>
        <time>2015-05-30T07:29:36Z</time>
      </trkpt>
      <trkpt lat="45.70374" lon="2.91602">
        <ele>937.9</ele>
        <time>2015-05-30T07:29:51Z</time>
      </trkpt>
      <trkpt lat="45.70355" lon="2.91639">
        <ele>939.83</ele>
        <time>2015-05-30T07:30:04Z</time>
      </trkpt>
      <trkpt lat="45.7032" lon="2.91652">
        <ele>938.86</ele>
        <time>2015-05-30T07:30:14Z</time>
      </trkpt>
      <trkpt lat="45.70286" lon="2.91672">
        <ele>939.83</ele>
        <time>2015-05-30T07:30:26Z</time>
      </trkpt>
      <trkpt lat="45.70251" lon="2.91679">
        <ele>940.79</ele>
        <time>2015-05-30T07:30:38Z</time>
      </trkpt>
      <trkpt lat="45.70226" lon="2.91688">
        <ele>942.23</ele>
        <time>2015-05-30T07:30:48Z</time>
      </trkpt>
      <trkpt lat="45.70195" lon="2.9171">
        <ele>943.67</ele>
        <time>2015-05-30T07:31:00Z</time>
      </trkpt>
      <trkpt lat="45.70168" lon="2.91737">
        <ele>945.11</ele>
        <time>2015-05-30T07:31:13Z</time>
      </trkpt>
      <trkpt lat="45.70162" lon="2.91744">
        <ele>945.11</ele>
        <time>2015-05-30T07:31:17Z</time>
      </trkpt>
      <trkpt lat="45.70141" lon="2.91782">
        <ele>946.07</ele>
        <time>2015-05-30T07:31:30Z</time>
      </trkpt>
      <trkpt lat="45.7011" lon="2.91805">
        <ele>947.04</ele>
        <time>2015-05-30T07:31:42Z</time>
      </trkpt>
      <trkpt lat="45.70075" lon="2.91812">
        <ele>948.48</ele>
        <time>2015-05-30T07:31:54Z</time>
      </trkpt>
      <trkpt lat="45.70037" lon="2.91831">
        <ele>951.36</ele>
        <time>2015-05-30T07:32:11Z</time>
      </trkpt>
      <trkpt lat="45.70017" lon="2.91833">
        <ele>954.25</ele>
        <time>2015-05-30T07:32:24Z</time>
      </trkpt>
      <trkpt lat="45.69997" lon="2.91834">
        <ele>957.13</ele>
        <time>2015-05-30T07:32:37Z</time>
      </trkpt>
      <trkpt lat="45.69971" lon="2.91832">
        <ele>959.05</ele>
        <time>2015-05-30T07:32:51Z</time>
      </trkpt>
      <trkpt lat="45.69948" lon="2.91829">
        <ele>960.98</ele>
        <time>2015-05-30T07:33:04Z</time>
      </trkpt>
      <trkpt lat="45.6992" lon="2.91829">
        <ele>963.86</ele>
        <time>2015-05-30T07:33:20Z</time>
      </trkpt>
      <trkpt lat="45.69895" lon="2.91846">
        <ele>964.34</ele>
        <time>2015-05-30T07:33:32Z</time>
      </trkpt>
      <trkpt lat="45.6987" lon="2.91871">
        <ele>964.34</ele>
        <time>2015-05-30T07:33:43Z</time>
      </trkpt>
      <trkpt lat="45.69837" lon="2.91914">
        <ele>961.46</ele>
        <time>2015-05-30T07:33:51Z</time>
      </trkpt>
      <trkpt lat="45.69807" lon="2.91949">
        <ele>960.01</ele>
        <time>2015-05-30T07:33:57Z</time>
      </trkpt>
      <trkpt lat="45.69795" lon="2.91956">
        <ele>960.01</ele>
        <time>2015-05-30T07:33:59Z</time>
      </trkpt>
      <trkpt lat="45.69772" lon="2.91965">
        <ele>959.53</ele>
        <time>2015-05-30T07:34:03Z</time>
      </trkpt>
      <trkpt lat="45.69766" lon="2.91967">
        <ele>959.53</ele>
        <time>2015-05-30T07:34:04Z</time>
      </trkpt>
      <trkpt lat="45.69697" lon="2.91992">
        <ele>960.49</ele>
        <time>2015-05-30T07:34:18Z</time>
      </trkpt>
      <trkpt lat="45.69693" lon="2.91994">
        <ele>960.49</ele>
        <time>2015-05-30T07:34:19Z</time>
      </trkpt>
      <trkpt lat="45.69689" lon="2.91997">
        <ele>960.49</ele>
        <time>2015-05-30T07:34:20Z</time>
      </trkpt>
      <trkpt lat="45.69669" lon="2.92012">
        <ele>960.49</ele>
        <time>2015-05-30T07:34:25Z</time>
      </trkpt>
      <trkpt lat="45.69619" lon="2.92045">
        <ele>961.94</ele>
        <time>2015-05-30T07:34:38Z</time>
      </trkpt>
      <trkpt lat="45.69607" lon="2.92053">
        <ele>961.94</ele>
        <time>2015-05-30T07:34:41Z</time>
      </trkpt>
      <trkpt lat="45.69603" lon="2.92056">
        <ele>961.46</ele>
        <time>2015-05-30T07:34:42Z</time>
      </trkpt>
      <trkpt lat="45.69599" lon="2.92059">
        <ele>961.94</ele>
        <time>2015-05-30T07:34:43Z</time>
      </trkpt>
      <trkpt lat="45.69595" lon="2.92063">
        <ele>961.94</ele>
        <time>2015-05-30T07:34:44Z</time>
      </trkpt>
      <trkpt lat="45.69591" lon="2.92066">
        <ele>961.94</ele>
        <time>2015-05-30T07:34:45Z</time>
      </trkpt>
      <trkpt lat="45.69587" lon="2.92068">
        <ele>961.46</ele>
        <time>2015-05-30T07:34:46Z</time>
      </trkpt>
      <trkpt lat="45.69583" lon="2.9207">
        <ele>961.46</ele>
        <time>2015-05-30T07:34:47Z</time>
      </trkpt>
      <trkpt lat="45.69578" lon="2.92073">
        <ele>961.46</ele>
        <time>2015-05-30T07:34:48Z</time>
      </trkpt>
      <trkpt lat="45.69557" lon="2.92092">
        <ele>960.49</ele>
        <time>2015-05-30T07:34:53Z</time>
      </trkpt>
      <trkpt lat="45.69509" lon="2.92174">
        <ele>960.49</ele>
        <time>2015-05-30T07:35:08Z</time>
      </trkpt>
      <trkpt lat="45.69463" lon="2.92252">
        <ele>960.49</ele>
        <time>2015-05-30T07:35:23Z</time>
      </trkpt>
      <trkpt lat="45.69453" lon="2.9227">
        <ele>960.01</ele>
        <time>2015-05-30T07:35:26Z</time>
      </trkpt>
      <trkpt lat="45.6945" lon="2.92276">
        <ele>960.49</ele>
        <time>2015-05-30T07:35:27Z</time>
      </trkpt>
      <trkpt lat="45.69428" lon="2.92313">
        <ele>960.49</ele>
        <time>2015-05-30T07:35:34Z</time>
      </trkpt>
      <trkpt lat="45.69424" lon="2.92318">
        <ele>960.49</ele>
        <time>2015-05-30T07:35:35Z</time>
      </trkpt>
      <trkpt lat="45.69416" lon="2.92334">
        <ele>960.49</ele>
        <time>2015-05-30T07:35:38Z</time>
      </trkpt>
      <trkpt lat="45.69413" lon="2.92339">
        <ele>960.98</ele>
        <time>2015-05-30T07:35:39Z</time>
      </trkpt>
      <trkpt lat="45.6941" lon="2.92344">
        <ele>960.49</ele>
        <time>2015-05-30T07:35:40Z</time>
      </trkpt>
      <trkpt lat="45.69399" lon="2.92361">
        <ele>960.98</ele>
        <time>2015-05-30T07:35:44Z</time>
      </trkpt>
      <trkpt lat="45.69351" lon="2.92446">
        <ele>961.94</ele>
        <time>2015-05-30T07:36:02Z</time>
      </trkpt>
      <trkpt lat="45.69327" lon="2.9249">
        <ele>961.46</ele>
        <time>2015-05-30T07:36:11Z</time>
      </trkpt>
      <trkpt lat="45.69324" lon="2.92496">
        <ele>961.46</ele>
        <time>2015-05-30T07:36:12Z</time>
      </trkpt>
      <trkpt lat="45.69322" lon="2.92502">
        <ele>961.46</ele>
        <time>2015-05-30T07:36:13Z</time>
      </trkpt>
      <trkpt lat="45.69319" lon="2.92508">
        <ele>961.46</ele>
        <time>2015-05-30T07:36:14Z</time>
      </trkpt>
      <trkpt lat="45.69317" lon="2.92514">
        <ele>961.46</ele>
        <time>2015-05-30T07:36:15Z</time>
      </trkpt>
      <trkpt lat="45.69316" lon="2.9252">
        <ele>961.46</ele>
        <time>2015-05-30T07:36:16Z</time>
      </trkpt>
      <trkpt lat="45.69304" lon="2.92558">
        <ele>961.94</ele>
        <time>2015-05-30T07:36:23Z</time>
      </trkpt>
      <trkpt lat="45.69274" lon="2.92656">
        <ele>963.38</ele>
        <time>2015-05-30T07:36:42Z</time>
      </trkpt>
      <trkpt lat="45.6926" lon="2.92699">
        <ele>964.82</ele>
        <time>2015-05-30T07:36:52Z</time>
      </trkpt>
      <trkpt lat="45.69237" lon="2.92763">
        <ele>965.78</ele>
        <time>2015-05-30T07:37:07Z</time>
      </trkpt>
      <trkpt lat="45.69204" lon="2.92847">
        <ele>967.22</ele>
        <time>2015-05-30T07:37:26Z</time>
      </trkpt>
      <trkpt lat="45.69177" lon="2.92915">
        <ele>967.7</ele>
        <time>2015-05-30T07:37:41Z</time>
      </trkpt>
      <trkpt lat="45.69157" lon="2.92968">
        <ele>967.7</ele>
        <time>2015-05-30T07:37:54Z</time>
      </trkpt>
      <trkpt lat="45.69135" lon="2.93019">
        <ele>967.7</ele>
        <time>2015-05-30T07:38:06Z</time>
      </trkpt>
      <trkpt lat="45.69109" lon="2.93079">
        <ele>967.7</ele>
        <time>2015-05-30T07:38:20Z</time>
      </trkpt>
      <trkpt lat="45.69087" lon="2.93133">
        <ele>968.67</ele>
        <time>2015-05-30T07:38:33Z</time>
      </trkpt>
      <trkpt lat="45.69061" lon="2.93199">
        <ele>969.15</ele>
        <time>2015-05-30T07:38:48Z</time>
      </trkpt>
      <trkpt lat="45.69029" lon="2.9327">
        <ele>969.63</ele>
        <time>2015-05-30T07:39:04Z</time>
      </trkpt>
      <trkpt lat="45.69026" lon="2.93275">
        <ele>969.63</ele>
        <time>2015-05-30T07:39:05Z</time>
      </trkpt>
      <trkpt lat="45.68997" lon="2.93348">
        <ele>970.11</ele>
        <time>2015-05-30T07:39:21Z</time>
      </trkpt>
      <trkpt lat="45.68998" lon="2.93348">
        <ele>970.11</ele>
        <time>2015-05-30T07:39:38Z</time>
      </trkpt>
      <trkpt lat="45.68997" lon="2.93347">
        <ele>970.11</ele>
        <time>2015-05-30T07:40:11Z</time>
      </trkpt>
      <trkpt lat="45.68998" lon="2.93348">
        <ele>970.11</ele>
        <time>2015-05-30T07:40:46Z</time>
      </trkpt>
      <trkpt lat="45.68998" lon="2.93348">
        <ele>970.11</ele>
        <time>2015-05-30T07:40:49Z</time>
      </trkpt>
      <trkpt lat="45.68998" lon="2.93349">
        <ele>970.11</ele>
        <time>2015-05-30T07:41:15Z</time>
      </trkpt>
      <trkpt lat="45.68996" lon="2.93354">
        <ele>970.59</ele>
        <time>2015-05-30T07:41:18Z</time>
      </trkpt>
      <trkpt lat="45.68995" lon="2.93356">
        <ele>970.59</ele>
        <time>2015-05-30T07:41:19Z</time>
      </trkpt>
      <trkpt lat="45.6898" lon="2.93392">
        <ele>970.11</ele>
        <time>2015-05-30T07:41:30Z</time>
      </trkpt>
      <trkpt lat="45.68958" lon="2.93447">
        <ele>970.11</ele>
        <time>2015-05-30T07:41:41Z</time>
      </trkpt>
      <trkpt lat="45.68955" lon="2.93458">
        <ele>970.11</ele>
        <time>2015-05-30T07:41:43Z</time>
      </trkpt>
      <trkpt lat="45.68948" lon="2.93474">
        <ele>970.11</ele>
        <time>2015-05-30T07:41:46Z</time>
      </trkpt>
      <trkpt lat="45.6891" lon="2.93568">
        <ele>969.15</ele>
        <time>2015-05-30T07:42:02Z</time>
      </trkpt>
      <trkpt lat="45.68907" lon="2.93574">
        <ele>968.67</ele>
        <time>2015-05-30T07:42:03Z</time>
      </trkpt>
      <trkpt lat="45.68872" lon="2.93657">
        <ele>968.67</ele>
        <time>2015-05-30T07:42:18Z</time>
      </trkpt>
      <trkpt lat="45.68827" lon="2.93769">
        <ele>967.22</ele>
        <time>2015-05-30T07:42:36Z</time>
      </trkpt>
      <trkpt lat="45.6882" lon="2.93786">
        <ele>967.22</ele>
        <time>2015-05-30T07:42:39Z</time>
      </trkpt>
      <trkpt lat="45.68818" lon="2.93792">
        <ele>967.22</ele>
        <time>2015-05-30T07:42:40Z</time>
      </trkpt>
      <trkpt lat="45.68815" lon="2.93798">
        <ele>967.7</ele>
        <time>2015-05-30T07:42:41Z</time>
      </trkpt>
      <trkpt lat="45.68776" lon="2.93888">
        <ele>964.82</ele>
        <time>2015-05-30T07:42:56Z</time>
      </trkpt>
      <trkpt lat="45.68774" lon="2.93893">
        <ele>964.82</ele>
        <time>2015-05-30T07:42:57Z</time>
      </trkpt>
      <trkpt lat="45.68773" lon="2.93899">
        <ele>964.82</ele>
        <time>2015-05-30T07:42:58Z</time>
      </trkpt>
      <trkpt lat="45.68773" lon="2.93904">
        <ele>965.3</ele>
        <time>2015-05-30T07:42:59Z</time>
      </trkpt>
      <trkpt lat="45.68774" lon="2.93908">
        <ele>964.82</ele>
        <time>2015-05-30T07:43:00Z</time>
      </trkpt>
      <trkpt lat="45.68776" lon="2.93911">
        <ele>964.82</ele>
        <time>2015-05-30T07:43:01Z</time>
      </trkpt>
      <trkpt lat="45.68779" lon="2.93912">
        <ele>965.3</ele>
        <time>2015-05-30T07:43:02Z</time>
      </trkpt>
      <trkpt lat="45.68781" lon="2.93913">
        <ele>964.82</ele>
        <time>2015-05-30T07:43:03Z</time>
      </trkpt>
      <trkpt lat="45.68785" lon="2.93914">
        <ele>964.82</ele>
        <time>2015-05-30T07:43:04Z</time>
      </trkpt>
      <trkpt lat="45.68828" lon="2.93927">
        <ele>965.3</ele>
        <time>2015-05-30T07:43:17Z</time>
      </trkpt>
      <trkpt lat="45.68842" lon="2.93934">
        <ele>965.78</ele>
        <time>2015-05-30T07:43:22Z</time>
      </trkpt>
      <trkpt lat="45.68874" lon="2.93945">
        <ele>966.26</ele>
        <time>2015-05-30T07:43:34Z</time>
      </trkpt>
      <trkpt lat="45.68893" lon="2.93949">
        <ele>967.22</ele>
        <time>2015-05-30T07:43:42Z</time>
      </trkpt>
      <trkpt lat="45.68892" lon="2.93949">
        <ele>966.74</ele>
        <time>2015-05-30T07:43:56Z</time>
      </trkpt>
      <trkpt lat="45.68892" lon="2.9395">
        <ele>966.74</ele>
        <time>2015-05-30T07:44:32Z</time>
      </trkpt>
      <trkpt lat="45.68892" lon="2.93949">
        <ele>966.74</ele>
        <time>2015-05-30T07:45:07Z</time>
      </trkpt>
      <trkpt lat="45.68895" lon="2.9395">
        <ele>967.22</ele>
        <time>2015-05-30T07:45:26Z</time>
      </trkpt>
      <trkpt lat="45.68896" lon="2.93951">
        <ele>967.7</ele>
        <time>2015-05-30T07:45:27Z</time>
      </trkpt>
      <trkpt lat="45.68923" lon="2.93962">
        <ele>968.67</ele>
        <time>2015-05-30T07:45:38Z</time>
      </trkpt>
      <trkpt lat="45.68925" lon="2.93962">
        <ele>968.67</ele>
        <time>2015-05-30T07:45:39Z</time>
      </trkpt>
      <trkpt lat="45.68926" lon="2.93963">
        <ele>968.67</ele>
        <time>2015-05-30T07:45:40Z</time>
      </trkpt>
      <trkpt lat="45.68928" lon="2.93964">
        <ele>968.18</ele>
        <time>2015-05-30T07:45:41Z</time>
      </trkpt>
      <trkpt lat="45.6893" lon="2.93965">
        <ele>968.18</ele>
        <time>2015-05-30T07:45:42Z</time>
      </trkpt>
      <trkpt lat="45.68932" lon="2.93966">
        <ele>968.18</ele>
        <time>2015-05-30T07:45:43Z</time>
      </trkpt>
      <trkpt lat="45.68934" lon="2.93967">
        <ele>968.18</ele>
        <time>2015-05-30T07:45:44Z</time>
      </trkpt>
      <trkpt lat="45.68936" lon="2.93967">
        <ele>968.18</ele>
        <time>2015-05-30T07:45:45Z</time>
      </trkpt>
      <trkpt lat="45.68938" lon="2.93968">
        <ele>968.67</ele>
        <time>2015-05-30T07:45:46Z</time>
      </trkpt>
      <trkpt lat="45.68941" lon="2.9397">
        <ele>968.67</ele>
        <time>2015-05-30T07:45:48Z</time>
      </trkpt>
      <trkpt lat="45.68943" lon="2.93971">
        <ele>968.67</ele>
        <time>2015-05-30T07:45:49Z</time>
      </trkpt>
      <trkpt lat="45.68945" lon="2.93971">
        <ele>968.67</ele>
        <time>2015-05-30T07:45:50Z</time>
      </trkpt>
      <trkpt lat="45.68982" lon="2.93982">
        <ele>970.11</ele>
        <time>2015-05-30T07:46:04Z</time>
      </trkpt>
      <trkpt lat="45.69021" lon="2.93989">
        <ele>968.67</ele>
        <time>2015-05-30T07:46:16Z</time>
      </trkpt>
      <trkpt lat="45.6905" lon="2.94">
        <ele>969.15</ele>
        <time>2015-05-30T07:46:25Z</time>
      </trkpt>
      <trkpt lat="45.69091" lon="2.94012">
        <ele>970.59</ele>
        <time>2015-05-30T07:46:39Z</time>
      </trkpt>
      <trkpt lat="45.69116" lon="2.9402">
        <ele>972.03</ele>
        <time>2015-05-30T07:46:51Z</time>
      </trkpt>
      <trkpt lat="45.69122" lon="2.94024">
        <ele>972.03</ele>
        <time>2015-05-30T07:46:54Z</time>
      </trkpt>
      <trkpt lat="45.69124" lon="2.94025">
        <ele>972.03</ele>
        <time>2015-05-30T07:46:55Z</time>
      </trkpt>
      <trkpt lat="45.69127" lon="2.94025">
        <ele>972.51</ele>
        <time>2015-05-30T07:46:56Z</time>
      </trkpt>
      <trkpt lat="45.69139" lon="2.9403">
        <ele>973.95</ele>
        <time>2015-05-30T07:47:02Z</time>
      </trkpt>
      <trkpt lat="45.6914" lon="2.94031">
        <ele>973.47</ele>
        <time>2015-05-30T07:47:03Z</time>
      </trkpt>
      <trkpt lat="45.69142" lon="2.94031">
        <ele>973.47</ele>
        <time>2015-05-30T07:47:04Z</time>
      </trkpt>
      <trkpt lat="45.69144" lon="2.94031">
        <ele>973.47</ele>
        <time>2015-05-30T07:47:05Z</time>
      </trkpt>
      <trkpt lat="45.69146" lon="2.94032">
        <ele>973.95</ele>
        <time>2015-05-30T07:47:06Z</time>
      </trkpt>
      <trkpt lat="45.69149" lon="2.94032">
        <ele>974.43</ele>
        <time>2015-05-30T07:47:08Z</time>
      </trkpt>
      <trkpt lat="45.6915" lon="2.94032">
        <ele>974.43</ele>
        <time>2015-05-30T07:47:09Z</time>
      </trkpt>
      <trkpt lat="45.69154" lon="2.94034">
        <ele>974.91</ele>
        <time>2015-05-30T07:47:12Z</time>
      </trkpt>
      <trkpt lat="45.69156" lon="2.94035">
        <ele>974.91</ele>
        <time>2015-05-30T07:47:13Z</time>
      </trkpt>
      <trkpt lat="45.69166" lon="2.9404">
        <ele>975.88</ele>
        <time>2015-05-30T07:47:20Z</time>
      </trkpt>
      <trkpt lat="45.69175" lon="2.9404">
        <ele>977.32</ele>
        <time>2015-05-30T07:47:26Z</time>
      </trkpt>
      <trkpt lat="45.69177" lon="2.94041">
        <ele>977.32</ele>
        <time>2015-05-30T07:47:27Z</time>
      </trkpt>
      <trkpt lat="45.69197" lon="2.94047">
        <ele>979.24</ele>
        <time>2015-05-30T07:47:40Z</time>
      </trkpt>
      <trkpt lat="45.69202" lon="2.94047">
        <ele>979.72</ele>
        <time>2015-05-30T07:47:44Z</time>
      </trkpt>
      <trkpt lat="45.69217" lon="2.94054">
        <ele>981.64</ele>
        <time>2015-05-30T07:47:55Z</time>
      </trkpt>
      <trkpt lat="45.69233" lon="2.94062">
        <ele>983.09</ele>
        <time>2015-05-30T07:48:06Z</time>
      </trkpt>
      <trkpt lat="45.69245" lon="2.94061">
        <ele>984.53</ele>
        <time>2015-05-30T07:48:14Z</time>
      </trkpt>
      <trkpt lat="45.69246" lon="2.94061">
        <ele>985.01</ele>
        <time>2015-05-30T07:48:15Z</time>
      </trkpt>
      <trkpt lat="45.69258" lon="2.94063">
        <ele>986.45</ele>
        <time>2015-05-30T07:48:22Z</time>
      </trkpt>
      <trkpt lat="45.6926" lon="2.94064">
        <ele>986.45</ele>
        <time>2015-05-30T07:48:23Z</time>
      </trkpt>
      <trkpt lat="45.69276" lon="2.94064">
        <ele>988.37</ele>
        <time>2015-05-30T07:48:34Z</time>
      </trkpt>
      <trkpt lat="45.69278" lon="2.94064">
        <ele>988.37</ele>
        <time>2015-05-30T07:48:35Z</time>
      </trkpt>
      <trkpt lat="45.6928" lon="2.94064">
        <ele>988.37</ele>
        <time>2015-05-30T07:48:36Z</time>
      </trkpt>
      <trkpt lat="45.69281" lon="2.94064">
        <ele>988.85</ele>
        <time>2015-05-30T07:48:37Z</time>
      </trkpt>
      <trkpt lat="45.69283" lon="2.94064">
        <ele>988.85</ele>
        <time>2015-05-30T07:48:38Z</time>
      </trkpt>
      <trkpt lat="45.69302" lon="2.94068">
        <ele>990.78</ele>
        <time>2015-05-30T07:48:52Z</time>
      </trkpt>
      <trkpt lat="45.69316" lon="2.94073">
        <ele>992.22</ele>
        <time>2015-05-30T07:49:03Z</time>
      </trkpt>
      <trkpt lat="45.69317" lon="2.94073">
        <ele>992.22</ele>
        <time>2015-05-30T07:49:04Z</time>
      </trkpt>
      <trkpt lat="45.69319" lon="2.94074">
        <ele>992.22</ele>
        <time>2015-05-30T07:49:05Z</time>
      </trkpt>
      <trkpt lat="45.69335" lon="2.94072">
        <ele>992.7</ele>
        <time>2015-05-30T07:49:15Z</time>
      </trkpt>
      <trkpt lat="45.69337" lon="2.94072">
        <ele>992.7</ele>
        <time>2015-05-30T07:49:16Z</time>
      </trkpt>
      <trkpt lat="45.69349" lon="2.94069">
        <ele>993.18</ele>
        <time>2015-05-30T07:49:24Z</time>
      </trkpt>
      <trkpt lat="45.69351" lon="2.94071">
        <ele>993.18</ele>
        <time>2015-05-30T07:49:25Z</time>
      </trkpt>
      <trkpt lat="45.69354" lon="2.94072">
        <ele>992.7</ele>
        <time>2015-05-30T07:49:26Z</time>
      </trkpt>
      <trkpt lat="45.69356" lon="2.94072">
        <ele>992.7</ele>
        <time>2015-05-30T07:49:27Z</time>
      </trkpt>
      <trkpt lat="45.69359" lon="2.94074">
        <ele>993.18</ele>
        <time>2015-05-30T07:49:28Z</time>
      </trkpt>
      <trkpt lat="45.69366" lon="2.94076">
        <ele>993.18</ele>
        <time>2015-05-30T07:49:31Z</time>
      </trkpt>
      <trkpt lat="45.69368" lon="2.94076">
        <ele>993.18</ele>
        <time>2015-05-30T07:49:32Z</time>
      </trkpt>
      <trkpt lat="45.69399" lon="2.94088">
        <ele>992.7</ele>
        <time>2015-05-30T07:49:45Z</time>
      </trkpt>
      <trkpt lat="45.69411" lon="2.94093">
        <ele>992.7</ele>
        <time>2015-05-30T07:49:51Z</time>
      </trkpt>
      <trkpt lat="45.69412" lon="2.94094">
        <ele>992.7</ele>
        <time>2015-05-30T07:49:52Z</time>
      </trkpt>
      <trkpt lat="45.69415" lon="2.94094">
        <ele>992.7</ele>
        <time>2015-05-30T07:49:53Z</time>
      </trkpt>
      <trkpt lat="45.69419" lon="2.94095">
        <ele>992.7</ele>
        <time>2015-05-30T07:49:54Z</time>
      </trkpt>
      <trkpt lat="45.69421" lon="2.94096">
        <ele>992.7</ele>
        <time>2015-05-30T07:49:55Z</time>
      </trkpt>
      <trkpt lat="45.69447" lon="2.94102">
        <ele>992.7</ele>
        <time>2015-05-30T07:50:05Z</time>
      </trkpt>
      <trkpt lat="45.69466" lon="2.94105">
        <ele>992.7</ele>
        <time>2015-05-30T07:50:14Z</time>
      </trkpt>
      <trkpt lat="45.69468" lon="2.94107">
        <ele>992.7</ele>
        <time>2015-05-30T07:50:15Z</time>
      </trkpt>
      <trkpt lat="45.69491" lon="2.94144">
        <ele>993.66</ele>
        <time>2015-05-30T07:50:29Z</time>
      </trkpt>
      <trkpt lat="45.69508" lon="2.94183">
        <ele>994.62</ele>
        <time>2015-05-30T07:50:42Z</time>
      </trkpt>
      <trkpt lat="45.69526" lon="2.94222">
        <ele>997.02</ele>
        <time>2015-05-30T07:50:57Z</time>
      </trkpt>
      <trkpt lat="45.69541" lon="2.94254">
        <ele>999.43</ele>
        <time>2015-05-30T07:51:10Z</time>
      </trkpt>
      <trkpt lat="45.69563" lon="2.9429">
        <ele>998.47</ele>
        <time>2015-05-30T07:51:22Z</time>
      </trkpt>
      <trkpt lat="45.69594" lon="2.94356">
        <ele>996.54</ele>
        <time>2015-05-30T07:51:36Z</time>
      </trkpt>
      <trkpt lat="45.69603" lon="2.94373">
        <ele>995.58</ele>
        <time>2015-05-30T07:51:39Z</time>
      </trkpt>
      <trkpt lat="45.69606" lon="2.94379">
        <ele>995.58</ele>
        <time>2015-05-30T07:51:40Z</time>
      </trkpt>
      <trkpt lat="45.6961" lon="2.94385">
        <ele>995.58</ele>
        <time>2015-05-30T07:51:41Z</time>
      </trkpt>
      <trkpt lat="45.69613" lon="2.94391">
        <ele>995.1</ele>
        <time>2015-05-30T07:51:42Z</time>
      </trkpt>
      <trkpt lat="45.69616" lon="2.94397">
        <ele>995.1</ele>
        <time>2015-05-30T07:51:43Z</time>
      </trkpt>
      <trkpt lat="45.69647" lon="2.94464">
        <ele>994.14</ele>
        <time>2015-05-30T07:51:54Z</time>
      </trkpt>
      <trkpt lat="45.69687" lon="2.94552">
        <ele>991.26</ele>
        <time>2015-05-30T07:52:08Z</time>
      </trkpt>
      <trkpt lat="45.69709" lon="2.94604">
        <ele>989.33</ele>
        <time>2015-05-30T07:52:15Z</time>
      </trkpt>
      <trkpt lat="45.69712" lon="2.94612">
        <ele>988.85</ele>
        <time>2015-05-30T07:52:16Z</time>
      </trkpt>
      <trkpt lat="45.69715" lon="2.9462">
        <ele>988.85</ele>
        <time>2015-05-30T07:52:17Z</time>
      </trkpt>
      <trkpt lat="45.69723" lon="2.94647">
        <ele>986.93</ele>
        <time>2015-05-30T07:52:21Z</time>
      </trkpt>
      <trkpt lat="45.69726" lon="2.94653">
        <ele>986.45</ele>
        <time>2015-05-30T07:52:22Z</time>
      </trkpt>
      <trkpt lat="45.69728" lon="2.9466">
        <ele>986.45</ele>
        <time>2015-05-30T07:52:23Z</time>
      </trkpt>
      <trkpt lat="45.69729" lon="2.94666">
        <ele>985.97</ele>
        <time>2015-05-30T07:52:24Z</time>
      </trkpt>
      <trkpt lat="45.69731" lon="2.94672">
        <ele>985.97</ele>
        <time>2015-05-30T07:52:25Z</time>
      </trkpt>
      <trkpt lat="45.69732" lon="2.94679">
        <ele>985.97</ele>
        <time>2015-05-30T07:52:26Z</time>
      </trkpt>
      <trkpt lat="45.69735" lon="2.94686">
        <ele>985.97</ele>
        <time>2015-05-30T07:52:27Z</time>
      </trkpt>
      <trkpt lat="45.69737" lon="2.94693">
        <ele>985.97</ele>
        <time>2015-05-30T07:52:28Z</time>
      </trkpt>
      <trkpt lat="45.69742" lon="2.94707">
        <ele>985.49</ele>
        <time>2015-05-30T07:52:30Z</time>
      </trkpt>
      <trkpt lat="45.69743" lon="2.94714">
        <ele>985.49</ele>
        <time>2015-05-30T07:52:31Z</time>
      </trkpt>
      <trkpt lat="45.69743" lon="2.94721">
        <ele>985.49</ele>
        <time>2015-05-30T07:52:32Z</time>
      </trkpt>
      <trkpt lat="45.69742" lon="2.94728">
        <ele>985.49</ele>
        <time>2015-05-30T07:52:33Z</time>
      </trkpt>
      <trkpt lat="45.69739" lon="2.94735">
        <ele>985.49</ele>
        <time>2015-05-30T07:52:34Z</time>
      </trkpt>
      <trkpt lat="45.69736" lon="2.94741">
        <ele>985.49</ele>
        <time>2015-05-30T07:52:35Z</time>
      </trkpt>
      <trkpt lat="45.69733" lon="2.94747">
        <ele>985.49</ele>
        <time>2015-05-30T07:52:36Z</time>
      </trkpt>
      <trkpt lat="45.69713" lon="2.94793">
        <ele>984.53</ele>
        <time>2015-05-30T07:52:43Z</time>
      </trkpt>
      <trkpt lat="45.69709" lon="2.94799">
        <ele>984.05</ele>
        <time>2015-05-30T07:52:44Z</time>
      </trkpt>
      <trkpt lat="45.69707" lon="2.94805">
        <ele>984.05</ele>
        <time>2015-05-30T07:52:45Z</time>
      </trkpt>
      <trkpt lat="45.69704" lon="2.94812">
        <ele>984.53</ele>
        <time>2015-05-30T07:52:46Z</time>
      </trkpt>
      <trkpt lat="45.69701" lon="2.94819">
        <ele>984.05</ele>
        <time>2015-05-30T07:52:47Z</time>
      </trkpt>
      <trkpt lat="45.69674" lon="2.94878">
        <ele>982.12</ele>
        <time>2015-05-30T07:52:55Z</time>
      </trkpt>
      <trkpt lat="45.69671" lon="2.94886">
        <ele>982.12</ele>
        <time>2015-05-30T07:52:56Z</time>
      </trkpt>
      <trkpt lat="45.69626" lon="2.94975">
        <ele>980.68</ele>
        <time>2015-05-30T07:53:08Z</time>
      </trkpt>
      <trkpt lat="45.69618" lon="2.9499">
        <ele>980.68</ele>
        <time>2015-05-30T07:53:10Z</time>
      </trkpt>
      <trkpt lat="45.69614" lon="2.94997">
        <ele>980.2</ele>
        <time>2015-05-30T07:53:11Z</time>
      </trkpt>
      <trkpt lat="45.69607" lon="2.9501">
        <ele>979.72</ele>
        <time>2015-05-30T07:53:13Z</time>
      </trkpt>
      <trkpt lat="45.69589" lon="2.95055">
        <ele>977.32</ele>
        <time>2015-05-30T07:53:18Z</time>
      </trkpt>
      <trkpt lat="45.69577" lon="2.95108">
        <ele>974.91</ele>
        <time>2015-05-30T07:53:23Z</time>
      </trkpt>
      <trkpt lat="45.69573" lon="2.95118">
        <ele>973.95</ele>
        <time>2015-05-30T07:53:24Z</time>
      </trkpt>
      <trkpt lat="45.69568" lon="2.95127">
        <ele>973.47</ele>
        <time>2015-05-30T07:53:25Z</time>
      </trkpt>
      <trkpt lat="45.69562" lon="2.95134">
        <ele>972.51</ele>
        <time>2015-05-30T07:53:26Z</time>
      </trkpt>
      <trkpt lat="45.69556" lon="2.95141">
        <ele>971.55</ele>
        <time>2015-05-30T07:53:27Z</time>
      </trkpt>
      <trkpt lat="45.69551" lon="2.95148">
        <ele>971.55</ele>
        <time>2015-05-30T07:53:28Z</time>
      </trkpt>
      <trkpt lat="45.69546" lon="2.95155">
        <ele>971.07</ele>
        <time>2015-05-30T07:53:29Z</time>
      </trkpt>
      <trkpt lat="45.69542" lon="2.95163">
        <ele>970.59</ele>
        <time>2015-05-30T07:53:30Z</time>
      </trkpt>
      <trkpt lat="45.69539" lon="2.95172">
        <ele>970.59</ele>
        <time>2015-05-30T07:53:31Z</time>
      </trkpt>
      <trkpt lat="45.69533" lon="2.9519">
        <ele>970.11</ele>
        <time>2015-05-30T07:53:33Z</time>
      </trkpt>
      <trkpt lat="45.69531" lon="2.95198">
        <ele>970.11</ele>
        <time>2015-05-30T07:53:34Z</time>
      </trkpt>
      <trkpt lat="45.69529" lon="2.95207">
        <ele>969.15</ele>
        <time>2015-05-30T07:53:35Z</time>
      </trkpt>
      <trkpt lat="45.69516" lon="2.95242">
        <ele>966.74</ele>
        <time>2015-05-30T07:53:39Z</time>
      </trkpt>
      <trkpt lat="45.69489" lon="2.95298">
        <ele>964.82</ele>
        <time>2015-05-30T07:53:46Z</time>
      </trkpt>
      <trkpt lat="45.69486" lon="2.95304">
        <ele>964.34</ele>
        <time>2015-05-30T07:53:47Z</time>
      </trkpt>
      <trkpt lat="45.69485" lon="2.95308">
        <ele>964.34</ele>
        <time>2015-05-30T07:53:48Z</time>
      </trkpt>
      <trkpt lat="45.69483" lon="2.95312">
        <ele>964.34</ele>
        <time>2015-05-30T07:53:49Z</time>
      </trkpt>
      <trkpt lat="45.69483" lon="2.95316">
        <ele>964.34</ele>
        <time>2015-05-30T07:53:50Z</time>
      </trkpt>
      <trkpt lat="45.69483" lon="2.95318">
        <ele>964.34</ele>
        <time>2015-05-30T07:53:51Z</time>
      </trkpt>
      <trkpt lat="45.69481" lon="2.95321">
        <ele>964.34</ele>
        <time>2015-05-30T07:53:52Z</time>
      </trkpt>
      <trkpt lat="45.69479" lon="2.95324">
        <ele>963.86</ele>
        <time>2015-05-30T07:53:53Z</time>
      </trkpt>
      <trkpt lat="45.69476" lon="2.95328">
        <ele>963.86</ele>
        <time>2015-05-30T07:53:54Z</time>
      </trkpt>
      <trkpt lat="45.69474" lon="2.95332">
        <ele>963.38</ele>
        <time>2015-05-30T07:53:55Z</time>
      </trkpt>
      <trkpt lat="45.69472" lon="2.95336">
        <ele>963.38</ele>
        <time>2015-05-30T07:53:56Z</time>
      </trkpt>
      <trkpt lat="45.69469" lon="2.9534">
        <ele>962.9</ele>
        <time>2015-05-30T07:53:57Z</time>
      </trkpt>
      <trkpt lat="45.69467" lon="2.95342">
        <ele>962.9</ele>
        <time>2015-05-30T07:53:58Z</time>
      </trkpt>
      <trkpt lat="45.69466" lon="2.95344">
        <ele>962.9</ele>
        <time>2015-05-30T07:53:59Z</time>
      </trkpt>
      <trkpt lat="45.69464" lon="2.95344">
        <ele>962.42</ele>
        <time>2015-05-30T07:54:00Z</time>
      </trkpt>
      <trkpt lat="45.69462" lon="2.95343">
        <ele>962.42</ele>
        <time>2015-05-30T07:54:01Z</time>
      </trkpt>
      <trkpt lat="45.69461" lon="2.95341">
        <ele>962.42</ele>
        <time>2015-05-30T07:54:02Z</time>
      </trkpt>
      <trkpt lat="45.69459" lon="2.95339">
        <ele>962.42</ele>
        <time>2015-05-30T07:54:03Z</time>
      </trkpt>
      <trkpt lat="45.69438" lon="2.95308">
        <ele>961.46</ele>
        <time>2015-05-30T07:54:15Z</time>
      </trkpt>
      <trkpt lat="45.69415" lon="2.95277">
        <ele>960.98</ele>
        <time>2015-05-30T07:54:24Z</time>
      </trkpt>
      <trkpt lat="45.69412" lon="2.95273">
        <ele>960.49</ele>
        <time>2015-05-30T07:54:25Z</time>
      </trkpt>
      <trkpt lat="45.69388" lon="2.95237">
        <ele>960.01</ele>
        <time>2015-05-30T07:54:33Z</time>
      </trkpt>
      <trkpt lat="45.69384" lon="2.95232">
        <ele>960.01</ele>
        <time>2015-05-30T07:54:34Z</time>
      </trkpt>
      <trkpt lat="45.69332" lon="2.95158">
        <ele>960.98</ele>
        <time>2015-05-30T07:54:51Z</time>
      </trkpt>
      <trkpt lat="45.69329" lon="2.95155">
        <ele>960.98</ele>
        <time>2015-05-30T07:54:52Z</time>
      </trkpt>
      <trkpt lat="45.69301" lon="2.95123">
        <ele>961.46</ele>
        <time>2015-05-30T07:55:01Z</time>
      </trkpt>
      <trkpt lat="45.69297" lon="2.95122">
        <ele>961.46</ele>
        <time>2015-05-30T07:55:02Z</time>
      </trkpt>
      <trkpt lat="45.6928" lon="2.95119">
        <ele>959.53</ele>
        <time>2015-05-30T07:55:05Z</time>
      </trkpt>
      <trkpt lat="45.69274" lon="2.95119">
        <ele>958.57</ele>
        <time>2015-05-30T07:55:06Z</time>
      </trkpt>
      <trkpt lat="45.69215" lon="2.95112">
        <ele>955.69</ele>
        <time>2015-05-30T07:55:15Z</time>
      </trkpt>
      <trkpt lat="45.69208" lon="2.95111">
        <ele>955.21</ele>
        <time>2015-05-30T07:55:16Z</time>
      </trkpt>
      <trkpt lat="45.69185" lon="2.95108">
        <ele>952.8</ele>
        <time>2015-05-30T07:55:19Z</time>
      </trkpt>
      <trkpt lat="45.69161" lon="2.95108">
        <ele>950.88</ele>
        <time>2015-05-30T07:55:22Z</time>
      </trkpt>
      <trkpt lat="45.6908" lon="2.95108">
        <ele>950.4</ele>
        <time>2015-05-30T07:55:34Z</time>
      </trkpt>
      <trkpt lat="45.69075" lon="2.95107">
        <ele>949.92</ele>
        <time>2015-05-30T07:55:35Z</time>
      </trkpt>
      <trkpt lat="45.69064" lon="2.95105">
        <ele>949.92</ele>
        <time>2015-05-30T07:55:37Z</time>
      </trkpt>
      <trkpt lat="45.69058" lon="2.95105">
        <ele>949.92</ele>
        <time>2015-05-30T07:55:38Z</time>
      </trkpt>
      <trkpt lat="45.69053" lon="2.95106">
        <ele>949.92</ele>
        <time>2015-05-30T07:55:39Z</time>
      </trkpt>
      <trkpt lat="45.69048" lon="2.95108">
        <ele>949.92</ele>
        <time>2015-05-30T07:55:40Z</time>
      </trkpt>
      <trkpt lat="45.69043" lon="2.95111">
        <ele>949.44</ele>
        <time>2015-05-30T07:55:41Z</time>
      </trkpt>
      <trkpt lat="45.69038" lon="2.95114">
        <ele>948.48</ele>
        <time>2015-05-30T07:55:42Z</time>
      </trkpt>
      <trkpt lat="45.69032" lon="2.95118">
        <ele>948</ele>
        <time>2015-05-30T07:55:43Z</time>
      </trkpt>
      <trkpt lat="45.69028" lon="2.95123">
        <ele>948</ele>
        <time>2015-05-30T07:55:44Z</time>
      </trkpt>
      <trkpt lat="45.69023" lon="2.95127">
        <ele>948</ele>
        <time>2015-05-30T07:55:45Z</time>
      </trkpt>
      <trkpt lat="45.69018" lon="2.95131">
        <ele>948</ele>
        <time>2015-05-30T07:55:46Z</time>
      </trkpt>
      <trkpt lat="45.69013" lon="2.95133">
        <ele>948</ele>
        <time>2015-05-30T07:55:47Z</time>
      </trkpt>
      <trkpt lat="45.69008" lon="2.95134">
        <ele>948</ele>
        <time>2015-05-30T07:55:48Z</time>
      </trkpt>
      <trkpt lat="45.69004" lon="2.95133">
        <ele>948.48</ele>
        <time>2015-05-30T07:55:49Z</time>
      </trkpt>
      <trkpt lat="45.68999" lon="2.95131">
        <ele>948.48</ele>
        <time>2015-05-30T07:55:50Z</time>
      </trkpt>
      <trkpt lat="45.68995" lon="2.95129">
        <ele>948.48</ele>
        <time>2015-05-30T07:55:51Z</time>
      </trkpt>
      <trkpt lat="45.68991" lon="2.95127">
        <ele>948.96</ele>
        <time>2015-05-30T07:55:52Z</time>
      </trkpt>
      <trkpt lat="45.68971" lon="2.95118">
        <ele>948.96</ele>
        <time>2015-05-30T07:55:57Z</time>
      </trkpt>
      <trkpt lat="45.68967" lon="2.95117">
        <ele>948.96</ele>
        <time>2015-05-30T07:55:58Z</time>
      </trkpt>
      <trkpt lat="45.68962" lon="2.95115">
        <ele>948.48</ele>
        <time>2015-05-30T07:55:59Z</time>
      </trkpt>
      <trkpt lat="45.68958" lon="2.95113">
        <ele>948.48</ele>
        <time>2015-05-30T07:56:00Z</time>
      </trkpt>
      <trkpt lat="45.68954" lon="2.95111">
        <ele>948.48</ele>
        <time>2015-05-30T07:56:01Z</time>
      </trkpt>
      <trkpt lat="45.6895" lon="2.9511">
        <ele>948.48</ele>
        <time>2015-05-30T07:56:02Z</time>
      </trkpt>
      <trkpt lat="45.68945" lon="2.95109">
        <ele>948.48</ele>
        <time>2015-05-30T07:56:03Z</time>
      </trkpt>
      <trkpt lat="45.68941" lon="2.95109">
        <ele>948.48</ele>
        <time>2015-05-30T07:56:04Z</time>
      </trkpt>
      <trkpt lat="45.68937" lon="2.95109">
        <ele>948.48</ele>
        <time>2015-05-30T07:56:05Z</time>
      </trkpt>
      <trkpt lat="45.68933" lon="2.95109">
        <ele>948.96</ele>
        <time>2015-05-30T07:56:06Z</time>
      </trkpt>
      <trkpt lat="45.68929" lon="2.9511">
        <ele>948.96</ele>
        <time>2015-05-30T07:56:07Z</time>
      </trkpt>
      <trkpt lat="45.68926" lon="2.95111">
        <ele>949.44</ele>
        <time>2015-05-30T07:56:08Z</time>
      </trkpt>
      <trkpt lat="45.68922" lon="2.95113">
        <ele>949.44</ele>
        <time>2015-05-30T07:56:09Z</time>
      </trkpt>
      <trkpt lat="45.68882" lon="2.95127">
        <ele>948.48</ele>
        <time>2015-05-30T07:56:18Z</time>
      </trkpt>
      <trkpt lat="45.68873" lon="2.95128">
        <ele>948</ele>
        <time>2015-05-30T07:56:20Z</time>
      </trkpt>
      <trkpt lat="45.68802" lon="2.95121">
        <ele>946.07</ele>
        <time>2015-05-30T07:56:34Z</time>
      </trkpt>
      <trkpt lat="45.68796" lon="2.95123">
        <ele>946.07</ele>
        <time>2015-05-30T07:56:35Z</time>
      </trkpt>
      <trkpt lat="45.68776" lon="2.95127">
        <ele>946.07</ele>
        <time>2015-05-30T07:56:39Z</time>
      </trkpt>
      <trkpt lat="45.68771" lon="2.95129">
        <ele>946.07</ele>
        <time>2015-05-30T07:56:40Z</time>
      </trkpt>
      <trkpt lat="45.68767" lon="2.95133">
        <ele>946.56</ele>
        <time>2015-05-30T07:56:41Z</time>
      </trkpt>
      <trkpt lat="45.68764" lon="2.95137">
        <ele>947.04</ele>
        <time>2015-05-30T07:56:42Z</time>
      </trkpt>
      <trkpt lat="45.68761" lon="2.9514">
        <ele>947.04</ele>
        <time>2015-05-30T07:56:43Z</time>
      </trkpt>
      <trkpt lat="45.68757" lon="2.95143">
        <ele>947.04</ele>
        <time>2015-05-30T07:56:44Z</time>
      </trkpt>
      <trkpt lat="45.68754" lon="2.95145">
        <ele>947.04</ele>
        <time>2015-05-30T07:56:45Z</time>
      </trkpt>
      <trkpt lat="45.68749" lon="2.95147">
        <ele>946.56</ele>
        <time>2015-05-30T07:56:46Z</time>
      </trkpt>
      <trkpt lat="45.68744" lon="2.95148">
        <ele>945.59</ele>
        <time>2015-05-30T07:56:47Z</time>
      </trkpt>
      <trkpt lat="45.68739" lon="2.95149">
        <ele>945.59</ele>
        <time>2015-05-30T07:56:48Z</time>
      </trkpt>
      <trkpt lat="45.68729" lon="2.9515">
        <ele>945.11</ele>
        <time>2015-05-30T07:56:50Z</time>
      </trkpt>
      <trkpt lat="45.6872" lon="2.95153">
        <ele>944.63</ele>
        <time>2015-05-30T07:56:52Z</time>
      </trkpt>
      <trkpt lat="45.68715" lon="2.95157">
        <ele>945.11</ele>
        <time>2015-05-30T07:56:53Z</time>
      </trkpt>
      <trkpt lat="45.68707" lon="2.95165">
        <ele>945.11</ele>
        <time>2015-05-30T07:56:55Z</time>
      </trkpt>
      <trkpt lat="45.68674" lon="2.95202">
        <ele>945.59</ele>
        <time>2015-05-30T07:57:03Z</time>
      </trkpt>
      <trkpt lat="45.68667" lon="2.95211">
        <ele>944.63</ele>
        <time>2015-05-30T07:57:05Z</time>
      </trkpt>
      <trkpt lat="45.68664" lon="2.95215">
        <ele>944.15</ele>
        <time>2015-05-30T07:57:06Z</time>
      </trkpt>
      <trkpt lat="45.68661" lon="2.95221">
        <ele>944.15</ele>
        <time>2015-05-30T07:57:07Z</time>
      </trkpt>
      <trkpt lat="45.68657" lon="2.95234">
        <ele>944.15</ele>
        <time>2015-05-30T07:57:09Z</time>
      </trkpt>
      <trkpt lat="45.68656" lon="2.95241">
        <ele>944.63</ele>
        <time>2015-05-30T07:57:10Z</time>
      </trkpt>
      <trkpt lat="45.68656" lon="2.95247">
        <ele>944.15</ele>
        <time>2015-05-30T07:57:11Z</time>
      </trkpt>
      <trkpt lat="45.68656" lon="2.95254">
        <ele>944.63</ele>
        <time>2015-05-30T07:57:12Z</time>
      </trkpt>
      <trkpt lat="45.68657" lon="2.95261">
        <ele>944.15</ele>
        <time>2015-05-30T07:57:13Z</time>
      </trkpt>
      <trkpt lat="45.68659" lon="2.95283">
        <ele>943.67</ele>
        <time>2015-05-30T07:57:16Z</time>
      </trkpt>
      <trkpt lat="45.68659" lon="2.95289">
        <ele>944.15</ele>
        <time>2015-05-30T07:57:17Z</time>
      </trkpt>
      <trkpt lat="45.68659" lon="2.95295">
        <ele>944.15</ele>
        <time>2015-05-30T07:57:18Z</time>
      </trkpt>
      <trkpt lat="45.68658" lon="2.95301">
        <ele>944.63</ele>
        <time>2015-05-30T07:57:19Z</time>
      </trkpt>
      <trkpt lat="45.68657" lon="2.95306">
        <ele>944.63</ele>
        <time>2015-05-30T07:57:20Z</time>
      </trkpt>
      <trkpt lat="45.68657" lon="2.95312">
        <ele>944.63</ele>
        <time>2015-05-30T07:57:21Z</time>
      </trkpt>
      <trkpt lat="45.68653" lon="2.95373">
        <ele>945.11</ele>
        <time>2015-05-30T07:57:32Z</time>
      </trkpt>
      <trkpt lat="45.68649" lon="2.95421">
        <ele>944.15</ele>
        <time>2015-05-30T07:57:39Z</time>
      </trkpt>
      <trkpt lat="45.68648" lon="2.95428">
        <ele>944.15</ele>
        <time>2015-05-30T07:57:40Z</time>
      </trkpt>
      <trkpt lat="45.68646" lon="2.95433">
        <ele>944.15</ele>
        <time>2015-05-30T07:57:41Z</time>
      </trkpt>
      <trkpt lat="45.68643" lon="2.95437">
        <ele>944.15</ele>
        <time>2015-05-30T07:57:42Z</time>
      </trkpt>
      <trkpt lat="45.6864" lon="2.95438">
        <ele>944.15</ele>
        <time>2015-05-30T07:57:43Z</time>
      </trkpt>
      <trkpt lat="45.68637" lon="2.9544">
        <ele>944.15</ele>
        <time>2015-05-30T07:57:44Z</time>
      </trkpt>
      <trkpt lat="45.68633" lon="2.95439">
        <ele>944.15</ele>
        <time>2015-05-30T07:57:45Z</time>
      </trkpt>
      <trkpt lat="45.6863" lon="2.95438">
        <ele>944.63</ele>
        <time>2015-05-30T07:57:46Z</time>
      </trkpt>
      <trkpt lat="45.68627" lon="2.95436">
        <ele>944.63</ele>
        <time>2015-05-30T07:57:47Z</time>
      </trkpt>
      <trkpt lat="45.68624" lon="2.95434">
        <ele>944.63</ele>
        <time>2015-05-30T07:57:48Z</time>
      </trkpt>
      <trkpt lat="45.68621" lon="2.95433">
        <ele>945.11</ele>
        <time>2015-05-30T07:57:49Z</time>
      </trkpt>
      <trkpt lat="45.68597" lon="2.95415">
        <ele>947.04</ele>
        <time>2015-05-30T07:57:59Z</time>
      </trkpt>
      <trkpt lat="45.68595" lon="2.95413">
        <ele>947.04</ele>
        <time>2015-05-30T07:58:00Z</time>
      </trkpt>
      <trkpt lat="45.68593" lon="2.9541">
        <ele>947.04</ele>
        <time>2015-05-30T07:58:01Z</time>
      </trkpt>
      <trkpt lat="45.68591" lon="2.95408">
        <ele>947.04</ele>
        <time>2015-05-30T07:58:02Z</time>
      </trkpt>
      <trkpt lat="45.68589" lon="2.95405">
        <ele>947.52</ele>
        <time>2015-05-30T07:58:03Z</time>
      </trkpt>
      <trkpt lat="45.68588" lon="2.95403">
        <ele>947.52</ele>
        <time>2015-05-30T07:58:04Z</time>
      </trkpt>
      <trkpt lat="45.68583" lon="2.95397">
        <ele>948</ele>
        <time>2015-05-30T07:58:07Z</time>
      </trkpt>
      <trkpt lat="45.68581" lon="2.95397">
        <ele>948</ele>
        <time>2015-05-30T07:58:08Z</time>
      </trkpt>
      <trkpt lat="45.68579" lon="2.95396">
        <ele>948</ele>
        <time>2015-05-30T07:58:09Z</time>
      </trkpt>
      <trkpt lat="45.68559" lon="2.95409">
        <ele>950.88</ele>
        <time>2015-05-30T07:58:21Z</time>
      </trkpt>
      <trkpt lat="45.68546" lon="2.95432">
        <ele>952.8</ele>
        <time>2015-05-30T07:58:34Z</time>
      </trkpt>
      <trkpt lat="45.68527" lon="2.95448">
        <ele>955.21</ele>
        <time>2015-05-30T07:58:48Z</time>
      </trkpt>
      <trkpt lat="45.68509" lon="2.95468">
        <ele>956.65</ele>
        <time>2015-05-30T07:59:02Z</time>
      </trkpt>
      <trkpt lat="45.68506" lon="2.95473">
        <ele>957.13</ele>
        <time>2015-05-30T07:59:05Z</time>
      </trkpt>
      <trkpt lat="45.68504" lon="2.95474">
        <ele>957.61</ele>
        <time>2015-05-30T07:59:06Z</time>
      </trkpt>
      <trkpt lat="45.68498" lon="2.95478">
        <ele>958.09</ele>
        <time>2015-05-30T07:59:11Z</time>
      </trkpt>
      <trkpt lat="45.68497" lon="2.95478">
        <ele>957.61</ele>
        <time>2015-05-30T07:59:12Z</time>
      </trkpt>
      <trkpt lat="45.6849" lon="2.95486">
        <ele>958.09</ele>
        <time>2015-05-30T07:59:18Z</time>
      </trkpt>
      <trkpt lat="45.68489" lon="2.95488">
        <ele>958.57</ele>
        <time>2015-05-30T07:59:19Z</time>
      </trkpt>
      <trkpt lat="45.68477" lon="2.95505">
        <ele>959.05</ele>
        <time>2015-05-30T07:59:29Z</time>
      </trkpt>
      <trkpt lat="45.68455" lon="2.95528">
        <ele>959.05</ele>
        <time>2015-05-30T07:59:40Z</time>
      </trkpt>
      <trkpt lat="45.68431" lon="2.95553">
        <ele>959.05</ele>
        <time>2015-05-30T07:59:50Z</time>
      </trkpt>
      <trkpt lat="45.68409" lon="2.95593">
        <ele>958.57</ele>
        <time>2015-05-30T07:59:59Z</time>
      </trkpt>
      <trkpt lat="45.68391" lon="2.95632">
        <ele>957.61</ele>
        <time>2015-05-30T08:00:07Z</time>
      </trkpt>
      <trkpt lat="45.68389" lon="2.95637">
        <ele>957.13</ele>
        <time>2015-05-30T08:00:08Z</time>
      </trkpt>
      <trkpt lat="45.68387" lon="2.95643">
        <ele>957.13</ele>
        <time>2015-05-30T08:00:09Z</time>
      </trkpt>
      <trkpt lat="45.68378" lon="2.95668">
        <ele>956.65</ele>
        <time>2015-05-30T08:00:13Z</time>
      </trkpt>
      <trkpt lat="45.68376" lon="2.95674">
        <ele>956.65</ele>
        <time>2015-05-30T08:00:14Z</time>
      </trkpt>
      <trkpt lat="45.68374" lon="2.9568">
        <ele>956.65</ele>
        <time>2015-05-30T08:00:15Z</time>
      </trkpt>
      <trkpt lat="45.68372" lon="2.95686">
        <ele>956.65</ele>
        <time>2015-05-30T08:00:16Z</time>
      </trkpt>
      <trkpt lat="45.6837" lon="2.95692">
        <ele>956.17</ele>
        <time>2015-05-30T08:00:17Z</time>
      </trkpt>
      <trkpt lat="45.68367" lon="2.95705">
        <ele>956.17</ele>
        <time>2015-05-30T08:00:19Z</time>
      </trkpt>
      <trkpt lat="45.68365" lon="2.9571">
        <ele>956.17</ele>
        <time>2015-05-30T08:00:20Z</time>
      </trkpt>
      <trkpt lat="45.68357" lon="2.95734">
        <ele>955.69</ele>
        <time>2015-05-30T08:00:25Z</time>
      </trkpt>
      <trkpt lat="45.68356" lon="2.95738">
        <ele>955.69</ele>
        <time>2015-05-30T08:00:26Z</time>
      </trkpt>
      <trkpt lat="45.68353" lon="2.95743">
        <ele>955.69</ele>
        <time>2015-05-30T08:00:27Z</time>
      </trkpt>
      <trkpt lat="45.68346" lon="2.95761">
        <ele>955.21</ele>
        <time>2015-05-30T08:00:30Z</time>
      </trkpt>
      <trkpt lat="45.68344" lon="2.95768">
        <ele>954.73</ele>
        <time>2015-05-30T08:00:31Z</time>
      </trkpt>
      <trkpt lat="45.68342" lon="2.95775">
        <ele>954.73</ele>
        <time>2015-05-30T08:00:32Z</time>
      </trkpt>
      <trkpt lat="45.68337" lon="2.95794">
        <ele>953.77</ele>
        <time>2015-05-30T08:00:35Z</time>
      </trkpt>
      <trkpt lat="45.68333" lon="2.95802">
        <ele>953.77</ele>
        <time>2015-05-30T08:00:36Z</time>
      </trkpt>
      <trkpt lat="45.68329" lon="2.95817">
        <ele>953.28</ele>
        <time>2015-05-30T08:00:38Z</time>
      </trkpt>
      <trkpt lat="45.68329" lon="2.95826">
        <ele>953.28</ele>
        <time>2015-05-30T08:00:39Z</time>
      </trkpt>
      <trkpt lat="45.68328" lon="2.95834">
        <ele>953.28</ele>
        <time>2015-05-30T08:00:40Z</time>
      </trkpt>
      <trkpt lat="45.6833" lon="2.95865">
        <ele>953.77</ele>
        <time>2015-05-30T08:00:44Z</time>
      </trkpt>
      <trkpt lat="45.68331" lon="2.95872">
        <ele>953.77</ele>
        <time>2015-05-30T08:00:45Z</time>
      </trkpt>
      <trkpt lat="45.68337" lon="2.95966">
        <ele>954.73</ele>
        <time>2015-05-30T08:00:59Z</time>
      </trkpt>
      <trkpt lat="45.68338" lon="2.95985">
        <ele>955.21</ele>
        <time>2015-05-30T08:01:02Z</time>
      </trkpt>
      <trkpt lat="45.68338" lon="2.95991">
        <ele>955.21</ele>
        <time>2015-05-30T08:01:03Z</time>
      </trkpt>
      <trkpt lat="45.68339" lon="2.96003">
        <ele>955.21</ele>
        <time>2015-05-30T08:01:05Z</time>
      </trkpt>
      <trkpt lat="45.68341" lon="2.96042">
        <ele>954.73</ele>
        <time>2015-05-30T08:01:11Z</time>
      </trkpt>
      <trkpt lat="45.68341" lon="2.96048">
        <ele>954.73</ele>
        <time>2015-05-30T08:01:12Z</time>
      </trkpt>
      <trkpt lat="45.68341" lon="2.96055">
        <ele>954.73</ele>
        <time>2015-05-30T08:01:13Z</time>
      </trkpt>
      <trkpt lat="45.68342" lon="2.96061">
        <ele>954.73</ele>
        <time>2015-05-30T08:01:14Z</time>
      </trkpt>
      <trkpt lat="45.68342" lon="2.96067">
        <ele>954.73</ele>
        <time>2015-05-30T08:01:15Z</time>
      </trkpt>
      <trkpt lat="45.68343" lon="2.96074">
        <ele>954.73</ele>
        <time>2015-05-30T08:01:16Z</time>
      </trkpt>
      <trkpt lat="45.68343" lon="2.9608">
        <ele>954.73</ele>
        <time>2015-05-30T08:01:17Z</time>
      </trkpt>
      <trkpt lat="45.68342" lon="2.96087">
        <ele>954.73</ele>
        <time>2015-05-30T08:01:18Z</time>
      </trkpt>
      <trkpt lat="45.68342" lon="2.96094">
        <ele>954.73</ele>
        <time>2015-05-30T08:01:19Z</time>
      </trkpt>
      <trkpt lat="45.68347" lon="2.96207">
        <ele>953.77</ele>
        <time>2015-05-30T08:01:36Z</time>
      </trkpt>
      <trkpt lat="45.68346" lon="2.96304">
        <ele>954.25</ele>
        <time>2015-05-30T08:01:51Z</time>
      </trkpt>
      <trkpt lat="45.68346" lon="2.96311">
        <ele>954.25</ele>
        <time>2015-05-30T08:01:52Z</time>
      </trkpt>
      <trkpt lat="45.68342" lon="2.96347">
        <ele>954.73</ele>
        <time>2015-05-30T08:01:58Z</time>
      </trkpt>
      <trkpt lat="45.68315" lon="2.9642">
        <ele>952.8</ele>
        <time>2015-05-30T08:02:09Z</time>
      </trkpt>
      <trkpt lat="45.68313" lon="2.96425">
        <ele>952.8</ele>
        <time>2015-05-30T08:02:10Z</time>
      </trkpt>
      <trkpt lat="45.68294" lon="2.96473">
        <ele>953.28</ele>
        <time>2015-05-30T08:02:21Z</time>
      </trkpt>
      <trkpt lat="45.68273" lon="2.96515">
        <ele>954.25</ele>
        <time>2015-05-30T08:02:32Z</time>
      </trkpt>
      <trkpt lat="45.68265" lon="2.96529">
        <ele>954.73</ele>
        <time>2015-05-30T08:02:36Z</time>
      </trkpt>
      <trkpt lat="45.68264" lon="2.96532">
        <ele>954.73</ele>
        <time>2015-05-30T08:02:37Z</time>
      </trkpt>
      <trkpt lat="45.68264" lon="2.96535">
        <ele>954.73</ele>
        <time>2015-05-30T08:02:38Z</time>
      </trkpt>
      <trkpt lat="45.68263" lon="2.96537">
        <ele>955.21</ele>
        <time>2015-05-30T08:02:39Z</time>
      </trkpt>
      <trkpt lat="45.68262" lon="2.9654">
        <ele>955.21</ele>
        <time>2015-05-30T08:02:40Z</time>
      </trkpt>
      <trkpt lat="45.68261" lon="2.96542">
        <ele>955.21</ele>
        <time>2015-05-30T08:02:41Z</time>
      </trkpt>
      <trkpt lat="45.68259" lon="2.96545">
        <ele>955.21</ele>
        <time>2015-05-30T08:02:42Z</time>
      </trkpt>
      <trkpt lat="45.68259" lon="2.96547">
        <ele>955.21</ele>
        <time>2015-05-30T08:02:43Z</time>
      </trkpt>
      <trkpt lat="45.68257" lon="2.9655">
        <ele>955.69</ele>
        <time>2015-05-30T08:02:44Z</time>
      </trkpt>
      <trkpt lat="45.68256" lon="2.96554">
        <ele>955.69</ele>
        <time>2015-05-30T08:02:45Z</time>
      </trkpt>
      <trkpt lat="45.68252" lon="2.9656">
        <ele>955.69</ele>
        <time>2015-05-30T08:02:47Z</time>
      </trkpt>
      <trkpt lat="45.68251" lon="2.96561">
        <ele>956.17</ele>
        <time>2015-05-30T08:02:48Z</time>
      </trkpt>
      <trkpt lat="45.68249" lon="2.96561">
        <ele>956.65</ele>
        <time>2015-05-30T08:02:49Z</time>
      </trkpt>
      <trkpt lat="45.68248" lon="2.96559">
        <ele>956.65</ele>
        <time>2015-05-30T08:02:50Z</time>
      </trkpt>
      <trkpt lat="45.68247" lon="2.96558">
        <ele>956.65</ele>
        <time>2015-05-30T08:02:51Z</time>
      </trkpt>
      <trkpt lat="45.68246" lon="2.96557">
        <ele>956.65</ele>
        <time>2015-05-30T08:02:52Z</time>
      </trkpt>
      <trkpt lat="45.6824" lon="2.96553">
        <ele>957.61</ele>
        <time>2015-05-30T08:03:02Z</time>
      </trkpt>
      <trkpt lat="45.68238" lon="2.96553">
        <ele>957.61</ele>
        <time>2015-05-30T08:03:03Z</time>
      </trkpt>
      <trkpt lat="45.68236" lon="2.96554">
        <ele>958.57</ele>
        <time>2015-05-30T08:03:04Z</time>
      </trkpt>
      <trkpt lat="45.68235" lon="2.96555">
        <ele>958.09</ele>
        <time>2015-05-30T08:03:05Z</time>
      </trkpt>
      <trkpt lat="45.68233" lon="2.96558">
        <ele>958.09</ele>
        <time>2015-05-30T08:03:06Z</time>
      </trkpt>
      <trkpt lat="45.68231" lon="2.9656">
        <ele>958.09</ele>
        <time>2015-05-30T08:03:07Z</time>
      </trkpt>
      <trkpt lat="45.6823" lon="2.96562">
        <ele>958.09</ele>
        <time>2015-05-30T08:03:08Z</time>
      </trkpt>
      <trkpt lat="45.68227" lon="2.96568">
        <ele>958.09</ele>
        <time>2015-05-30T08:03:10Z</time>
      </trkpt>
      <trkpt lat="45.68215" lon="2.9662">
        <ele>958.09</ele>
        <time>2015-05-30T08:03:22Z</time>
      </trkpt>
      <trkpt lat="45.6821" lon="2.96637">
        <ele>958.57</ele>
        <time>2015-05-30T08:03:26Z</time>
      </trkpt>
      <trkpt lat="45.68207" lon="2.96638">
        <ele>958.09</ele>
        <time>2015-05-30T08:03:27Z</time>
      </trkpt>
      <trkpt lat="45.68203" lon="2.96636">
        <ele>958.09</ele>
        <time>2015-05-30T08:03:28Z</time>
      </trkpt>
      <trkpt lat="45.68201" lon="2.96634">
        <ele>958.09</ele>
        <time>2015-05-30T08:03:29Z</time>
      </trkpt>
      <trkpt lat="45.68199" lon="2.96633">
        <ele>958.57</ele>
        <time>2015-05-30T08:03:30Z</time>
      </trkpt>
      <trkpt lat="45.68197" lon="2.96631">
        <ele>958.57</ele>
        <time>2015-05-30T08:03:31Z</time>
      </trkpt>
      <trkpt lat="45.68195" lon="2.96631">
        <ele>959.05</ele>
        <time>2015-05-30T08:03:32Z</time>
      </trkpt>
      <trkpt lat="45.68194" lon="2.96631">
        <ele>959.53</ele>
        <time>2015-05-30T08:03:33Z</time>
      </trkpt>
      <trkpt lat="45.68192" lon="2.96631">
        <ele>959.53</ele>
        <time>2015-05-30T08:03:34Z</time>
      </trkpt>
      <trkpt lat="45.6819" lon="2.96631">
        <ele>960.01</ele>
        <time>2015-05-30T08:03:35Z</time>
      </trkpt>
      <trkpt lat="45.68188" lon="2.96631">
        <ele>960.01</ele>
        <time>2015-05-30T08:03:36Z</time>
      </trkpt>
      <trkpt lat="45.68186" lon="2.96631">
        <ele>960.49</ele>
        <time>2015-05-30T08:03:37Z</time>
      </trkpt>
      <trkpt lat="45.68184" lon="2.9663">
        <ele>960.49</ele>
        <time>2015-05-30T08:03:38Z</time>
      </trkpt>
      <trkpt lat="45.68182" lon="2.9663">
        <ele>960.49</ele>
        <time>2015-05-30T08:03:39Z</time>
      </trkpt>
      <trkpt lat="45.6818" lon="2.96631">
        <ele>960.49</ele>
        <time>2015-05-30T08:03:40Z</time>
      </trkpt>
      <trkpt lat="45.68178" lon="2.96632">
        <ele>960.98</ele>
        <time>2015-05-30T08:03:41Z</time>
      </trkpt>
      <trkpt lat="45.68176" lon="2.96633">
        <ele>960.98</ele>
        <time>2015-05-30T08:03:42Z</time>
      </trkpt>
      <trkpt lat="45.68175" lon="2.96635">
        <ele>960.98</ele>
        <time>2015-05-30T08:03:43Z</time>
      </trkpt>
      <trkpt lat="45.68144" lon="2.96654">
        <ele>961.94</ele>
        <time>2015-05-30T08:03:58Z</time>
      </trkpt>
      <trkpt lat="45.68115" lon="2.96665">
        <ele>960.98</ele>
        <time>2015-05-30T08:04:08Z</time>
      </trkpt>
      <trkpt lat="45.68108" lon="2.96668">
        <ele>960.49</ele>
        <time>2015-05-30T08:04:10Z</time>
      </trkpt>
      <trkpt lat="45.68076" lon="2.9669">
        <ele>959.05</ele>
        <time>2015-05-30T08:04:20Z</time>
      </trkpt>
      <trkpt lat="45.68036" lon="2.96713">
        <ele>957.61</ele>
        <time>2015-05-30T08:04:31Z</time>
      </trkpt>
      <trkpt lat="45.68024" lon="2.96725">
        <ele>956.65</ele>
        <time>2015-05-30T08:04:34Z</time>
      </trkpt>
      <trkpt lat="45.68" lon="2.96765">
        <ele>952.8</ele>
        <time>2015-05-30T08:04:43Z</time>
      </trkpt>
      <trkpt lat="45.6799" lon="2.96784">
        <ele>949.92</ele>
        <time>2015-05-30T08:04:49Z</time>
      </trkpt>
      <trkpt lat="45.67987" lon="2.96786">
        <ele>949.44</ele>
        <time>2015-05-30T08:04:50Z</time>
      </trkpt>
      <trkpt lat="45.67984" lon="2.96787">
        <ele>949.44</ele>
        <time>2015-05-30T08:04:51Z</time>
      </trkpt>
      <trkpt lat="45.6798" lon="2.96788">
        <ele>949.92</ele>
        <time>2015-05-30T08:04:52Z</time>
      </trkpt>
      <trkpt lat="45.67976" lon="2.9679">
        <ele>949.92</ele>
        <time>2015-05-30T08:04:53Z</time>
      </trkpt>
      <trkpt lat="45.67972" lon="2.96791">
        <ele>950.4</ele>
        <time>2015-05-30T08:04:54Z</time>
      </trkpt>
      <trkpt lat="45.67967" lon="2.96793">
        <ele>950.4</ele>
        <time>2015-05-30T08:04:55Z</time>
      </trkpt>
      <trkpt lat="45.67963" lon="2.96795">
        <ele>950.4</ele>
        <time>2015-05-30T08:04:56Z</time>
      </trkpt>
      <trkpt lat="45.67958" lon="2.96797">
        <ele>950.4</ele>
        <time>2015-05-30T08:04:57Z</time>
      </trkpt>
      <trkpt lat="45.67939" lon="2.96809">
        <ele>950.88</ele>
        <time>2015-05-30T08:05:02Z</time>
      </trkpt>
      <trkpt lat="45.67936" lon="2.96811">
        <ele>950.88</ele>
        <time>2015-05-30T08:05:03Z</time>
      </trkpt>
      <trkpt lat="45.67888" lon="2.96836">
        <ele>951.36</ele>
        <time>2015-05-30T08:05:16Z</time>
      </trkpt>
      <trkpt lat="45.67849" lon="2.96848">
        <ele>951.84</ele>
        <time>2015-05-30T08:05:26Z</time>
      </trkpt>
      <trkpt lat="45.67822" lon="2.9685">
        <ele>951.84</ele>
        <time>2015-05-30T08:05:32Z</time>
      </trkpt>
      <trkpt lat="45.67818" lon="2.96849">
        <ele>951.36</ele>
        <time>2015-05-30T08:05:33Z</time>
      </trkpt>
      <trkpt lat="45.67814" lon="2.96848">
        <ele>951.36</ele>
        <time>2015-05-30T08:05:34Z</time>
      </trkpt>
      <trkpt lat="45.67771" lon="2.96849">
        <ele>951.36</ele>
        <time>2015-05-30T08:05:45Z</time>
      </trkpt>
      <trkpt lat="45.67723" lon="2.96839">
        <ele>951.84</ele>
        <time>2015-05-30T08:05:58Z</time>
      </trkpt>
      <trkpt lat="45.67711" lon="2.96835">
        <ele>951.84</ele>
        <time>2015-05-30T08:06:01Z</time>
      </trkpt>
      <trkpt lat="45.67657" lon="2.96822">
        <ele>951.84</ele>
        <time>2015-05-30T08:06:15Z</time>
      </trkpt>
      <trkpt lat="45.67642" lon="2.96817">
        <ele>952.32</ele>
        <time>2015-05-30T08:06:19Z</time>
      </trkpt>
      <trkpt lat="45.67637" lon="2.96817">
        <ele>951.84</ele>
        <time>2015-05-30T08:06:20Z</time>
      </trkpt>
      <trkpt lat="45.67633" lon="2.96816">
        <ele>951.84</ele>
        <time>2015-05-30T08:06:21Z</time>
      </trkpt>
      <trkpt lat="45.67628" lon="2.96815">
        <ele>951.36</ele>
        <time>2015-05-30T08:06:22Z</time>
      </trkpt>
      <trkpt lat="45.67623" lon="2.96815">
        <ele>951.36</ele>
        <time>2015-05-30T08:06:23Z</time>
      </trkpt>
      <trkpt lat="45.67618" lon="2.96814">
        <ele>951.36</ele>
        <time>2015-05-30T08:06:24Z</time>
      </trkpt>
      <trkpt lat="45.67553" lon="2.96805">
        <ele>948.48</ele>
        <time>2015-05-30T08:06:35Z</time>
      </trkpt>
      <trkpt lat="45.67524" lon="2.968">
        <ele>946.56</ele>
        <time>2015-05-30T08:06:39Z</time>
      </trkpt>
      <trkpt lat="45.67518" lon="2.96797">
        <ele>946.07</ele>
        <time>2015-05-30T08:06:40Z</time>
      </trkpt>
      <trkpt lat="45.67466" lon="2.96772">
        <ele>942.71</ele>
        <time>2015-05-30T08:06:47Z</time>
      </trkpt>
      <trkpt lat="45.67459" lon="2.96768">
        <ele>942.71</ele>
        <time>2015-05-30T08:06:48Z</time>
      </trkpt>
      <trkpt lat="45.67453" lon="2.96766">
        <ele>942.71</ele>
        <time>2015-05-30T08:06:49Z</time>
      </trkpt>
      <trkpt lat="45.6744" lon="2.96764">
        <ele>942.23</ele>
        <time>2015-05-30T08:06:53Z</time>
      </trkpt>
      <trkpt lat="45.67439" lon="2.96766">
        <ele>942.23</ele>
        <time>2015-05-30T08:06:54Z</time>
      </trkpt>
      <trkpt lat="45.67439" lon="2.96769">
        <ele>942.23</ele>
        <time>2015-05-30T08:06:55Z</time>
      </trkpt>
      <trkpt lat="45.6744" lon="2.96774">
        <ele>941.75</ele>
        <time>2015-05-30T08:06:56Z</time>
      </trkpt>
      <trkpt lat="45.67442" lon="2.96778">
        <ele>941.27</ele>
        <time>2015-05-30T08:06:57Z</time>
      </trkpt>
      <trkpt lat="45.67445" lon="2.96782">
        <ele>940.79</ele>
        <time>2015-05-30T08:06:58Z</time>
      </trkpt>
      <trkpt lat="45.67447" lon="2.96787">
        <ele>939.83</ele>
        <time>2015-05-30T08:06:59Z</time>
      </trkpt>
      <trkpt lat="45.67453" lon="2.96798">
        <ele>940.79</ele>
        <time>2015-05-30T08:07:01Z</time>
      </trkpt>
      <trkpt lat="45.67471" lon="2.96838">
        <ele>939.35</ele>
        <time>2015-05-30T08:07:07Z</time>
      </trkpt>
      <trkpt lat="45.67474" lon="2.96845">
        <ele>938.86</ele>
        <time>2015-05-30T08:07:08Z</time>
      </trkpt>
      <trkpt lat="45.67484" lon="2.96867">
        <ele>938.38</ele>
        <time>2015-05-30T08:07:11Z</time>
      </trkpt>
      <trkpt lat="45.67502" lon="2.96908">
        <ele>936.46</ele>
        <time>2015-05-30T08:07:16Z</time>
      </trkpt>
      <trkpt lat="45.67506" lon="2.96917">
        <ele>935.98</ele>
        <time>2015-05-30T08:07:17Z</time>
      </trkpt>
      <trkpt lat="45.67527" lon="2.96966">
        <ele>932.14</ele>
        <time>2015-05-30T08:07:22Z</time>
      </trkpt>
      <trkpt lat="45.6755" lon="2.97019">
        <ele>929.25</ele>
        <time>2015-05-30T08:07:28Z</time>
      </trkpt>
      <trkpt lat="45.6757" lon="2.97057">
        <ele>927.33</ele>
        <time>2015-05-30T08:07:37Z</time>
      </trkpt>
      <trkpt lat="45.6757" lon="2.97056">
        <ele>927.33</ele>
        <time>2015-05-30T08:07:49Z</time>
      </trkpt>
      <trkpt lat="45.67578" lon="2.97074">
        <ele>926.85</ele>
        <time>2015-05-30T08:08:03Z</time>
      </trkpt>
      <trkpt lat="45.6758" lon="2.97079">
        <ele>926.37</ele>
        <time>2015-05-30T08:08:04Z</time>
      </trkpt>
      <trkpt lat="45.67594" lon="2.97098">
        <ele>923.48</ele>
        <time>2015-05-30T08:08:08Z</time>
      </trkpt>
      <trkpt lat="45.67596" lon="2.97102">
        <ele>923</ele>
        <time>2015-05-30T08:08:09Z</time>
      </trkpt>
      <trkpt lat="45.67598" lon="2.97107">
        <ele>923</ele>
        <time>2015-05-30T08:08:10Z</time>
      </trkpt>
      <trkpt lat="45.676" lon="2.97111">
        <ele>922.52</ele>
        <time>2015-05-30T08:08:11Z</time>
      </trkpt>
      <trkpt lat="45.67604" lon="2.97115">
        <ele>922.04</ele>
        <time>2015-05-30T08:08:12Z</time>
      </trkpt>
      <trkpt lat="45.67608" lon="2.97119">
        <ele>921.56</ele>
        <time>2015-05-30T08:08:13Z</time>
      </trkpt>
      <trkpt lat="45.67613" lon="2.97123">
        <ele>921.08</ele>
        <time>2015-05-30T08:08:14Z</time>
      </trkpt>
      <trkpt lat="45.67618" lon="2.97128">
        <ele>919.16</ele>
        <time>2015-05-30T08:08:15Z</time>
      </trkpt>
      <trkpt lat="45.67646" lon="2.97147">
        <ele>916.27</ele>
        <time>2015-05-30T08:08:19Z</time>
      </trkpt>
      <trkpt lat="45.677" lon="2.97183">
        <ele>913.39</ele>
        <time>2015-05-30T08:08:26Z</time>
      </trkpt>
      <trkpt lat="45.67776" lon="2.97276">
        <ele>910.51</ele>
        <time>2015-05-30T08:08:39Z</time>
      </trkpt>
      <trkpt lat="45.6778" lon="2.97283">
        <ele>910.51</ele>
        <time>2015-05-30T08:08:40Z</time>
      </trkpt>
      <trkpt lat="45.67787" lon="2.97298">
        <ele>910.51</ele>
        <time>2015-05-30T08:08:42Z</time>
      </trkpt>
      <trkpt lat="45.67789" lon="2.97306">
        <ele>910.51</ele>
        <time>2015-05-30T08:08:43Z</time>
      </trkpt>
      <trkpt lat="45.67837" lon="2.97411">
        <ele>910.03</ele>
        <time>2015-05-30T08:08:58Z</time>
      </trkpt>
      <trkpt lat="45.67854" lon="2.97439">
        <ele>909.54</ele>
        <time>2015-05-30T08:09:02Z</time>
      </trkpt>
      <trkpt lat="45.6789" lon="2.97504">
        <ele>908.58</ele>
        <time>2015-05-30T08:09:11Z</time>
      </trkpt>
      <trkpt lat="45.67894" lon="2.97511">
        <ele>908.58</ele>
        <time>2015-05-30T08:09:12Z</time>
      </trkpt>
      <trkpt lat="45.67916" lon="2.97551">
        <ele>908.58</ele>
        <time>2015-05-30T08:09:18Z</time>
      </trkpt>
      <trkpt lat="45.67921" lon="2.97556">
        <ele>908.58</ele>
        <time>2015-05-30T08:09:19Z</time>
      </trkpt>
      <trkpt lat="45.67998" lon="2.97622">
        <ele>907.14</ele>
        <time>2015-05-30T08:09:35Z</time>
      </trkpt>
      <trkpt lat="45.68041" lon="2.9766">
        <ele>905.7</ele>
        <time>2015-05-30T08:09:43Z</time>
      </trkpt>
      <trkpt lat="45.68046" lon="2.97667">
        <ele>905.22</ele>
        <time>2015-05-30T08:09:44Z</time>
      </trkpt>
      <trkpt lat="45.6808" lon="2.97742">
        <ele>901.85</ele>
        <time>2015-05-30T08:09:53Z</time>
      </trkpt>
      <trkpt lat="45.68103" lon="2.97806">
        <ele>898.97</ele>
        <time>2015-05-30T08:10:01Z</time>
      </trkpt>
      <trkpt lat="45.6813" lon="2.97883">
        <ele>898.97</ele>
        <time>2015-05-30T08:10:10Z</time>
      </trkpt>
      <trkpt lat="45.68136" lon="2.97894">
        <ele>898.97</ele>
        <time>2015-05-30T08:10:12Z</time>
      </trkpt>
      <trkpt lat="45.6814" lon="2.97899">
        <ele>899.45</ele>
        <time>2015-05-30T08:10:13Z</time>
      </trkpt>
      <trkpt lat="45.68144" lon="2.97902">
        <ele>899.93</ele>
        <time>2015-05-30T08:10:14Z</time>
      </trkpt>
      <trkpt lat="45.68148" lon="2.97905">
        <ele>899.45</ele>
        <time>2015-05-30T08:10:15Z</time>
      </trkpt>
      <trkpt lat="45.68151" lon="2.97908">
        <ele>899.93</ele>
        <time>2015-05-30T08:10:16Z</time>
      </trkpt>
      <trkpt lat="45.68154" lon="2.97911">
        <ele>899.93</ele>
        <time>2015-05-30T08:10:17Z</time>
      </trkpt>
      <trkpt lat="45.68158" lon="2.97914">
        <ele>899.93</ele>
        <time>2015-05-30T08:10:18Z</time>
      </trkpt>
      <trkpt lat="45.68161" lon="2.97916">
        <ele>899.93</ele>
        <time>2015-05-30T08:10:19Z</time>
      </trkpt>
      <trkpt lat="45.68164" lon="2.97918">
        <ele>899.93</ele>
        <time>2015-05-30T08:10:20Z</time>
      </trkpt>
      <trkpt lat="45.68167" lon="2.9792">
        <ele>900.41</ele>
        <time>2015-05-30T08:10:21Z</time>
      </trkpt>
      <trkpt lat="45.6817" lon="2.97922">
        <ele>900.41</ele>
        <time>2015-05-30T08:10:22Z</time>
      </trkpt>
      <trkpt lat="45.68174" lon="2.97924">
        <ele>900.41</ele>
        <time>2015-05-30T08:10:23Z</time>
      </trkpt>
      <trkpt lat="45.68178" lon="2.97924">
        <ele>900.41</ele>
        <time>2015-05-30T08:10:24Z</time>
      </trkpt>
      <trkpt lat="45.6821" lon="2.97935">
        <ele>900.89</ele>
        <time>2015-05-30T08:10:34Z</time>
      </trkpt>
      <trkpt lat="45.6824" lon="2.97944">
        <ele>902.33</ele>
        <time>2015-05-30T08:10:45Z</time>
      </trkpt>
      <trkpt lat="45.68255" lon="2.97948">
        <ele>903.3</ele>
        <time>2015-05-30T08:10:51Z</time>
      </trkpt>
      <trkpt lat="45.68257" lon="2.97949">
        <ele>903.3</ele>
        <time>2015-05-30T08:10:52Z</time>
      </trkpt>
      <trkpt lat="45.68259" lon="2.9795">
        <ele>903.3</ele>
        <time>2015-05-30T08:10:53Z</time>
      </trkpt>
      <trkpt lat="45.68262" lon="2.9795">
        <ele>903.78</ele>
        <time>2015-05-30T08:10:54Z</time>
      </trkpt>
      <trkpt lat="45.68264" lon="2.97951">
        <ele>903.78</ele>
        <time>2015-05-30T08:10:55Z</time>
      </trkpt>
      <trkpt lat="45.68266" lon="2.97951">
        <ele>903.78</ele>
        <time>2015-05-30T08:10:56Z</time>
      </trkpt>
      <trkpt lat="45.68268" lon="2.97951">
        <ele>903.78</ele>
        <time>2015-05-30T08:10:57Z</time>
      </trkpt>
      <trkpt lat="45.68271" lon="2.97951">
        <ele>903.78</ele>
        <time>2015-05-30T08:10:58Z</time>
      </trkpt>
      <trkpt lat="45.68273" lon="2.97951">
        <ele>903.78</ele>
        <time>2015-05-30T08:10:59Z</time>
      </trkpt>
      <trkpt lat="45.68275" lon="2.97952">
        <ele>904.26</ele>
        <time>2015-05-30T08:11:00Z</time>
      </trkpt>
      <trkpt lat="45.68291" lon="2.97949">
        <ele>905.7</ele>
        <time>2015-05-30T08:11:08Z</time>
      </trkpt>
      <trkpt lat="45.68292" lon="2.97949">
        <ele>905.7</ele>
        <time>2015-05-30T08:11:09Z</time>
      </trkpt>
      <trkpt lat="45.68309" lon="2.97949">
        <ele>906.66</ele>
        <time>2015-05-30T08:11:17Z</time>
      </trkpt>
      <trkpt lat="45.68311" lon="2.97949">
        <ele>906.66</ele>
        <time>2015-05-30T08:11:19Z</time>
      </trkpt>
      <trkpt lat="45.68316" lon="2.97949">
        <ele>907.14</ele>
        <time>2015-05-30T08:11:22Z</time>
      </trkpt>
      <trkpt lat="45.68326" lon="2.9795">
        <ele>907.62</ele>
        <time>2015-05-30T08:11:27Z</time>
      </trkpt>
      <trkpt lat="45.68328" lon="2.9795">
        <ele>907.14</ele>
        <time>2015-05-30T08:11:28Z</time>
      </trkpt>
      <trkpt lat="45.68331" lon="2.9795">
        <ele>907.62</ele>
        <time>2015-05-30T08:11:29Z</time>
      </trkpt>
      <trkpt lat="45.68333" lon="2.9795">
        <ele>907.14</ele>
        <time>2015-05-30T08:11:30Z</time>
      </trkpt>
      <trkpt lat="45.68335" lon="2.97951">
        <ele>907.14</ele>
        <time>2015-05-30T08:11:31Z</time>
      </trkpt>
      <trkpt lat="45.68338" lon="2.97951">
        <ele>907.14</ele>
        <time>2015-05-30T08:11:32Z</time>
      </trkpt>
      <trkpt lat="45.68352" lon="2.97958">
        <ele>907.62</ele>
        <time>2015-05-30T08:11:39Z</time>
      </trkpt>
      <trkpt lat="45.68354" lon="2.9796">
        <ele>907.62</ele>
        <time>2015-05-30T08:11:40Z</time>
      </trkpt>
      <trkpt lat="45.68357" lon="2.97968">
        <ele>907.62</ele>
        <time>2015-05-30T08:11:44Z</time>
      </trkpt>
      <trkpt lat="45.68359" lon="2.97969">
        <ele>907.62</ele>
        <time>2015-05-30T08:11:45Z</time>
      </trkpt>
      <trkpt lat="45.68361" lon="2.9797">
        <ele>907.62</ele>
        <time>2015-05-30T08:11:46Z</time>
      </trkpt>
      <trkpt lat="45.68362" lon="2.97971">
        <ele>908.1</ele>
        <time>2015-05-30T08:11:47Z</time>
      </trkpt>
      <trkpt lat="45.68364" lon="2.97972">
        <ele>908.1</ele>
        <time>2015-05-30T08:11:48Z</time>
      </trkpt>
      <trkpt lat="45.68368" lon="2.97973">
        <ele>908.1</ele>
        <time>2015-05-30T08:11:50Z</time>
      </trkpt>
      <trkpt lat="45.68403" lon="2.97981">
        <ele>909.54</ele>
        <time>2015-05-30T08:12:01Z</time>
      </trkpt>
      <trkpt lat="45.68421" lon="2.97972">
        <ele>910.51</ele>
        <time>2015-05-30T08:12:11Z</time>
      </trkpt>
      <trkpt lat="45.6843" lon="2.97969">
        <ele>910.99</ele>
        <time>2015-05-30T08:12:16Z</time>
      </trkpt>
      <trkpt lat="45.68432" lon="2.97967">
        <ele>911.47</ele>
        <time>2015-05-30T08:12:17Z</time>
      </trkpt>
      <trkpt lat="45.68434" lon="2.97967">
        <ele>911.47</ele>
        <time>2015-05-30T08:12:18Z</time>
      </trkpt>
      <trkpt lat="45.68435" lon="2.97965">
        <ele>911.47</ele>
        <time>2015-05-30T08:12:19Z</time>
      </trkpt>
      <trkpt lat="45.68436" lon="2.97964">
        <ele>911.95</ele>
        <time>2015-05-30T08:12:20Z</time>
      </trkpt>
      <trkpt lat="45.68438" lon="2.97964">
        <ele>911.95</ele>
        <time>2015-05-30T08:12:21Z</time>
      </trkpt>
      <trkpt lat="45.68439" lon="2.97964">
        <ele>912.43</ele>
        <time>2015-05-30T08:12:22Z</time>
      </trkpt>
      <trkpt lat="45.68441" lon="2.97963">
        <ele>912.43</ele>
        <time>2015-05-30T08:12:23Z</time>
      </trkpt>
      <trkpt lat="45.68442" lon="2.97963">
        <ele>912.43</ele>
        <time>2015-05-30T08:12:24Z</time>
      </trkpt>
      <trkpt lat="45.68444" lon="2.97963">
        <ele>912.91</ele>
        <time>2015-05-30T08:12:25Z</time>
      </trkpt>
      <trkpt lat="45.68445" lon="2.97963">
        <ele>912.91</ele>
        <time>2015-05-30T08:12:26Z</time>
      </trkpt>
      <trkpt lat="45.6845" lon="2.97965">
        <ele>913.39</ele>
        <time>2015-05-30T08:12:30Z</time>
      </trkpt>
      <trkpt lat="45.68451" lon="2.97965">
        <ele>913.87</ele>
        <time>2015-05-30T08:12:31Z</time>
      </trkpt>
      <trkpt lat="45.68468" lon="2.97988">
        <ele>915.79</ele>
        <time>2015-05-30T08:12:46Z</time>
      </trkpt>
      <trkpt lat="45.68471" lon="2.97995">
        <ele>915.79</ele>
        <time>2015-05-30T08:12:50Z</time>
      </trkpt>
      <trkpt lat="45.68473" lon="2.98003">
        <ele>914.35</ele>
        <time>2015-05-30T08:12:57Z</time>
      </trkpt>
      <trkpt lat="45.68475" lon="2.98004">
        <ele>914.35</ele>
        <time>2015-05-30T08:12:58Z</time>
      </trkpt>
      <trkpt lat="45.68477" lon="2.98006">
        <ele>914.35</ele>
        <time>2015-05-30T08:12:59Z</time>
      </trkpt>
      <trkpt lat="45.6848" lon="2.98008">
        <ele>914.35</ele>
        <time>2015-05-30T08:13:00Z</time>
      </trkpt>
      <trkpt lat="45.68484" lon="2.9801">
        <ele>913.87</ele>
        <time>2015-05-30T08:13:01Z</time>
      </trkpt>
      <trkpt lat="45.68487" lon="2.98012">
        <ele>913.87</ele>
        <time>2015-05-30T08:13:02Z</time>
      </trkpt>
      <trkpt lat="45.68489" lon="2.98013">
        <ele>913.87</ele>
        <time>2015-05-30T08:13:03Z</time>
      </trkpt>
      <trkpt lat="45.68492" lon="2.98015">
        <ele>913.39</ele>
        <time>2015-05-30T08:13:04Z</time>
      </trkpt>
      <trkpt lat="45.68494" lon="2.98017">
        <ele>914.35</ele>
        <time>2015-05-30T08:13:05Z</time>
      </trkpt>
      <trkpt lat="45.68526" lon="2.98036">
        <ele>913.39</ele>
        <time>2015-05-30T08:13:15Z</time>
      </trkpt>
      <trkpt lat="45.68539" lon="2.98044">
        <ele>913.39</ele>
        <time>2015-05-30T08:13:19Z</time>
      </trkpt>
      <trkpt lat="45.68543" lon="2.98045">
        <ele>913.39</ele>
        <time>2015-05-30T08:13:20Z</time>
      </trkpt>
      <trkpt lat="45.68547" lon="2.98044">
        <ele>913.39</ele>
        <time>2015-05-30T08:13:21Z</time>
      </trkpt>
      <trkpt lat="45.6855" lon="2.98044">
        <ele>913.39</ele>
        <time>2015-05-30T08:13:22Z</time>
      </trkpt>
      <trkpt lat="45.68553" lon="2.98045">
        <ele>913.39</ele>
        <time>2015-05-30T08:13:23Z</time>
      </trkpt>
      <trkpt lat="45.68555" lon="2.98045">
        <ele>913.87</ele>
        <time>2015-05-30T08:13:24Z</time>
      </trkpt>
      <trkpt lat="45.68556" lon="2.98046">
        <ele>913.87</ele>
        <time>2015-05-30T08:13:25Z</time>
      </trkpt>
      <trkpt lat="45.68559" lon="2.98046">
        <ele>913.87</ele>
        <time>2015-05-30T08:13:26Z</time>
      </trkpt>
      <trkpt lat="45.6856" lon="2.98047">
        <ele>913.87</ele>
        <time>2015-05-30T08:13:27Z</time>
      </trkpt>
      <trkpt lat="45.68562" lon="2.98048">
        <ele>913.87</ele>
        <time>2015-05-30T08:13:28Z</time>
      </trkpt>
      <trkpt lat="45.68564" lon="2.98048">
        <ele>913.87</ele>
        <time>2015-05-30T08:13:29Z</time>
      </trkpt>
      <trkpt lat="45.68566" lon="2.98049">
        <ele>913.87</ele>
        <time>2015-05-30T08:13:30Z</time>
      </trkpt>
      <trkpt lat="45.6857" lon="2.9805">
        <ele>913.87</ele>
        <time>2015-05-30T08:13:31Z</time>
      </trkpt>
      <trkpt lat="45.68598" lon="2.98083">
        <ele>912.91</ele>
        <time>2015-05-30T08:13:42Z</time>
      </trkpt>
      <trkpt lat="45.68598" lon="2.98099">
        <ele>911.95</ele>
        <time>2015-05-30T08:13:46Z</time>
      </trkpt>
      <trkpt lat="45.68607" lon="2.98146">
        <ele>910.99</ele>
        <time>2015-05-30T08:13:55Z</time>
      </trkpt>
      <trkpt lat="45.68624" lon="2.98181">
        <ele>910.51</ele>
        <time>2015-05-30T08:14:05Z</time>
      </trkpt>
      <trkpt lat="45.68626" lon="2.98184">
        <ele>910.51</ele>
        <time>2015-05-30T08:14:15Z</time>
      </trkpt>
      <trkpt lat="45.68627" lon="2.98186">
        <ele>910.51</ele>
        <time>2015-05-30T08:14:18Z</time>
      </trkpt>
      <trkpt lat="45.68631" lon="2.98189">
        <ele>910.51</ele>
        <time>2015-05-30T08:14:29Z</time>
      </trkpt>
      <trkpt lat="45.68632" lon="2.9819">
        <ele>910.51</ele>
        <time>2015-05-30T08:14:42Z</time>
      </trkpt>
      <trkpt lat="45.68633" lon="2.98192">
        <ele>910.51</ele>
        <time>2015-05-30T08:14:50Z</time>
      </trkpt>
      <trkpt lat="45.6864" lon="2.98202">
        <ele>910.51</ele>
        <time>2015-05-30T08:14:57Z</time>
      </trkpt>
      <trkpt lat="45.68656" lon="2.98222">
        <ele>910.03</ele>
        <time>2015-05-30T08:15:08Z</time>
      </trkpt>
      <trkpt lat="45.68659" lon="2.98234">
        <ele>909.54</ele>
        <time>2015-05-30T08:15:11Z</time>
      </trkpt>
      <trkpt lat="45.68676" lon="2.98259">
        <ele>909.06</ele>
        <time>2015-05-30T08:15:21Z</time>
      </trkpt>
      <trkpt lat="45.68679" lon="2.98269">
        <ele>909.06</ele>
        <time>2015-05-30T08:15:25Z</time>
      </trkpt>
      <trkpt lat="45.68681" lon="2.98275">
        <ele>909.54</ele>
        <time>2015-05-30T08:15:29Z</time>
      </trkpt>
      <trkpt lat="45.68687" lon="2.98297">
        <ele>908.58</ele>
        <time>2015-05-30T08:15:39Z</time>
      </trkpt>
      <trkpt lat="45.68687" lon="2.983">
        <ele>908.58</ele>
        <time>2015-05-30T08:15:40Z</time>
      </trkpt>
      <trkpt lat="45.68687" lon="2.98311">
        <ele>908.1</ele>
        <time>2015-05-30T08:15:46Z</time>
      </trkpt>
      <trkpt lat="45.68683" lon="2.98321">
        <ele>908.58</ele>
        <time>2015-05-30T08:15:53Z</time>
      </trkpt>
      <trkpt lat="45.6868" lon="2.98334">
        <ele>908.58</ele>
        <time>2015-05-30T08:15:57Z</time>
      </trkpt>
      <trkpt lat="45.68675" lon="2.98356">
        <ele>908.1</ele>
        <time>2015-05-30T08:16:05Z</time>
      </trkpt>
      <trkpt lat="45.68674" lon="2.98388">
        <ele>907.62</ele>
        <time>2015-05-30T08:16:15Z</time>
      </trkpt>
      <trkpt lat="45.68679" lon="2.98418">
        <ele>906.66</ele>
        <time>2015-05-30T08:16:23Z</time>
      </trkpt>
      <trkpt lat="45.68688" lon="2.98429">
        <ele>906.66</ele>
        <time>2015-05-30T08:16:27Z</time>
      </trkpt>
      <trkpt lat="45.68692" lon="2.9845">
        <ele>906.18</ele>
        <time>2015-05-30T08:16:36Z</time>
      </trkpt>
      <trkpt lat="45.68692" lon="2.98451">
        <ele>905.7</ele>
        <time>2015-05-30T08:16:37Z</time>
      </trkpt>
      <trkpt lat="45.687" lon="2.98456">
        <ele>906.18</ele>
        <time>2015-05-30T08:16:40Z</time>
      </trkpt>
      <trkpt lat="45.68716" lon="2.98457">
        <ele>907.14</ele>
        <time>2015-05-30T08:16:45Z</time>
      </trkpt>
      <trkpt lat="45.68723" lon="2.98459">
        <ele>906.66</ele>
        <time>2015-05-30T08:16:48Z</time>
      </trkpt>
      <trkpt lat="45.68739" lon="2.9849">
        <ele>905.7</ele>
        <time>2015-05-30T08:16:57Z</time>
      </trkpt>
      <trkpt lat="45.6874" lon="2.98521">
        <ele>904.74</ele>
        <time>2015-05-30T08:17:06Z</time>
      </trkpt>
      <trkpt lat="45.68752" lon="2.98526">
        <ele>904.74</ele>
        <time>2015-05-30T08:17:16Z</time>
      </trkpt>
      <trkpt lat="45.68755" lon="2.9853">
        <ele>904.74</ele>
        <time>2015-05-30T08:17:19Z</time>
      </trkpt>
      <trkpt lat="45.68757" lon="2.98532">
        <ele>904.74</ele>
        <time>2015-05-30T08:17:21Z</time>
      </trkpt>
      <trkpt lat="45.68758" lon="2.98534">
        <ele>904.74</ele>
        <time>2015-05-30T08:17:22Z</time>
      </trkpt>
      <trkpt lat="45.68759" lon="2.98536">
        <ele>904.74</ele>
        <time>2015-05-30T08:17:23Z</time>
      </trkpt>
      <trkpt lat="45.68763" lon="2.98551">
        <ele>904.74</ele>
        <time>2015-05-30T08:17:31Z</time>
      </trkpt>
      <trkpt lat="45.68765" lon="2.98554">
        <ele>904.74</ele>
        <time>2015-05-30T08:17:32Z</time>
      </trkpt>
      <trkpt lat="45.68767" lon="2.98556">
        <ele>904.74</ele>
        <time>2015-05-30T08:17:33Z</time>
      </trkpt>
      <trkpt lat="45.6877" lon="2.98559">
        <ele>904.74</ele>
        <time>2015-05-30T08:17:34Z</time>
      </trkpt>
      <trkpt lat="45.68772" lon="2.98562">
        <ele>904.74</ele>
        <time>2015-05-30T08:17:35Z</time>
      </trkpt>
      <trkpt lat="45.68774" lon="2.98565">
        <ele>904.74</ele>
        <time>2015-05-30T08:17:36Z</time>
      </trkpt>
      <trkpt lat="45.68776" lon="2.98568">
        <ele>904.74</ele>
        <time>2015-05-30T08:17:37Z</time>
      </trkpt>
      <trkpt lat="45.68777" lon="2.9857">
        <ele>904.74</ele>
        <time>2015-05-30T08:17:38Z</time>
      </trkpt>
      <trkpt lat="45.68791" lon="2.98594">
        <ele>905.7</ele>
        <time>2015-05-30T08:17:47Z</time>
      </trkpt>
      <trkpt lat="45.68793" lon="2.98602">
        <ele>906.18</ele>
        <time>2015-05-30T08:17:50Z</time>
      </trkpt>
      <trkpt lat="45.68795" lon="2.98612">
        <ele>907.62</ele>
        <time>2015-05-30T08:17:55Z</time>
      </trkpt>
      <trkpt lat="45.68793" lon="2.98618">
        <ele>908.1</ele>
        <time>2015-05-30T08:17:58Z</time>
      </trkpt>
      <trkpt lat="45.68793" lon="2.98621">
        <ele>908.58</ele>
        <time>2015-05-30T08:18:00Z</time>
      </trkpt>
      <trkpt lat="45.68822" lon="2.98648">
        <ele>910.03</ele>
        <time>2015-05-30T08:18:10Z</time>
      </trkpt>
      <trkpt lat="45.68844" lon="2.98666">
        <ele>911.47</ele>
        <time>2015-05-30T08:18:21Z</time>
      </trkpt>
      <trkpt lat="45.68853" lon="2.98672">
        <ele>912.43</ele>
        <time>2015-05-30T08:18:27Z</time>
      </trkpt>
      <trkpt lat="45.68864" lon="2.98676">
        <ele>912.91</ele>
        <time>2015-05-30T08:18:33Z</time>
      </trkpt>
      <trkpt lat="45.68878" lon="2.98683">
        <ele>913.87</ele>
        <time>2015-05-30T08:18:43Z</time>
      </trkpt>
      <trkpt lat="45.68884" lon="2.98685">
        <ele>914.35</ele>
        <time>2015-05-30T08:18:47Z</time>
      </trkpt>
      <trkpt lat="45.68892" lon="2.98687">
        <ele>914.35</ele>
        <time>2015-05-30T08:18:51Z</time>
      </trkpt>
      <trkpt lat="45.68897" lon="2.98685">
        <ele>915.31</ele>
        <time>2015-05-30T08:18:55Z</time>
      </trkpt>
      <trkpt lat="45.68906" lon="2.98685">
        <ele>915.79</ele>
        <time>2015-05-30T08:19:01Z</time>
      </trkpt>
      <trkpt lat="45.68913" lon="2.98679">
        <ele>916.27</ele>
        <time>2015-05-30T08:19:05Z</time>
      </trkpt>
      <trkpt lat="45.68919" lon="2.98676">
        <ele>916.27</ele>
        <time>2015-05-30T08:19:08Z</time>
      </trkpt>
      <trkpt lat="45.68933" lon="2.98688">
        <ele>914.83</ele>
        <time>2015-05-30T08:19:16Z</time>
      </trkpt>
      <trkpt lat="45.68956" lon="2.98701">
        <ele>914.83</ele>
        <time>2015-05-30T08:19:30Z</time>
      </trkpt>
      <trkpt lat="45.68981" lon="2.98727">
        <ele>915.31</ele>
        <time>2015-05-30T08:19:43Z</time>
      </trkpt>
      <trkpt lat="45.6901" lon="2.98758">
        <ele>916.27</ele>
        <time>2015-05-30T08:19:57Z</time>
      </trkpt>
      <trkpt lat="45.69026" lon="2.98798">
        <ele>915.79</ele>
        <time>2015-05-30T08:20:07Z</time>
      </trkpt>
      <trkpt lat="45.69041" lon="2.98795">
        <ele>915.79</ele>
        <time>2015-05-30T08:20:14Z</time>
      </trkpt>
      <trkpt lat="45.69056" lon="2.9876">
        <ele>914.83</ele>
        <time>2015-05-30T08:20:23Z</time>
      </trkpt>
      <trkpt lat="45.6906" lon="2.98757">
        <ele>914.35</ele>
        <time>2015-05-30T08:20:24Z</time>
      </trkpt>
      <trkpt lat="45.69064" lon="2.98755">
        <ele>914.35</ele>
        <time>2015-05-30T08:20:25Z</time>
      </trkpt>
      <trkpt lat="45.69069" lon="2.98754">
        <ele>914.35</ele>
        <time>2015-05-30T08:20:26Z</time>
      </trkpt>
      <trkpt lat="45.69074" lon="2.98753">
        <ele>913.87</ele>
        <time>2015-05-30T08:20:27Z</time>
      </trkpt>
      <trkpt lat="45.69079" lon="2.98754">
        <ele>913.87</ele>
        <time>2015-05-30T08:20:28Z</time>
      </trkpt>
      <trkpt lat="45.69084" lon="2.98756">
        <ele>913.87</ele>
        <time>2015-05-30T08:20:29Z</time>
      </trkpt>
      <trkpt lat="45.69089" lon="2.98757">
        <ele>913.87</ele>
        <time>2015-05-30T08:20:30Z</time>
      </trkpt>
      <trkpt lat="45.69138" lon="2.98771">
        <ele>914.35</ele>
        <time>2015-05-30T08:20:43Z</time>
      </trkpt>
      <trkpt lat="45.69171" lon="2.98782">
        <ele>915.31</ele>
        <time>2015-05-30T08:20:54Z</time>
      </trkpt>
      <trkpt lat="45.69197" lon="2.98827">
        <ele>916.75</ele>
        <time>2015-05-30T08:21:08Z</time>
      </trkpt>
      <trkpt lat="45.69217" lon="2.98868">
        <ele>919.16</ele>
        <time>2015-05-30T08:21:23Z</time>
      </trkpt>
      <trkpt lat="45.6924" lon="2.98904">
        <ele>922.04</ele>
        <time>2015-05-30T08:21:40Z</time>
      </trkpt>
      <trkpt lat="45.69251" lon="2.98923">
        <ele>924.45</ele>
        <time>2015-05-30T08:21:52Z</time>
      </trkpt>
      <trkpt lat="45.6925" lon="2.98934">
        <ele>925.89</ele>
        <time>2015-05-30T08:21:57Z</time>
      </trkpt>
      <trkpt lat="45.69229" lon="2.98956">
        <ele>924.45</ele>
        <time>2015-05-30T08:22:08Z</time>
      </trkpt>
      <trkpt lat="45.69211" lon="2.9899">
        <ele>923</ele>
        <time>2015-05-30T08:22:14Z</time>
      </trkpt>
      <trkpt lat="45.69208" lon="2.99005">
        <ele>923</ele>
        <time>2015-05-30T08:22:16Z</time>
      </trkpt>
      <trkpt lat="45.69205" lon="2.99018">
        <ele>922.52</ele>
        <time>2015-05-30T08:22:18Z</time>
      </trkpt>
      <trkpt lat="45.69191" lon="2.99039">
        <ele>920.6</ele>
        <time>2015-05-30T08:22:23Z</time>
      </trkpt>
      <trkpt lat="45.69184" lon="2.99043">
        <ele>919.64</ele>
        <time>2015-05-30T08:22:25Z</time>
      </trkpt>
      <trkpt lat="45.69179" lon="2.99048">
        <ele>918.68</ele>
        <time>2015-05-30T08:22:27Z</time>
      </trkpt>
      <trkpt lat="45.69176" lon="2.99074">
        <ele>916.75</ele>
        <time>2015-05-30T08:22:35Z</time>
      </trkpt>
      <trkpt lat="45.69194" lon="2.99132">
        <ele>917.24</ele>
        <time>2015-05-30T08:22:48Z</time>
      </trkpt>
      <trkpt lat="45.69196" lon="2.99182">
        <ele>917.72</ele>
        <time>2015-05-30T08:22:58Z</time>
      </trkpt>
      <trkpt lat="45.69209" lon="2.99247">
        <ele>918.68</ele>
        <time>2015-05-30T08:23:11Z</time>
      </trkpt>
      <trkpt lat="45.69235" lon="2.9931">
        <ele>920.12</ele>
        <time>2015-05-30T08:23:25Z</time>
      </trkpt>
      <trkpt lat="45.69275" lon="2.99393">
        <ele>917.72</ele>
        <time>2015-05-30T08:23:41Z</time>
      </trkpt>
      <trkpt lat="45.69282" lon="2.99406">
        <ele>917.24</ele>
        <time>2015-05-30T08:23:43Z</time>
      </trkpt>
      <trkpt lat="45.69301" lon="2.99436">
        <ele>916.27</ele>
        <time>2015-05-30T08:23:48Z</time>
      </trkpt>
      <trkpt lat="45.69316" lon="2.9945">
        <ele>915.79</ele>
        <time>2015-05-30T08:23:51Z</time>
      </trkpt>
      <trkpt lat="45.69346" lon="2.99474">
        <ele>914.83</ele>
        <time>2015-05-30T08:23:57Z</time>
      </trkpt>
      <trkpt lat="45.6935" lon="2.99479">
        <ele>914.83</ele>
        <time>2015-05-30T08:23:58Z</time>
      </trkpt>
      <trkpt lat="45.69358" lon="2.9949">
        <ele>914.83</ele>
        <time>2015-05-30T08:24:00Z</time>
      </trkpt>
      <trkpt lat="45.69362" lon="2.99496">
        <ele>914.83</ele>
        <time>2015-05-30T08:24:01Z</time>
      </trkpt>
      <trkpt lat="45.6939" lon="2.99546">
        <ele>913.87</ele>
        <time>2015-05-30T08:24:09Z</time>
      </trkpt>
      <trkpt lat="45.69394" lon="2.99551">
        <ele>913.39</ele>
        <time>2015-05-30T08:24:10Z</time>
      </trkpt>
      <trkpt lat="45.69397" lon="2.99557">
        <ele>913.39</ele>
        <time>2015-05-30T08:24:11Z</time>
      </trkpt>
      <trkpt lat="45.69399" lon="2.99564">
        <ele>913.39</ele>
        <time>2015-05-30T08:24:12Z</time>
      </trkpt>
      <trkpt lat="45.69401" lon="2.99572">
        <ele>912.91</ele>
        <time>2015-05-30T08:24:13Z</time>
      </trkpt>
      <trkpt lat="45.69403" lon="2.99577">
        <ele>912.91</ele>
        <time>2015-05-30T08:24:14Z</time>
      </trkpt>
      <trkpt lat="45.69406" lon="2.99582">
        <ele>912.91</ele>
        <time>2015-05-30T08:24:15Z</time>
      </trkpt>
      <trkpt lat="45.69408" lon="2.99585">
        <ele>913.39</ele>
        <time>2015-05-30T08:24:16Z</time>
      </trkpt>
      <trkpt lat="45.6941" lon="2.99586">
        <ele>912.91</ele>
        <time>2015-05-30T08:24:17Z</time>
      </trkpt>
      <trkpt lat="45.69411" lon="2.99587">
        <ele>913.39</ele>
        <time>2015-05-30T08:24:18Z</time>
      </trkpt>
      <trkpt lat="45.69413" lon="2.99586">
        <ele>913.39</ele>
        <time>2015-05-30T08:24:32Z</time>
      </trkpt>
      <trkpt lat="45.69412" lon="2.99586">
        <ele>914.35</ele>
        <time>2015-05-30T08:25:03Z</time>
      </trkpt>
    </trkseg>
  </trk>
</gpx>